<?xml version="1.0" encoding="UTF-8" standalone="no" ?>
<gpx xmlns="http://www.topografix.com/GPX/1/1" xmlns:xsi="http://www.w3.org/2001/XMLSchema-instance" xsi:schemaLocation="http://www.topografix.com/GPX/1/1 http://www.topografix.com/GPX/1/1/gpx.xsd" version="1.1" creator="VisuGPX - https://www.visugpx.com">
  <metadata>
    <name>83-Me-Pierrefeu</name>
    <desc><![CDATA[83-Me-Pierrefeu :  la Portanière, vallon de Sauvecanne, les Vidaux
2024-09-25]]></desc>
  </metadata>
  <trk>
    <name><![CDATA[2024-09-25-Me-JCP-Pierrefeu-cor]]></name>
    <desc><![CDATA[comment ...]]></desc>
    <extensions>
      <line xmlns="http://www.topografix.com/GPX/gpx_style/0/2">
        <width>4</width>
      </line>
    </extensions>
    <trkseg>
      <trkpt lat="43.24692" lon="6.17032">
        <ele>73.4</ele>
        <time>2024-09-25T12:39:49.069Z</time>
      </trkpt>
      <trkpt lat="43.24762" lon="6.17113">
        <ele>74</ele>
        <time>2024-09-25T12:41:28.808Z</time>
      </trkpt>
      <trkpt lat="43.2475" lon="6.17224">
        <ele>76</ele>
        <time>2024-09-25T12:42:58.574Z</time>
      </trkpt>
      <trkpt lat="43.2474" lon="6.17315">
        <ele>80</ele>
        <time>2024-09-25T12:44:11.577Z</time>
      </trkpt>
      <trkpt lat="43.2473" lon="6.17358">
        <ele>84</ele>
        <time>2024-09-25T12:44:48.336Z</time>
      </trkpt>
      <trkpt lat="43.24711" lon="6.17415">
        <ele>85</ele>
        <time>2024-09-25T12:45:37.327Z</time>
      </trkpt>
      <trkpt lat="43.24718" lon="6.17469">
        <ele>91</ele>
        <time>2024-09-25T12:46:21.484Z</time>
      </trkpt>
      <trkpt lat="43.24704" lon="6.17544">
        <ele>91</ele>
        <time>2024-09-25T12:47:23.127Z</time>
      </trkpt>
      <trkpt lat="43.24695" lon="6.17616">
        <ele>93.9</ele>
        <time>2024-09-25T12:48:21.326Z</time>
      </trkpt>
      <trkpt lat="43.24668" lon="6.17616">
        <ele>93</ele>
        <time>2024-09-25T12:48:50.278Z</time>
      </trkpt>
      <trkpt lat="43.24665" lon="6.17704">
        <ele>94.1</ele>
        <time>2024-09-25T12:50:00.939Z</time>
      </trkpt>
      <trkpt lat="43.24646" lon="6.17797">
        <ele>98.6</ele>
        <time>2024-09-25T12:51:17.329Z</time>
      </trkpt>
      <trkpt lat="43.24626" lon="6.17862">
        <ele>102.7</ele>
        <time>2024-09-25T12:52:13.971Z</time>
      </trkpt>
      <trkpt lat="43.24615" lon="6.17916">
        <ele>106</ele>
        <time>2024-09-25T12:52:59.000Z</time>
      </trkpt>
      <trkpt lat="43.24615" lon="6.17916">
        <ele>106</ele>
        <time>2024-09-25T12:53:01.000Z</time>
      </trkpt>
      <trkpt lat="43.24612" lon="6.17926">
        <ele>109</ele>
        <time>2024-09-25T12:53:27.000Z</time>
      </trkpt>
      <trkpt lat="43.24613" lon="6.1793">
        <ele>109</ele>
        <time>2024-09-25T12:53:29.000Z</time>
      </trkpt>
      <trkpt lat="43.24603" lon="6.17979">
        <ele>110</ele>
        <time>2024-09-25T12:53:59.000Z</time>
      </trkpt>
      <trkpt lat="43.24601" lon="6.18009">
        <ele>111</ele>
        <time>2024-09-25T12:54:17.000Z</time>
      </trkpt>
      <trkpt lat="43.24601" lon="6.18016">
        <ele>111</ele>
        <time>2024-09-25T12:54:21.000Z</time>
      </trkpt>
      <trkpt lat="43.24606" lon="6.18052">
        <ele>116</ele>
        <time>2024-09-25T12:54:45.000Z</time>
      </trkpt>
      <trkpt lat="43.24595" lon="6.18093">
        <ele>118</ele>
        <time>2024-09-25T12:55:09.000Z</time>
      </trkpt>
      <trkpt lat="43.24586" lon="6.18105">
        <ele>119</ele>
        <time>2024-09-25T12:55:17.000Z</time>
      </trkpt>
      <trkpt lat="43.2458" lon="6.18118">
        <ele>119</ele>
        <time>2024-09-25T12:55:25.000Z</time>
      </trkpt>
      <trkpt lat="43.24579" lon="6.1812">
        <ele>119</ele>
        <time>2024-09-25T12:55:27.000Z</time>
      </trkpt>
      <trkpt lat="43.24577" lon="6.18126">
        <ele>118</ele>
        <time>2024-09-25T12:55:31.000Z</time>
      </trkpt>
      <trkpt lat="43.24572" lon="6.18139">
        <ele>117</ele>
        <time>2024-09-25T12:55:41.000Z</time>
      </trkpt>
      <trkpt lat="43.24569" lon="6.18142">
        <ele>116</ele>
        <time>2024-09-25T12:55:43.000Z</time>
      </trkpt>
      <trkpt lat="43.24567" lon="6.18144">
        <ele>116</ele>
        <time>2024-09-25T12:55:45.000Z</time>
      </trkpt>
      <trkpt lat="43.24566" lon="6.18147">
        <ele>116</ele>
        <time>2024-09-25T12:55:47.000Z</time>
      </trkpt>
      <trkpt lat="43.24562" lon="6.18158">
        <ele>115</ele>
        <time>2024-09-25T12:55:55.000Z</time>
      </trkpt>
      <trkpt lat="43.24562" lon="6.1816">
        <ele>115</ele>
        <time>2024-09-25T12:55:57.000Z</time>
      </trkpt>
      <trkpt lat="43.24562" lon="6.18162">
        <ele>115</ele>
        <time>2024-09-25T12:55:59.000Z</time>
      </trkpt>
      <trkpt lat="43.2456" lon="6.18165">
        <ele>115</ele>
        <time>2024-09-25T12:56:01.000Z</time>
      </trkpt>
      <trkpt lat="43.24555" lon="6.1821">
        <ele>113</ele>
        <time>2024-09-25T12:56:31.000Z</time>
      </trkpt>
      <trkpt lat="43.24556" lon="6.18227">
        <ele>112</ele>
        <time>2024-09-25T12:56:45.000Z</time>
      </trkpt>
      <trkpt lat="43.24554" lon="6.18229">
        <ele>112</ele>
        <time>2024-09-25T12:56:49.000Z</time>
      </trkpt>
      <trkpt lat="43.24555" lon="6.18245">
        <ele>113</ele>
        <time>2024-09-25T12:56:57.000Z</time>
      </trkpt>
      <trkpt lat="43.24555" lon="6.18249">
        <ele>113</ele>
        <time>2024-09-25T12:56:59.000Z</time>
      </trkpt>
      <trkpt lat="43.24558" lon="6.18264">
        <ele>113</ele>
        <time>2024-09-25T12:57:09.000Z</time>
      </trkpt>
      <trkpt lat="43.24559" lon="6.18295">
        <ele>113</ele>
        <time>2024-09-25T12:57:27.000Z</time>
      </trkpt>
      <trkpt lat="43.24559" lon="6.1832">
        <ele>111</ele>
        <time>2024-09-25T12:57:41.000Z</time>
      </trkpt>
      <trkpt lat="43.24561" lon="6.18366">
        <ele>109</ele>
        <time>2024-09-25T12:58:05.000Z</time>
      </trkpt>
      <trkpt lat="43.24561" lon="6.1837">
        <ele>109</ele>
        <time>2024-09-25T12:58:07.000Z</time>
      </trkpt>
      <trkpt lat="43.24564" lon="6.1839">
        <ele>109</ele>
        <time>2024-09-25T12:58:19.000Z</time>
      </trkpt>
      <trkpt lat="43.24565" lon="6.18394">
        <ele>109</ele>
        <time>2024-09-25T12:58:21.000Z</time>
      </trkpt>
      <trkpt lat="43.24566" lon="6.18398">
        <ele>109</ele>
        <time>2024-09-25T12:58:23.000Z</time>
      </trkpt>
      <trkpt lat="43.24566" lon="6.18401">
        <ele>109</ele>
        <time>2024-09-25T12:58:25.000Z</time>
      </trkpt>
      <trkpt lat="43.24569" lon="6.18418">
        <ele>107</ele>
        <time>2024-09-25T12:58:35.000Z</time>
      </trkpt>
      <trkpt lat="43.24573" lon="6.18439">
        <ele>108</ele>
        <time>2024-09-25T12:58:47.000Z</time>
      </trkpt>
      <trkpt lat="43.24574" lon="6.18446">
        <ele>108</ele>
        <time>2024-09-25T12:58:51.000Z</time>
      </trkpt>
      <trkpt lat="43.24581" lon="6.18478">
        <ele>108</ele>
        <time>2024-09-25T12:59:11.000Z</time>
      </trkpt>
      <trkpt lat="43.24586" lon="6.1851">
        <ele>105</ele>
        <time>2024-09-25T12:59:45.000Z</time>
      </trkpt>
      <trkpt lat="43.24593" lon="6.18547">
        <ele>105</ele>
        <time>2024-09-25T13:00:15.000Z</time>
      </trkpt>
      <trkpt lat="43.24594" lon="6.18554">
        <ele>105</ele>
        <time>2024-09-25T13:00:19.000Z</time>
      </trkpt>
      <trkpt lat="43.24595" lon="6.18591">
        <ele>107</ele>
        <time>2024-09-25T13:00:41.000Z</time>
      </trkpt>
      <trkpt lat="43.24596" lon="6.18615">
        <ele>107</ele>
        <time>2024-09-25T13:00:57.000Z</time>
      </trkpt>
      <trkpt lat="43.24595" lon="6.18625">
        <ele>106</ele>
        <time>2024-09-25T13:01:05.000Z</time>
      </trkpt>
      <trkpt lat="43.24593" lon="6.18625">
        <ele>106</ele>
        <time>2024-09-25T13:01:23.000Z</time>
      </trkpt>
      <trkpt lat="43.24583" lon="6.18655">
        <ele>107</ele>
        <time>2024-09-25T13:01:41.000Z</time>
      </trkpt>
      <trkpt lat="43.24577" lon="6.18663">
        <ele>109</ele>
        <time>2024-09-25T13:01:47.000Z</time>
      </trkpt>
      <trkpt lat="43.24575" lon="6.18675">
        <ele>111</ele>
        <time>2024-09-25T13:01:55.000Z</time>
      </trkpt>
      <trkpt lat="43.24574" lon="6.18679">
        <ele>111</ele>
        <time>2024-09-25T13:01:57.000Z</time>
      </trkpt>
      <trkpt lat="43.24575" lon="6.18683">
        <ele>112</ele>
        <time>2024-09-25T13:01:59.000Z</time>
      </trkpt>
      <trkpt lat="43.24573" lon="6.18689">
        <ele>112</ele>
        <time>2024-09-25T13:02:03.000Z</time>
      </trkpt>
      <trkpt lat="43.24572" lon="6.18692">
        <ele>112</ele>
        <time>2024-09-25T13:02:05.000Z</time>
      </trkpt>
      <trkpt lat="43.24571" lon="6.18697">
        <ele>112</ele>
        <time>2024-09-25T13:02:09.000Z</time>
      </trkpt>
      <trkpt lat="43.24573" lon="6.18711">
        <ele>110</ele>
        <time>2024-09-25T13:03:45.000Z</time>
      </trkpt>
      <trkpt lat="43.24575" lon="6.18719">
        <ele>110</ele>
        <time>2024-09-25T13:03:51.000Z</time>
      </trkpt>
      <trkpt lat="43.24576" lon="6.18723">
        <ele>110</ele>
        <time>2024-09-25T13:03:55.000Z</time>
      </trkpt>
      <trkpt lat="43.24577" lon="6.18726">
        <ele>110</ele>
        <time>2024-09-25T13:03:57.000Z</time>
      </trkpt>
      <trkpt lat="43.24578" lon="6.1873">
        <ele>110</ele>
        <time>2024-09-25T13:03:59.000Z</time>
      </trkpt>
      <trkpt lat="43.24578" lon="6.18735">
        <ele>109</ele>
        <time>2024-09-25T13:04:03.000Z</time>
      </trkpt>
      <trkpt lat="43.24578" lon="6.18738">
        <ele>109</ele>
        <time>2024-09-25T13:04:05.000Z</time>
      </trkpt>
      <trkpt lat="43.24578" lon="6.18748">
        <ele>108</ele>
        <time>2024-09-25T13:04:11.000Z</time>
      </trkpt>
      <trkpt lat="43.24579" lon="6.18754">
        <ele>107</ele>
        <time>2024-09-25T13:04:15.000Z</time>
      </trkpt>
      <trkpt lat="43.2458" lon="6.18762">
        <ele>107</ele>
        <time>2024-09-25T13:04:19.000Z</time>
      </trkpt>
      <trkpt lat="43.2458" lon="6.18765">
        <ele>107</ele>
        <time>2024-09-25T13:04:21.000Z</time>
      </trkpt>
      <trkpt lat="43.2458" lon="6.18774">
        <ele>106</ele>
        <time>2024-09-25T13:04:27.000Z</time>
      </trkpt>
      <trkpt lat="43.24581" lon="6.18779">
        <ele>106</ele>
        <time>2024-09-25T13:04:29.000Z</time>
      </trkpt>
      <trkpt lat="43.24582" lon="6.18783">
        <ele>106</ele>
        <time>2024-09-25T13:04:31.000Z</time>
      </trkpt>
      <trkpt lat="43.24585" lon="6.18809">
        <ele>104</ele>
        <time>2024-09-25T13:04:47.000Z</time>
      </trkpt>
      <trkpt lat="43.24586" lon="6.18813">
        <ele>104</ele>
        <time>2024-09-25T13:04:49.000Z</time>
      </trkpt>
      <trkpt lat="43.24586" lon="6.18816">
        <ele>104</ele>
        <time>2024-09-25T13:04:51.000Z</time>
      </trkpt>
      <trkpt lat="43.24588" lon="6.18833">
        <ele>104</ele>
        <time>2024-09-25T13:05:01.000Z</time>
      </trkpt>
      <trkpt lat="43.24587" lon="6.18837">
        <ele>104</ele>
        <time>2024-09-25T13:05:03.000Z</time>
      </trkpt>
      <trkpt lat="43.24588" lon="6.18848">
        <ele>104</ele>
        <time>2024-09-25T13:05:09.000Z</time>
      </trkpt>
      <trkpt lat="43.24588" lon="6.18855">
        <ele>103</ele>
        <time>2024-09-25T13:05:13.000Z</time>
      </trkpt>
      <trkpt lat="43.24589" lon="6.18863">
        <ele>103</ele>
        <time>2024-09-25T13:05:17.000Z</time>
      </trkpt>
      <trkpt lat="43.24589" lon="6.18872">
        <ele>104</ele>
        <time>2024-09-25T13:05:23.000Z</time>
      </trkpt>
      <trkpt lat="43.24595" lon="6.18912">
        <ele>104</ele>
        <time>2024-09-25T13:05:45.000Z</time>
      </trkpt>
      <trkpt lat="43.24606" lon="6.18965">
        <ele>104</ele>
        <time>2024-09-25T13:06:15.000Z</time>
      </trkpt>
      <trkpt lat="43.24606" lon="6.18969">
        <ele>105</ele>
        <time>2024-09-25T13:06:17.000Z</time>
      </trkpt>
      <trkpt lat="43.24611" lon="6.19016">
        <ele>105</ele>
        <time>2024-09-25T13:06:47.000Z</time>
      </trkpt>
      <trkpt lat="43.24614" lon="6.19033">
        <ele>106</ele>
        <time>2024-09-25T13:06:57.000Z</time>
      </trkpt>
      <trkpt lat="43.24615" lon="6.1904">
        <ele>106</ele>
        <time>2024-09-25T13:07:01.000Z</time>
      </trkpt>
      <trkpt lat="43.24614" lon="6.19043">
        <ele>106</ele>
        <time>2024-09-25T13:07:03.000Z</time>
      </trkpt>
      <trkpt lat="43.24614" lon="6.19047">
        <ele>105</ele>
        <time>2024-09-25T13:07:05.000Z</time>
      </trkpt>
      <trkpt lat="43.24616" lon="6.19057">
        <ele>103</ele>
        <time>2024-09-25T13:07:11.000Z</time>
      </trkpt>
      <trkpt lat="43.24621" lon="6.19103">
        <ele>104</ele>
        <time>2024-09-25T13:08:35.000Z</time>
      </trkpt>
      <trkpt lat="43.24627" lon="6.19143">
        <ele>104</ele>
        <time>2024-09-25T13:08:59.000Z</time>
      </trkpt>
      <trkpt lat="43.24627" lon="6.19149">
        <ele>104</ele>
        <time>2024-09-25T13:09:03.000Z</time>
      </trkpt>
      <trkpt lat="43.24634" lon="6.19201">
        <ele>104</ele>
        <time>2024-09-25T13:09:33.000Z</time>
      </trkpt>
      <trkpt lat="43.24634" lon="6.19205">
        <ele>104</ele>
        <time>2024-09-25T13:09:37.000Z</time>
      </trkpt>
      <trkpt lat="43.24636" lon="6.19227">
        <ele>104</ele>
        <time>2024-09-25T13:09:51.000Z</time>
      </trkpt>
      <trkpt lat="43.24637" lon="6.19235">
        <ele>104</ele>
        <time>2024-09-25T13:09:55.000Z</time>
      </trkpt>
      <trkpt lat="43.2464" lon="6.19264">
        <ele>104</ele>
        <time>2024-09-25T13:10:11.000Z</time>
      </trkpt>
      <trkpt lat="43.2464" lon="6.19268">
        <ele>104</ele>
        <time>2024-09-25T13:10:13.000Z</time>
      </trkpt>
      <trkpt lat="43.24646" lon="6.19313">
        <ele>104</ele>
        <time>2024-09-25T13:10:39.000Z</time>
      </trkpt>
      <trkpt lat="43.24645" lon="6.19316">
        <ele>104</ele>
        <time>2024-09-25T13:10:41.000Z</time>
      </trkpt>
      <trkpt lat="43.24649" lon="6.19343">
        <ele>104</ele>
        <time>2024-09-25T13:10:55.000Z</time>
      </trkpt>
      <trkpt lat="43.24649" lon="6.19347">
        <ele>103</ele>
        <time>2024-09-25T13:10:57.000Z</time>
      </trkpt>
      <trkpt lat="43.24652" lon="6.19368">
        <ele>104</ele>
        <time>2024-09-25T13:11:09.000Z</time>
      </trkpt>
      <trkpt lat="43.24659" lon="6.1942">
        <ele>105</ele>
        <time>2024-09-25T13:11:39.000Z</time>
      </trkpt>
      <trkpt lat="43.24662" lon="6.19433">
        <ele>104</ele>
        <time>2024-09-25T13:11:47.000Z</time>
      </trkpt>
      <trkpt lat="43.24663" lon="6.19439">
        <ele>105</ele>
        <time>2024-09-25T13:11:51.000Z</time>
      </trkpt>
      <trkpt lat="43.24665" lon="6.19444">
        <ele>105</ele>
        <time>2024-09-25T13:11:53.000Z</time>
      </trkpt>
      <trkpt lat="43.24675" lon="6.19458">
        <ele>104</ele>
        <time>2024-09-25T13:12:05.000Z</time>
      </trkpt>
      <trkpt lat="43.24679" lon="6.19466">
        <ele>104</ele>
        <time>2024-09-25T13:12:09.000Z</time>
      </trkpt>
      <trkpt lat="43.24682" lon="6.1947">
        <ele>103</ele>
        <time>2024-09-25T13:12:13.000Z</time>
      </trkpt>
      <trkpt lat="43.24695" lon="6.19501">
        <ele>104</ele>
        <time>2024-09-25T13:12:33.000Z</time>
      </trkpt>
      <trkpt lat="43.24698" lon="6.19505">
        <ele>104</ele>
        <time>2024-09-25T13:12:37.000Z</time>
      </trkpt>
      <trkpt lat="43.24707" lon="6.19528">
        <ele>102</ele>
        <time>2024-09-25T13:12:51.000Z</time>
      </trkpt>
      <trkpt lat="43.24708" lon="6.19532">
        <ele>102</ele>
        <time>2024-09-25T13:12:53.000Z</time>
      </trkpt>
      <trkpt lat="43.24717" lon="6.19555">
        <ele>107</ele>
        <time>2024-09-25T13:13:07.000Z</time>
      </trkpt>
      <trkpt lat="43.24719" lon="6.19562">
        <ele>106</ele>
        <time>2024-09-25T13:13:13.000Z</time>
      </trkpt>
      <trkpt lat="43.24737" lon="6.1961">
        <ele>107</ele>
        <time>2024-09-25T13:13:43.000Z</time>
      </trkpt>
      <trkpt lat="43.24743" lon="6.19622">
        <ele>108</ele>
        <time>2024-09-25T13:13:51.000Z</time>
      </trkpt>
      <trkpt lat="43.24751" lon="6.19653">
        <ele>106</ele>
        <time>2024-09-25T13:14:09.000Z</time>
      </trkpt>
      <trkpt lat="43.24755" lon="6.19668">
        <ele>106</ele>
        <time>2024-09-25T13:14:19.000Z</time>
      </trkpt>
      <trkpt lat="43.24756" lon="6.19672">
        <ele>107</ele>
        <time>2024-09-25T13:14:21.000Z</time>
      </trkpt>
      <trkpt lat="43.24768" lon="6.19721">
        <ele>109</ele>
        <time>2024-09-25T13:14:51.000Z</time>
      </trkpt>
      <trkpt lat="43.24777" lon="6.19758">
        <ele>113</ele>
        <time>2024-09-25T13:15:15.000Z</time>
      </trkpt>
      <trkpt lat="43.24783" lon="6.19768">
        <ele>113</ele>
        <time>2024-09-25T13:15:23.000Z</time>
      </trkpt>
      <trkpt lat="43.24793" lon="6.19807">
        <ele>114</ele>
        <time>2024-09-25T13:15:45.000Z</time>
      </trkpt>
      <trkpt lat="43.24795" lon="6.19817">
        <ele>114</ele>
        <time>2024-09-25T13:15:51.000Z</time>
      </trkpt>
      <trkpt lat="43.24797" lon="6.19825">
        <ele>114</ele>
        <time>2024-09-25T13:15:55.000Z</time>
      </trkpt>
      <trkpt lat="43.24804" lon="6.19844">
        <ele>116</ele>
        <time>2024-09-25T13:16:09.000Z</time>
      </trkpt>
      <trkpt lat="43.24817" lon="6.19866">
        <ele>116</ele>
        <time>2024-09-25T13:16:25.000Z</time>
      </trkpt>
      <trkpt lat="43.24831" lon="6.19901">
        <ele>114</ele>
        <time>2024-09-25T13:16:47.000Z</time>
      </trkpt>
      <trkpt lat="43.24834" lon="6.19907">
        <ele>114</ele>
        <time>2024-09-25T13:16:53.000Z</time>
      </trkpt>
      <trkpt lat="43.24841" lon="6.1992">
        <ele>118</ele>
        <time>2024-09-25T13:17:53.000Z</time>
      </trkpt>
      <trkpt lat="43.24848" lon="6.1995">
        <ele>117</ele>
        <time>2024-09-25T13:18:11.000Z</time>
      </trkpt>
      <trkpt lat="43.24853" lon="6.19962">
        <ele>116</ele>
        <time>2024-09-25T13:18:17.000Z</time>
      </trkpt>
      <trkpt lat="43.24858" lon="6.19981">
        <ele>116</ele>
        <time>2024-09-25T13:18:29.000Z</time>
      </trkpt>
      <trkpt lat="43.24856" lon="6.1999">
        <ele>117</ele>
        <time>2024-09-25T13:18:37.000Z</time>
      </trkpt>
      <trkpt lat="43.24871" lon="6.20025">
        <ele>116</ele>
        <time>2024-09-25T13:19:05.000Z</time>
      </trkpt>
      <trkpt lat="43.24881" lon="6.20058">
        <ele>116</ele>
        <time>2024-09-25T13:19:35.000Z</time>
      </trkpt>
      <trkpt lat="43.24893" lon="6.20089">
        <ele>117</ele>
        <time>2024-09-25T13:19:55.000Z</time>
      </trkpt>
      <trkpt lat="43.24905" lon="6.20138">
        <ele>116</ele>
        <time>2024-09-25T13:20:27.000Z</time>
      </trkpt>
      <trkpt lat="43.2491" lon="6.20149">
        <ele>116</ele>
        <time>2024-09-25T13:20:33.000Z</time>
      </trkpt>
      <trkpt lat="43.24936" lon="6.20192">
        <ele>116</ele>
        <time>2024-09-25T13:21:05.000Z</time>
      </trkpt>
      <trkpt lat="43.24938" lon="6.20195">
        <ele>116</ele>
        <time>2024-09-25T13:21:07.000Z</time>
      </trkpt>
      <trkpt lat="43.24949" lon="6.2022">
        <ele>118</ele>
        <time>2024-09-25T13:21:31.000Z</time>
      </trkpt>
      <trkpt lat="43.24968" lon="6.20258">
        <ele>119</ele>
        <time>2024-09-25T13:21:59.000Z</time>
      </trkpt>
      <trkpt lat="43.24988" lon="6.20295">
        <ele>121</ele>
        <time>2024-09-25T13:22:29.000Z</time>
      </trkpt>
      <trkpt lat="43.25003" lon="6.20317">
        <ele>120</ele>
        <time>2024-09-25T13:22:47.000Z</time>
      </trkpt>
      <trkpt lat="43.25008" lon="6.20327">
        <ele>121</ele>
        <time>2024-09-25T13:22:55.000Z</time>
      </trkpt>
      <trkpt lat="43.25028" lon="6.20353">
        <ele>121</ele>
        <time>2024-09-25T13:23:17.000Z</time>
      </trkpt>
      <trkpt lat="43.25054" lon="6.20381">
        <ele>123</ele>
        <time>2024-09-25T13:23:47.000Z</time>
      </trkpt>
      <trkpt lat="43.25063" lon="6.20399">
        <ele>125</ele>
        <time>2024-09-25T13:25:13.000Z</time>
      </trkpt>
      <trkpt lat="43.25084" lon="6.20423">
        <ele>125</ele>
        <time>2024-09-25T13:25:39.000Z</time>
      </trkpt>
      <trkpt lat="43.25095" lon="6.20444">
        <ele>124</ele>
        <time>2024-09-25T13:25:55.000Z</time>
      </trkpt>
      <trkpt lat="43.25097" lon="6.20449">
        <ele>123</ele>
        <time>2024-09-25T13:25:59.000Z</time>
      </trkpt>
      <trkpt lat="43.25118" lon="6.2049">
        <ele>123</ele>
        <time>2024-09-25T13:26:29.000Z</time>
      </trkpt>
      <trkpt lat="43.25137" lon="6.2051">
        <ele>122</ele>
        <time>2024-09-25T13:26:49.000Z</time>
      </trkpt>
      <trkpt lat="43.25167" lon="6.20542">
        <ele>124</ele>
        <time>2024-09-25T13:27:19.000Z</time>
      </trkpt>
      <trkpt lat="43.25188" lon="6.20559">
        <ele>127</ele>
        <time>2024-09-25T13:27:43.000Z</time>
      </trkpt>
      <trkpt lat="43.25214" lon="6.20572">
        <ele>129</ele>
        <time>2024-09-25T13:28:19.000Z</time>
      </trkpt>
      <trkpt lat="43.25239" lon="6.20582">
        <ele>130</ele>
        <time>2024-09-25T13:28:39.000Z</time>
      </trkpt>
      <trkpt lat="43.25258" lon="6.20602">
        <ele>129</ele>
        <time>2024-09-25T13:28:57.000Z</time>
      </trkpt>
      <trkpt lat="43.25259" lon="6.20604">
        <ele>129</ele>
        <time>2024-09-25T13:28:59.000Z</time>
      </trkpt>
      <trkpt lat="43.25261" lon="6.20607">
        <ele>129</ele>
        <time>2024-09-25T13:29:01.000Z</time>
      </trkpt>
      <trkpt lat="43.25268" lon="6.20614">
        <ele>130</ele>
        <time>2024-09-25T13:29:09.000Z</time>
      </trkpt>
      <trkpt lat="43.25288" lon="6.20635">
        <ele>128</ele>
        <time>2024-09-25T13:29:29.000Z</time>
      </trkpt>
      <trkpt lat="43.25311" lon="6.20666">
        <ele>130</ele>
        <time>2024-09-25T13:29:55.000Z</time>
      </trkpt>
      <trkpt lat="43.25313" lon="6.2067">
        <ele>130</ele>
        <time>2024-09-25T13:29:57.000Z</time>
      </trkpt>
      <trkpt lat="43.25341" lon="6.20704">
        <ele>132</ele>
        <time>2024-09-25T13:30:27.000Z</time>
      </trkpt>
      <trkpt lat="43.25367" lon="6.20738">
        <ele>134</ele>
        <time>2024-09-25T13:30:57.000Z</time>
      </trkpt>
      <trkpt lat="43.25395" lon="6.20774">
        <ele>136</ele>
        <time>2024-09-25T13:31:27.000Z</time>
      </trkpt>
      <trkpt lat="43.2542" lon="6.20811">
        <ele>141</ele>
        <time>2024-09-25T13:31:57.000Z</time>
      </trkpt>
      <trkpt lat="43.25432" lon="6.20832">
        <ele>142</ele>
        <time>2024-09-25T13:32:13.000Z</time>
      </trkpt>
      <trkpt lat="43.25435" lon="6.20835">
        <ele>142</ele>
        <time>2024-09-25T13:32:15.000Z</time>
      </trkpt>
      <trkpt lat="43.25439" lon="6.20841">
        <ele>141</ele>
        <time>2024-09-25T13:32:19.000Z</time>
      </trkpt>
      <trkpt lat="43.2544" lon="6.20845">
        <ele>141</ele>
        <time>2024-09-25T13:32:21.000Z</time>
      </trkpt>
      <trkpt lat="43.25446" lon="6.20852">
        <ele>142</ele>
        <time>2024-09-25T13:32:29.000Z</time>
      </trkpt>
      <trkpt lat="43.25457" lon="6.20869">
        <ele>142</ele>
        <time>2024-09-25T13:32:43.000Z</time>
      </trkpt>
      <trkpt lat="43.25469" lon="6.20878">
        <ele>141</ele>
        <time>2024-09-25T13:32:53.000Z</time>
      </trkpt>
      <trkpt lat="43.25471" lon="6.20882">
        <ele>141</ele>
        <time>2024-09-25T13:32:55.000Z</time>
      </trkpt>
      <trkpt lat="43.25494" lon="6.20917">
        <ele>143</ele>
        <time>2024-09-25T13:33:23.000Z</time>
      </trkpt>
      <trkpt lat="43.25507" lon="6.20935">
        <ele>142</ele>
        <time>2024-09-25T13:33:37.000Z</time>
      </trkpt>
      <trkpt lat="43.2552" lon="6.20966">
        <ele>141</ele>
        <time>2024-09-25T13:33:59.000Z</time>
      </trkpt>
      <trkpt lat="43.25539" lon="6.21011">
        <ele>141</ele>
        <time>2024-09-25T13:34:29.000Z</time>
      </trkpt>
      <trkpt lat="43.25552" lon="6.2105">
        <ele>139</ele>
        <time>2024-09-25T13:35:11.000Z</time>
      </trkpt>
      <trkpt lat="43.25555" lon="6.21057">
        <ele>139</ele>
        <time>2024-09-25T13:35:15.000Z</time>
      </trkpt>
      <trkpt lat="43.25556" lon="6.21061">
        <ele>139</ele>
        <time>2024-09-25T13:35:17.000Z</time>
      </trkpt>
      <trkpt lat="43.25556" lon="6.21064">
        <ele>139</ele>
        <time>2024-09-25T13:35:19.000Z</time>
      </trkpt>
      <trkpt lat="43.25565" lon="6.2112">
        <ele>136</ele>
        <time>2024-09-25T13:35:53.000Z</time>
      </trkpt>
      <trkpt lat="43.25564" lon="6.21145">
        <ele>136</ele>
        <time>2024-09-25T13:36:09.000Z</time>
      </trkpt>
      <trkpt lat="43.25565" lon="6.2115">
        <ele>136</ele>
        <time>2024-09-25T13:36:11.000Z</time>
      </trkpt>
      <trkpt lat="43.25566" lon="6.21157">
        <ele>137</ele>
        <time>2024-09-25T13:36:17.000Z</time>
      </trkpt>
      <trkpt lat="43.25564" lon="6.21213">
        <ele>138</ele>
        <time>2024-09-25T13:36:49.000Z</time>
      </trkpt>
      <trkpt lat="43.25562" lon="6.21231">
        <ele>136</ele>
        <time>2024-09-25T13:37:03.000Z</time>
      </trkpt>
      <trkpt lat="43.25559" lon="6.21242">
        <ele>137</ele>
        <time>2024-09-25T13:37:11.000Z</time>
      </trkpt>
      <trkpt lat="43.25557" lon="6.21251">
        <ele>137</ele>
        <time>2024-09-25T13:37:15.000Z</time>
      </trkpt>
      <trkpt lat="43.25555" lon="6.21267">
        <ele>140</ele>
        <time>2024-09-25T13:37:25.000Z</time>
      </trkpt>
      <trkpt lat="43.25554" lon="6.21269">
        <ele>141</ele>
        <time>2024-09-25T13:37:27.000Z</time>
      </trkpt>
      <trkpt lat="43.25553" lon="6.21279">
        <ele>141</ele>
        <time>2024-09-25T13:37:33.000Z</time>
      </trkpt>
      <trkpt lat="43.25555" lon="6.21302">
        <ele>140</ele>
        <time>2024-09-25T13:37:47.000Z</time>
      </trkpt>
      <trkpt lat="43.25556" lon="6.21313">
        <ele>143</ele>
        <time>2024-09-25T13:37:55.000Z</time>
      </trkpt>
      <trkpt lat="43.25559" lon="6.2132">
        <ele>145</ele>
        <time>2024-09-25T13:37:59.000Z</time>
      </trkpt>
      <trkpt lat="43.25563" lon="6.21334">
        <ele>145</ele>
        <time>2024-09-25T13:38:09.000Z</time>
      </trkpt>
      <trkpt lat="43.25563" lon="6.21338">
        <ele>145</ele>
        <time>2024-09-25T13:38:11.000Z</time>
      </trkpt>
      <trkpt lat="43.25567" lon="6.21353">
        <ele>146</ele>
        <time>2024-09-25T13:38:21.000Z</time>
      </trkpt>
      <trkpt lat="43.25574" lon="6.21345">
        <ele>148</ele>
        <time>2024-09-25T13:39:57.000Z</time>
      </trkpt>
      <trkpt lat="43.25573" lon="6.21342">
        <ele>149</ele>
        <time>2024-09-25T13:39:59.000Z</time>
      </trkpt>
      <trkpt lat="43.25572" lon="6.21339">
        <ele>151</ele>
        <time>2024-09-25T13:40:01.000Z</time>
      </trkpt>
      <trkpt lat="43.25567" lon="6.21317">
        <ele>153</ele>
        <time>2024-09-25T13:40:13.000Z</time>
      </trkpt>
      <trkpt lat="43.25566" lon="6.2131">
        <ele>153</ele>
        <time>2024-09-25T13:40:17.000Z</time>
      </trkpt>
      <trkpt lat="43.25566" lon="6.21305">
        <ele>152</ele>
        <time>2024-09-25T13:40:19.000Z</time>
      </trkpt>
      <trkpt lat="43.25566" lon="6.21302">
        <ele>152</ele>
        <time>2024-09-25T13:40:21.000Z</time>
      </trkpt>
      <trkpt lat="43.25568" lon="6.21292">
        <ele>152</ele>
        <time>2024-09-25T13:40:27.000Z</time>
      </trkpt>
      <trkpt lat="43.25575" lon="6.21274">
        <ele>151</ele>
        <time>2024-09-25T13:40:39.000Z</time>
      </trkpt>
      <trkpt lat="43.25581" lon="6.21261">
        <ele>151</ele>
        <time>2024-09-25T13:40:49.000Z</time>
      </trkpt>
      <trkpt lat="43.256" lon="6.21218">
        <ele>159</ele>
        <time>2024-09-25T13:41:23.000Z</time>
      </trkpt>
      <trkpt lat="43.25614" lon="6.21175">
        <ele>161</ele>
        <time>2024-09-25T13:41:53.000Z</time>
      </trkpt>
      <trkpt lat="43.25616" lon="6.21169">
        <ele>162</ele>
        <time>2024-09-25T13:41:57.000Z</time>
      </trkpt>
      <trkpt lat="43.25622" lon="6.21143">
        <ele>165</ele>
        <time>2024-09-25T13:42:15.000Z</time>
      </trkpt>
      <trkpt lat="43.25631" lon="6.21103">
        <ele>171</ele>
        <time>2024-09-25T13:42:45.000Z</time>
      </trkpt>
      <trkpt lat="43.25631" lon="6.211">
        <ele>171</ele>
        <time>2024-09-25T13:42:47.000Z</time>
      </trkpt>
      <trkpt lat="43.25631" lon="6.21097">
        <ele>172</ele>
        <time>2024-09-25T13:42:49.000Z</time>
      </trkpt>
      <trkpt lat="43.25636" lon="6.21083">
        <ele>173</ele>
        <time>2024-09-25T13:42:59.000Z</time>
      </trkpt>
      <trkpt lat="43.25637" lon="6.21079">
        <ele>173</ele>
        <time>2024-09-25T13:43:01.000Z</time>
      </trkpt>
      <trkpt lat="43.2564" lon="6.21074">
        <ele>173</ele>
        <time>2024-09-25T13:43:05.000Z</time>
      </trkpt>
      <trkpt lat="43.2564" lon="6.21071">
        <ele>173</ele>
        <time>2024-09-25T13:43:07.000Z</time>
      </trkpt>
      <trkpt lat="43.25645" lon="6.21057">
        <ele>174</ele>
        <time>2024-09-25T13:43:19.000Z</time>
      </trkpt>
      <trkpt lat="43.25642" lon="6.21031">
        <ele>176</ele>
        <time>2024-09-25T13:43:35.000Z</time>
      </trkpt>
      <trkpt lat="43.2564" lon="6.21031">
        <ele>177</ele>
        <time>2024-09-25T13:43:37.000Z</time>
      </trkpt>
      <trkpt lat="43.25639" lon="6.21027">
        <ele>177</ele>
        <time>2024-09-25T13:43:39.000Z</time>
      </trkpt>
      <trkpt lat="43.25636" lon="6.21021">
        <ele>178</ele>
        <time>2024-09-25T13:43:43.000Z</time>
      </trkpt>
      <trkpt lat="43.25635" lon="6.21015">
        <ele>179</ele>
        <time>2024-09-25T13:43:47.000Z</time>
      </trkpt>
      <trkpt lat="43.25641" lon="6.21005">
        <ele>178</ele>
        <time>2024-09-25T13:44:27.000Z</time>
      </trkpt>
      <trkpt lat="43.25646" lon="6.21008">
        <ele>178</ele>
        <time>2024-09-25T13:44:33.000Z</time>
      </trkpt>
      <trkpt lat="43.25648" lon="6.21012">
        <ele>179</ele>
        <time>2024-09-25T13:44:35.000Z</time>
      </trkpt>
      <trkpt lat="43.25652" lon="6.21017">
        <ele>180</ele>
        <time>2024-09-25T13:44:39.000Z</time>
      </trkpt>
      <trkpt lat="43.25663" lon="6.21022">
        <ele>183</ele>
        <time>2024-09-25T13:44:49.000Z</time>
      </trkpt>
      <trkpt lat="43.25669" lon="6.21011">
        <ele>183</ele>
        <time>2024-09-25T13:45:09.000Z</time>
      </trkpt>
      <trkpt lat="43.25668" lon="6.21006">
        <ele>183</ele>
        <time>2024-09-25T13:45:11.000Z</time>
      </trkpt>
      <trkpt lat="43.25667" lon="6.21004">
        <ele>184</ele>
        <time>2024-09-25T13:45:13.000Z</time>
      </trkpt>
      <trkpt lat="43.25664" lon="6.20969">
        <ele>184</ele>
        <time>2024-09-25T13:45:37.000Z</time>
      </trkpt>
      <trkpt lat="43.25666" lon="6.20953">
        <ele>183</ele>
        <time>2024-09-25T13:45:45.000Z</time>
      </trkpt>
      <trkpt lat="43.25664" lon="6.20945">
        <ele>183</ele>
        <time>2024-09-25T13:45:49.000Z</time>
      </trkpt>
      <trkpt lat="43.25664" lon="6.2094">
        <ele>183</ele>
        <time>2024-09-25T13:45:51.000Z</time>
      </trkpt>
      <trkpt lat="43.25663" lon="6.20934">
        <ele>184</ele>
        <time>2024-09-25T13:45:55.000Z</time>
      </trkpt>
      <trkpt lat="43.25665" lon="6.20894">
        <ele>183</ele>
        <time>2024-09-25T13:46:19.000Z</time>
      </trkpt>
      <trkpt lat="43.25661" lon="6.20853">
        <ele>179</ele>
        <time>2024-09-25T13:46:43.000Z</time>
      </trkpt>
      <trkpt lat="43.2566" lon="6.20849">
        <ele>179</ele>
        <time>2024-09-25T13:46:45.000Z</time>
      </trkpt>
      <trkpt lat="43.25661" lon="6.20843">
        <ele>178</ele>
        <time>2024-09-25T13:46:51.000Z</time>
      </trkpt>
      <trkpt lat="43.25658" lon="6.2083">
        <ele>178</ele>
        <time>2024-09-25T13:46:57.000Z</time>
      </trkpt>
      <trkpt lat="43.25657" lon="6.20818">
        <ele>177</ele>
        <time>2024-09-25T13:47:05.000Z</time>
      </trkpt>
      <trkpt lat="43.25653" lon="6.20805">
        <ele>174</ele>
        <time>2024-09-25T13:47:13.000Z</time>
      </trkpt>
      <trkpt lat="43.2565" lon="6.20797">
        <ele>174</ele>
        <time>2024-09-25T13:47:17.000Z</time>
      </trkpt>
      <trkpt lat="43.25648" lon="6.20796">
        <ele>175</ele>
        <time>2024-09-25T13:47:19.000Z</time>
      </trkpt>
      <trkpt lat="43.25637" lon="6.20773">
        <ele>175</ele>
        <time>2024-09-25T13:47:33.000Z</time>
      </trkpt>
      <trkpt lat="43.25635" lon="6.2075">
        <ele>174</ele>
        <time>2024-09-25T13:47:47.000Z</time>
      </trkpt>
      <trkpt lat="43.25635" lon="6.20746">
        <ele>174</ele>
        <time>2024-09-25T13:47:49.000Z</time>
      </trkpt>
      <trkpt lat="43.25632" lon="6.20735">
        <ele>174</ele>
        <time>2024-09-25T13:47:55.000Z</time>
      </trkpt>
      <trkpt lat="43.2563" lon="6.20719">
        <ele>174</ele>
        <time>2024-09-25T13:48:05.000Z</time>
      </trkpt>
      <trkpt lat="43.25629" lon="6.20714">
        <ele>174</ele>
        <time>2024-09-25T13:48:07.000Z</time>
      </trkpt>
      <trkpt lat="43.25627" lon="6.2071">
        <ele>174</ele>
        <time>2024-09-25T13:48:09.000Z</time>
      </trkpt>
      <trkpt lat="43.25626" lon="6.20693">
        <ele>173</ele>
        <time>2024-09-25T13:48:19.000Z</time>
      </trkpt>
      <trkpt lat="43.25626" lon="6.20689">
        <ele>173</ele>
        <time>2024-09-25T13:48:21.000Z</time>
      </trkpt>
      <trkpt lat="43.25626" lon="6.2067">
        <ele>171</ele>
        <time>2024-09-25T13:48:31.000Z</time>
      </trkpt>
      <trkpt lat="43.25626" lon="6.20661">
        <ele>169</ele>
        <time>2024-09-25T13:48:35.000Z</time>
      </trkpt>
      <trkpt lat="43.25625" lon="6.20658">
        <ele>169</ele>
        <time>2024-09-25T13:48:37.000Z</time>
      </trkpt>
      <trkpt lat="43.25628" lon="6.2063">
        <ele>169</ele>
        <time>2024-09-25T13:48:53.000Z</time>
      </trkpt>
      <trkpt lat="43.2563" lon="6.20604">
        <ele>167</ele>
        <time>2024-09-25T13:49:07.000Z</time>
      </trkpt>
      <trkpt lat="43.25632" lon="6.20569">
        <ele>165</ele>
        <time>2024-09-25T13:49:27.000Z</time>
      </trkpt>
      <trkpt lat="43.25635" lon="6.20516">
        <ele>162</ele>
        <time>2024-09-25T13:49:57.000Z</time>
      </trkpt>
      <trkpt lat="43.25638" lon="6.20513">
        <ele>162</ele>
        <time>2024-09-25T13:49:59.000Z</time>
      </trkpt>
      <trkpt lat="43.2564" lon="6.20507">
        <ele>162</ele>
        <time>2024-09-25T13:50:03.000Z</time>
      </trkpt>
      <trkpt lat="43.25639" lon="6.20489">
        <ele>161</ele>
        <time>2024-09-25T13:50:11.000Z</time>
      </trkpt>
      <trkpt lat="43.2564" lon="6.20485">
        <ele>161</ele>
        <time>2024-09-25T13:50:13.000Z</time>
      </trkpt>
      <trkpt lat="43.25642" lon="6.20475">
        <ele>161</ele>
        <time>2024-09-25T13:50:19.000Z</time>
      </trkpt>
      <trkpt lat="43.25646" lon="6.20457">
        <ele>162</ele>
        <time>2024-09-25T13:50:29.000Z</time>
      </trkpt>
      <trkpt lat="43.25647" lon="6.2045">
        <ele>162</ele>
        <time>2024-09-25T13:50:35.000Z</time>
      </trkpt>
      <trkpt lat="43.25654" lon="6.20438">
        <ele>161</ele>
        <time>2024-09-25T13:50:43.000Z</time>
      </trkpt>
      <trkpt lat="43.25654" lon="6.20434">
        <ele>161</ele>
        <time>2024-09-25T13:50:45.000Z</time>
      </trkpt>
      <trkpt lat="43.25667" lon="6.20382">
        <ele>155</ele>
        <time>2024-09-25T13:51:15.000Z</time>
      </trkpt>
      <trkpt lat="43.25669" lon="6.20374">
        <ele>154</ele>
        <time>2024-09-25T13:51:19.000Z</time>
      </trkpt>
      <trkpt lat="43.25676" lon="6.20347">
        <ele>151</ele>
        <time>2024-09-25T13:51:35.000Z</time>
      </trkpt>
      <trkpt lat="43.25678" lon="6.2033">
        <ele>151</ele>
        <time>2024-09-25T13:51:45.000Z</time>
      </trkpt>
      <trkpt lat="43.25684" lon="6.20305">
        <ele>150</ele>
        <time>2024-09-25T13:51:59.000Z</time>
      </trkpt>
      <trkpt lat="43.25692" lon="6.20255">
        <ele>145</ele>
        <time>2024-09-25T13:52:29.000Z</time>
      </trkpt>
      <trkpt lat="43.25694" lon="6.20245">
        <ele>146</ele>
        <time>2024-09-25T13:52:35.000Z</time>
      </trkpt>
      <trkpt lat="43.25695" lon="6.20237">
        <ele>147</ele>
        <time>2024-09-25T13:52:39.000Z</time>
      </trkpt>
      <trkpt lat="43.25697" lon="6.20234">
        <ele>148</ele>
        <time>2024-09-25T13:52:41.000Z</time>
      </trkpt>
      <trkpt lat="43.25705" lon="6.20187">
        <ele>145</ele>
        <time>2024-09-25T13:53:11.000Z</time>
      </trkpt>
      <trkpt lat="43.25706" lon="6.20183">
        <ele>144</ele>
        <time>2024-09-25T13:53:13.000Z</time>
      </trkpt>
      <trkpt lat="43.25707" lon="6.20179">
        <ele>144</ele>
        <time>2024-09-25T13:53:15.000Z</time>
      </trkpt>
      <trkpt lat="43.25707" lon="6.20156">
        <ele>145</ele>
        <time>2024-09-25T13:53:33.000Z</time>
      </trkpt>
      <trkpt lat="43.25706" lon="6.20128">
        <ele>146</ele>
        <time>2024-09-25T13:53:47.000Z</time>
      </trkpt>
      <trkpt lat="43.25699" lon="6.20078">
        <ele>147</ele>
        <time>2024-09-25T13:54:17.000Z</time>
      </trkpt>
      <trkpt lat="43.257" lon="6.20077">
        <ele>147</ele>
        <time>2024-09-25T13:55:19.000Z</time>
      </trkpt>
      <trkpt lat="43.25704" lon="6.20064">
        <ele>147</ele>
        <time>2024-09-25T13:55:31.000Z</time>
      </trkpt>
      <trkpt lat="43.25705" lon="6.20035">
        <ele>150</ele>
        <time>2024-09-25T13:55:55.000Z</time>
      </trkpt>
      <trkpt lat="43.25707" lon="6.19998">
        <ele>154</ele>
        <time>2024-09-25T13:56:21.000Z</time>
      </trkpt>
      <trkpt lat="43.25704" lon="6.19958">
        <ele>161</ele>
        <time>2024-09-25T13:56:51.000Z</time>
      </trkpt>
      <trkpt lat="43.25704" lon="6.19955">
        <ele>161</ele>
        <time>2024-09-25T13:56:53.000Z</time>
      </trkpt>
      <trkpt lat="43.25702" lon="6.19922">
        <ele>166</ele>
        <time>2024-09-25T13:57:17.000Z</time>
      </trkpt>
      <trkpt lat="43.25699" lon="6.19908">
        <ele>167</ele>
        <time>2024-09-25T13:57:27.000Z</time>
      </trkpt>
      <trkpt lat="43.25706" lon="6.19866">
        <ele>168</ele>
        <time>2024-09-25T13:57:57.000Z</time>
      </trkpt>
      <trkpt lat="43.25705" lon="6.19847">
        <ele>169</ele>
        <time>2024-09-25T13:58:09.000Z</time>
      </trkpt>
      <trkpt lat="43.25708" lon="6.19802">
        <ele>173</ele>
        <time>2024-09-25T13:58:39.000Z</time>
      </trkpt>
      <trkpt lat="43.25708" lon="6.19798">
        <ele>173</ele>
        <time>2024-09-25T13:58:41.000Z</time>
      </trkpt>
      <trkpt lat="43.2571" lon="6.19765">
        <ele>174</ele>
        <time>2024-09-25T13:59:03.000Z</time>
      </trkpt>
      <trkpt lat="43.25719" lon="6.19721">
        <ele>178</ele>
        <time>2024-09-25T13:59:33.000Z</time>
      </trkpt>
      <trkpt lat="43.2573" lon="6.19678">
        <ele>182</ele>
        <time>2024-09-25T14:00:05.000Z</time>
      </trkpt>
      <trkpt lat="43.25732" lon="6.19672">
        <ele>182</ele>
        <time>2024-09-25T14:00:09.000Z</time>
      </trkpt>
      <trkpt lat="43.25731" lon="6.19669">
        <ele>183</ele>
        <time>2024-09-25T14:00:11.000Z</time>
      </trkpt>
      <trkpt lat="43.25732" lon="6.19664">
        <ele>184</ele>
        <time>2024-09-25T14:00:15.000Z</time>
      </trkpt>
      <trkpt lat="43.25739" lon="6.1964">
        <ele>191</ele>
        <time>2024-09-25T14:00:33.000Z</time>
      </trkpt>
      <trkpt lat="43.25739" lon="6.19628">
        <ele>191</ele>
        <time>2024-09-25T14:00:41.000Z</time>
      </trkpt>
      <trkpt lat="43.25748" lon="6.19595">
        <ele>194</ele>
        <time>2024-09-25T14:01:05.000Z</time>
      </trkpt>
      <trkpt lat="43.25745" lon="6.19558">
        <ele>197</ele>
        <time>2024-09-25T14:01:29.000Z</time>
      </trkpt>
      <trkpt lat="43.2575" lon="6.19542">
        <ele>198</ele>
        <time>2024-09-25T14:01:41.000Z</time>
      </trkpt>
      <trkpt lat="43.25754" lon="6.19537">
        <ele>198</ele>
        <time>2024-09-25T14:01:47.000Z</time>
      </trkpt>
      <trkpt lat="43.25758" lon="6.19537">
        <ele>199</ele>
        <time>2024-09-25T14:01:51.000Z</time>
      </trkpt>
      <trkpt lat="43.2576" lon="6.19542">
        <ele>202</ele>
        <time>2024-09-25T14:01:55.000Z</time>
      </trkpt>
      <trkpt lat="43.25762" lon="6.19552">
        <ele>202</ele>
        <time>2024-09-25T14:02:25.000Z</time>
      </trkpt>
      <trkpt lat="43.25781" lon="6.19563">
        <ele>201</ele>
        <time>2024-09-25T14:02:55.000Z</time>
      </trkpt>
      <trkpt lat="43.25768" lon="6.19566">
        <ele>203</ele>
        <time>2024-09-25T14:08:49.000Z</time>
      </trkpt>
      <trkpt lat="43.25768" lon="6.19566">
        <ele>204</ele>
        <time>2024-09-25T14:08:51.000Z</time>
      </trkpt>
      <trkpt lat="43.2577" lon="6.19568">
        <ele>203</ele>
        <time>2024-09-25T14:09:03.000Z</time>
      </trkpt>
      <trkpt lat="43.2577" lon="6.19566">
        <ele>203</ele>
        <time>2024-09-25T14:09:11.000Z</time>
      </trkpt>
      <trkpt lat="43.25768" lon="6.19565">
        <ele>203</ele>
        <time>2024-09-25T14:09:55.000Z</time>
      </trkpt>
      <trkpt lat="43.25774" lon="6.19565">
        <ele>205</ele>
        <time>2024-09-25T14:11:31.000Z</time>
      </trkpt>
      <trkpt lat="43.25772" lon="6.19566">
        <ele>206</ele>
        <time>2024-09-25T14:12:41.000Z</time>
      </trkpt>
      <trkpt lat="43.25772" lon="6.19569">
        <ele>206</ele>
        <time>2024-09-25T14:12:51.000Z</time>
      </trkpt>
      <trkpt lat="43.25772" lon="6.19571">
        <ele>206</ele>
        <time>2024-09-25T14:12:53.000Z</time>
      </trkpt>
      <trkpt lat="43.25773" lon="6.19575">
        <ele>206</ele>
        <time>2024-09-25T14:12:57.000Z</time>
      </trkpt>
      <trkpt lat="43.25774" lon="6.19577">
        <ele>205</ele>
        <time>2024-09-25T14:13:01.000Z</time>
      </trkpt>
      <trkpt lat="43.25774" lon="6.1959">
        <ele>204</ele>
        <time>2024-09-25T14:13:13.000Z</time>
      </trkpt>
      <trkpt lat="43.25775" lon="6.19594">
        <ele>204</ele>
        <time>2024-09-25T14:13:17.000Z</time>
      </trkpt>
      <trkpt lat="43.25775" lon="6.19596">
        <ele>204</ele>
        <time>2024-09-25T14:13:19.000Z</time>
      </trkpt>
      <trkpt lat="43.25775" lon="6.19602">
        <ele>203</ele>
        <time>2024-09-25T14:13:25.000Z</time>
      </trkpt>
      <trkpt lat="43.25776" lon="6.19608">
        <ele>201</ele>
        <time>2024-09-25T14:13:29.000Z</time>
      </trkpt>
      <trkpt lat="43.25775" lon="6.19612">
        <ele>200</ele>
        <time>2024-09-25T14:13:31.000Z</time>
      </trkpt>
      <trkpt lat="43.25777" lon="6.19623">
        <ele>198</ele>
        <time>2024-09-25T14:13:39.000Z</time>
      </trkpt>
      <trkpt lat="43.25777" lon="6.19626">
        <ele>199</ele>
        <time>2024-09-25T14:13:41.000Z</time>
      </trkpt>
      <trkpt lat="43.25778" lon="6.19638">
        <ele>200</ele>
        <time>2024-09-25T14:13:49.000Z</time>
      </trkpt>
      <trkpt lat="43.25777" lon="6.19641">
        <ele>200</ele>
        <time>2024-09-25T14:13:51.000Z</time>
      </trkpt>
      <trkpt lat="43.25777" lon="6.19642">
        <ele>200</ele>
        <time>2024-09-25T14:13:53.000Z</time>
      </trkpt>
      <trkpt lat="43.25776" lon="6.19644">
        <ele>200</ele>
        <time>2024-09-25T14:13:55.000Z</time>
      </trkpt>
      <trkpt lat="43.25776" lon="6.19651">
        <ele>200</ele>
        <time>2024-09-25T14:14:01.000Z</time>
      </trkpt>
      <trkpt lat="43.25775" lon="6.19654">
        <ele>201</ele>
        <time>2024-09-25T14:14:03.000Z</time>
      </trkpt>
      <trkpt lat="43.25773" lon="6.19656">
        <ele>202</ele>
        <time>2024-09-25T14:14:05.000Z</time>
      </trkpt>
      <trkpt lat="43.25776" lon="6.1966">
        <ele>203</ele>
        <time>2024-09-25T14:14:07.000Z</time>
      </trkpt>
      <trkpt lat="43.25772" lon="6.19665">
        <ele>206</ele>
        <time>2024-09-25T14:14:09.000Z</time>
      </trkpt>
      <trkpt lat="43.25774" lon="6.19667">
        <ele>207</ele>
        <time>2024-09-25T14:14:13.000Z</time>
      </trkpt>
      <trkpt lat="43.2578" lon="6.19673">
        <ele>208</ele>
        <time>2024-09-25T14:14:17.000Z</time>
      </trkpt>
      <trkpt lat="43.25781" lon="6.19674">
        <ele>208</ele>
        <time>2024-09-25T14:14:19.000Z</time>
      </trkpt>
      <trkpt lat="43.25782" lon="6.19677">
        <ele>209</ele>
        <time>2024-09-25T14:14:23.000Z</time>
      </trkpt>
      <trkpt lat="43.25782" lon="6.19679">
        <ele>210</ele>
        <time>2024-09-25T14:14:25.000Z</time>
      </trkpt>
      <trkpt lat="43.25783" lon="6.19682">
        <ele>210</ele>
        <time>2024-09-25T14:14:27.000Z</time>
      </trkpt>
      <trkpt lat="43.25783" lon="6.19685">
        <ele>211</ele>
        <time>2024-09-25T14:14:29.000Z</time>
      </trkpt>
      <trkpt lat="43.25782" lon="6.19687">
        <ele>210</ele>
        <time>2024-09-25T14:14:31.000Z</time>
      </trkpt>
      <trkpt lat="43.25782" lon="6.1969">
        <ele>210</ele>
        <time>2024-09-25T14:14:33.000Z</time>
      </trkpt>
      <trkpt lat="43.25782" lon="6.19696">
        <ele>209</ele>
        <time>2024-09-25T14:14:37.000Z</time>
      </trkpt>
      <trkpt lat="43.25782" lon="6.19701">
        <ele>208</ele>
        <time>2024-09-25T14:14:41.000Z</time>
      </trkpt>
      <trkpt lat="43.25782" lon="6.19714">
        <ele>206</ele>
        <time>2024-09-25T14:14:51.000Z</time>
      </trkpt>
      <trkpt lat="43.25782" lon="6.19716">
        <ele>206</ele>
        <time>2024-09-25T14:14:53.000Z</time>
      </trkpt>
      <trkpt lat="43.25783" lon="6.19719">
        <ele>206</ele>
        <time>2024-09-25T14:14:55.000Z</time>
      </trkpt>
      <trkpt lat="43.25783" lon="6.1973">
        <ele>205</ele>
        <time>2024-09-25T14:15:01.000Z</time>
      </trkpt>
      <trkpt lat="43.25783" lon="6.19732">
        <ele>205</ele>
        <time>2024-09-25T14:15:03.000Z</time>
      </trkpt>
      <trkpt lat="43.25783" lon="6.19739">
        <ele>208</ele>
        <time>2024-09-25T14:15:05.000Z</time>
      </trkpt>
      <trkpt lat="43.25782" lon="6.19743">
        <ele>209</ele>
        <time>2024-09-25T14:15:09.000Z</time>
      </trkpt>
      <trkpt lat="43.25782" lon="6.19745">
        <ele>209</ele>
        <time>2024-09-25T14:15:11.000Z</time>
      </trkpt>
      <trkpt lat="43.25782" lon="6.19747">
        <ele>208</ele>
        <time>2024-09-25T14:15:13.000Z</time>
      </trkpt>
      <trkpt lat="43.25782" lon="6.19752">
        <ele>205</ele>
        <time>2024-09-25T14:15:19.000Z</time>
      </trkpt>
      <trkpt lat="43.25783" lon="6.19755">
        <ele>205</ele>
        <time>2024-09-25T14:15:21.000Z</time>
      </trkpt>
      <trkpt lat="43.25784" lon="6.19757">
        <ele>205</ele>
        <time>2024-09-25T14:15:23.000Z</time>
      </trkpt>
      <trkpt lat="43.25786" lon="6.19768">
        <ele>205</ele>
        <time>2024-09-25T14:15:29.000Z</time>
      </trkpt>
      <trkpt lat="43.25787" lon="6.19771">
        <ele>205</ele>
        <time>2024-09-25T14:15:31.000Z</time>
      </trkpt>
      <trkpt lat="43.25786" lon="6.19773">
        <ele>205</ele>
        <time>2024-09-25T14:15:33.000Z</time>
      </trkpt>
      <trkpt lat="43.2579" lon="6.19787">
        <ele>206</ele>
        <time>2024-09-25T14:15:43.000Z</time>
      </trkpt>
      <trkpt lat="43.25792" lon="6.1979">
        <ele>207</ele>
        <time>2024-09-25T14:15:45.000Z</time>
      </trkpt>
      <trkpt lat="43.25792" lon="6.19792">
        <ele>207</ele>
        <time>2024-09-25T14:15:47.000Z</time>
      </trkpt>
      <trkpt lat="43.25793" lon="6.19795">
        <ele>207</ele>
        <time>2024-09-25T14:15:51.000Z</time>
      </trkpt>
      <trkpt lat="43.25795" lon="6.19802">
        <ele>206</ele>
        <time>2024-09-25T14:15:55.000Z</time>
      </trkpt>
      <trkpt lat="43.258" lon="6.19809">
        <ele>206</ele>
        <time>2024-09-25T14:16:01.000Z</time>
      </trkpt>
      <trkpt lat="43.25802" lon="6.19819">
        <ele>207</ele>
        <time>2024-09-25T14:16:09.000Z</time>
      </trkpt>
      <trkpt lat="43.25802" lon="6.19821">
        <ele>207</ele>
        <time>2024-09-25T14:16:11.000Z</time>
      </trkpt>
      <trkpt lat="43.25803" lon="6.19824">
        <ele>207</ele>
        <time>2024-09-25T14:16:13.000Z</time>
      </trkpt>
      <trkpt lat="43.25804" lon="6.19828">
        <ele>207</ele>
        <time>2024-09-25T14:16:17.000Z</time>
      </trkpt>
      <trkpt lat="43.25807" lon="6.19838">
        <ele>209</ele>
        <time>2024-09-25T14:16:25.000Z</time>
      </trkpt>
      <trkpt lat="43.25808" lon="6.1984">
        <ele>209</ele>
        <time>2024-09-25T14:16:27.000Z</time>
      </trkpt>
      <trkpt lat="43.25809" lon="6.19842">
        <ele>210</ele>
        <time>2024-09-25T14:16:29.000Z</time>
      </trkpt>
      <trkpt lat="43.25813" lon="6.19849">
        <ele>210</ele>
        <time>2024-09-25T14:16:35.000Z</time>
      </trkpt>
      <trkpt lat="43.25813" lon="6.19851">
        <ele>210</ele>
        <time>2024-09-25T14:16:37.000Z</time>
      </trkpt>
      <trkpt lat="43.25815" lon="6.19853">
        <ele>210</ele>
        <time>2024-09-25T14:16:39.000Z</time>
      </trkpt>
      <trkpt lat="43.25816" lon="6.19855">
        <ele>210</ele>
        <time>2024-09-25T14:16:43.000Z</time>
      </trkpt>
      <trkpt lat="43.25829" lon="6.19863">
        <ele>211</ele>
        <time>2024-09-25T14:16:55.000Z</time>
      </trkpt>
      <trkpt lat="43.25834" lon="6.19871">
        <ele>213</ele>
        <time>2024-09-25T14:17:03.000Z</time>
      </trkpt>
      <trkpt lat="43.25837" lon="6.19875">
        <ele>214</ele>
        <time>2024-09-25T14:17:07.000Z</time>
      </trkpt>
      <trkpt lat="43.25837" lon="6.19877">
        <ele>215</ele>
        <time>2024-09-25T14:17:09.000Z</time>
      </trkpt>
      <trkpt lat="43.25838" lon="6.1988">
        <ele>215</ele>
        <time>2024-09-25T14:17:11.000Z</time>
      </trkpt>
      <trkpt lat="43.2584" lon="6.19885">
        <ele>216</ele>
        <time>2024-09-25T14:17:15.000Z</time>
      </trkpt>
      <trkpt lat="43.2585" lon="6.19894">
        <ele>214</ele>
        <time>2024-09-25T14:17:25.000Z</time>
      </trkpt>
      <trkpt lat="43.25852" lon="6.19897">
        <ele>214</ele>
        <time>2024-09-25T14:17:27.000Z</time>
      </trkpt>
      <trkpt lat="43.25858" lon="6.19904">
        <ele>213</ele>
        <time>2024-09-25T14:17:35.000Z</time>
      </trkpt>
      <trkpt lat="43.25863" lon="6.1991">
        <ele>213</ele>
        <time>2024-09-25T14:17:39.000Z</time>
      </trkpt>
      <trkpt lat="43.25864" lon="6.19912">
        <ele>214</ele>
        <time>2024-09-25T14:17:41.000Z</time>
      </trkpt>
      <trkpt lat="43.25865" lon="6.19915">
        <ele>214</ele>
        <time>2024-09-25T14:17:43.000Z</time>
      </trkpt>
      <trkpt lat="43.25875" lon="6.19934">
        <ele>215</ele>
        <time>2024-09-25T14:17:59.000Z</time>
      </trkpt>
      <trkpt lat="43.25877" lon="6.19938">
        <ele>215</ele>
        <time>2024-09-25T14:18:03.000Z</time>
      </trkpt>
      <trkpt lat="43.25881" lon="6.19941">
        <ele>214</ele>
        <time>2024-09-25T14:18:09.000Z</time>
      </trkpt>
      <trkpt lat="43.25885" lon="6.19947">
        <ele>214</ele>
        <time>2024-09-25T14:18:15.000Z</time>
      </trkpt>
      <trkpt lat="43.25887" lon="6.19949">
        <ele>214</ele>
        <time>2024-09-25T14:18:17.000Z</time>
      </trkpt>
      <trkpt lat="43.2589" lon="6.19951">
        <ele>215</ele>
        <time>2024-09-25T14:18:21.000Z</time>
      </trkpt>
      <trkpt lat="43.25891" lon="6.19954">
        <ele>215</ele>
        <time>2024-09-25T14:18:23.000Z</time>
      </trkpt>
      <trkpt lat="43.25903" lon="6.19963">
        <ele>218</ele>
        <time>2024-09-25T14:18:41.000Z</time>
      </trkpt>
      <trkpt lat="43.25904" lon="6.19965">
        <ele>219</ele>
        <time>2024-09-25T14:18:45.000Z</time>
      </trkpt>
      <trkpt lat="43.25906" lon="6.19965">
        <ele>218</ele>
        <time>2024-09-25T14:18:49.000Z</time>
      </trkpt>
      <trkpt lat="43.25906" lon="6.19964">
        <ele>219</ele>
        <time>2024-09-25T14:19:03.000Z</time>
      </trkpt>
      <trkpt lat="43.25905" lon="6.19962">
        <ele>220</ele>
        <time>2024-09-25T14:19:07.000Z</time>
      </trkpt>
      <trkpt lat="43.25903" lon="6.1996">
        <ele>223</ele>
        <time>2024-09-25T14:19:13.000Z</time>
      </trkpt>
      <trkpt lat="43.25902" lon="6.19958">
        <ele>223</ele>
        <time>2024-09-25T14:19:15.000Z</time>
      </trkpt>
      <trkpt lat="43.25901" lon="6.19953">
        <ele>224</ele>
        <time>2024-09-25T14:19:19.000Z</time>
      </trkpt>
      <trkpt lat="43.25902" lon="6.19949">
        <ele>224</ele>
        <time>2024-09-25T14:19:23.000Z</time>
      </trkpt>
      <trkpt lat="43.25902" lon="6.19947">
        <ele>224</ele>
        <time>2024-09-25T14:19:25.000Z</time>
      </trkpt>
      <trkpt lat="43.25903" lon="6.19944">
        <ele>224</ele>
        <time>2024-09-25T14:19:29.000Z</time>
      </trkpt>
      <trkpt lat="43.25904" lon="6.19943">
        <ele>224</ele>
        <time>2024-09-25T14:19:33.000Z</time>
      </trkpt>
      <trkpt lat="43.25903" lon="6.19937">
        <ele>223</ele>
        <time>2024-09-25T14:19:43.000Z</time>
      </trkpt>
      <trkpt lat="43.2591" lon="6.19929">
        <ele>224</ele>
        <time>2024-09-25T14:21:39.000Z</time>
      </trkpt>
      <trkpt lat="43.25907" lon="6.19931">
        <ele>225</ele>
        <time>2024-09-25T14:24:59.000Z</time>
      </trkpt>
      <trkpt lat="43.25903" lon="6.19938">
        <ele>224</ele>
        <time>2024-09-25T14:25:11.000Z</time>
      </trkpt>
      <trkpt lat="43.25904" lon="6.1994">
        <ele>224</ele>
        <time>2024-09-25T14:25:17.000Z</time>
      </trkpt>
      <trkpt lat="43.25904" lon="6.19946">
        <ele>221</ele>
        <time>2024-09-25T14:25:25.000Z</time>
      </trkpt>
      <trkpt lat="43.25904" lon="6.1995">
        <ele>221</ele>
        <time>2024-09-25T14:25:29.000Z</time>
      </trkpt>
      <trkpt lat="43.25905" lon="6.19953">
        <ele>221</ele>
        <time>2024-09-25T14:25:33.000Z</time>
      </trkpt>
      <trkpt lat="43.25905" lon="6.19957">
        <ele>220</ele>
        <time>2024-09-25T14:25:37.000Z</time>
      </trkpt>
      <trkpt lat="43.25906" lon="6.19959">
        <ele>220</ele>
        <time>2024-09-25T14:25:41.000Z</time>
      </trkpt>
      <trkpt lat="43.25906" lon="6.19961">
        <ele>219</ele>
        <time>2024-09-25T14:25:45.000Z</time>
      </trkpt>
      <trkpt lat="43.25907" lon="6.19965">
        <ele>218</ele>
        <time>2024-09-25T14:25:49.000Z</time>
      </trkpt>
      <trkpt lat="43.25894" lon="6.19959">
        <ele>215</ele>
        <time>2024-09-25T14:26:15.000Z</time>
      </trkpt>
      <trkpt lat="43.25892" lon="6.19958">
        <ele>215</ele>
        <time>2024-09-25T14:26:17.000Z</time>
      </trkpt>
      <trkpt lat="43.2589" lon="6.19956">
        <ele>215</ele>
        <time>2024-09-25T14:26:21.000Z</time>
      </trkpt>
      <trkpt lat="43.25888" lon="6.19955">
        <ele>215</ele>
        <time>2024-09-25T14:26:23.000Z</time>
      </trkpt>
      <trkpt lat="43.25883" lon="6.19949">
        <ele>214</ele>
        <time>2024-09-25T14:26:29.000Z</time>
      </trkpt>
      <trkpt lat="43.25881" lon="6.19947">
        <ele>214</ele>
        <time>2024-09-25T14:26:31.000Z</time>
      </trkpt>
      <trkpt lat="43.2588" lon="6.19946">
        <ele>214</ele>
        <time>2024-09-25T14:26:33.000Z</time>
      </trkpt>
      <trkpt lat="43.25879" lon="6.19943">
        <ele>214</ele>
        <time>2024-09-25T14:26:35.000Z</time>
      </trkpt>
      <trkpt lat="43.25877" lon="6.19942">
        <ele>214</ele>
        <time>2024-09-25T14:26:37.000Z</time>
      </trkpt>
      <trkpt lat="43.25876" lon="6.19939">
        <ele>214</ele>
        <time>2024-09-25T14:26:39.000Z</time>
      </trkpt>
      <trkpt lat="43.25874" lon="6.19936">
        <ele>214</ele>
        <time>2024-09-25T14:26:41.000Z</time>
      </trkpt>
      <trkpt lat="43.25873" lon="6.19935">
        <ele>214</ele>
        <time>2024-09-25T14:26:43.000Z</time>
      </trkpt>
      <trkpt lat="43.25872" lon="6.19933">
        <ele>214</ele>
        <time>2024-09-25T14:26:45.000Z</time>
      </trkpt>
      <trkpt lat="43.2587" lon="6.1993">
        <ele>214</ele>
        <time>2024-09-25T14:26:47.000Z</time>
      </trkpt>
      <trkpt lat="43.25869" lon="6.19928">
        <ele>214</ele>
        <time>2024-09-25T14:26:49.000Z</time>
      </trkpt>
      <trkpt lat="43.25868" lon="6.19925">
        <ele>214</ele>
        <time>2024-09-25T14:26:51.000Z</time>
      </trkpt>
      <trkpt lat="43.25868" lon="6.19923">
        <ele>214</ele>
        <time>2024-09-25T14:26:53.000Z</time>
      </trkpt>
      <trkpt lat="43.25866" lon="6.19919">
        <ele>214</ele>
        <time>2024-09-25T14:26:57.000Z</time>
      </trkpt>
      <trkpt lat="43.25864" lon="6.19916">
        <ele>213</ele>
        <time>2024-09-25T14:26:59.000Z</time>
      </trkpt>
      <trkpt lat="43.25861" lon="6.19912">
        <ele>214</ele>
        <time>2024-09-25T14:27:03.000Z</time>
      </trkpt>
      <trkpt lat="43.2586" lon="6.19909">
        <ele>214</ele>
        <time>2024-09-25T14:27:05.000Z</time>
      </trkpt>
      <trkpt lat="43.25859" lon="6.19907">
        <ele>214</ele>
        <time>2024-09-25T14:27:07.000Z</time>
      </trkpt>
      <trkpt lat="43.25852" lon="6.199">
        <ele>214</ele>
        <time>2024-09-25T14:27:13.000Z</time>
      </trkpt>
      <trkpt lat="43.25851" lon="6.19899">
        <ele>214</ele>
        <time>2024-09-25T14:27:15.000Z</time>
      </trkpt>
      <trkpt lat="43.2585" lon="6.19897">
        <ele>214</ele>
        <time>2024-09-25T14:27:17.000Z</time>
      </trkpt>
      <trkpt lat="43.25845" lon="6.19895">
        <ele>214</ele>
        <time>2024-09-25T14:27:21.000Z</time>
      </trkpt>
      <trkpt lat="43.25843" lon="6.19893">
        <ele>214</ele>
        <time>2024-09-25T14:27:23.000Z</time>
      </trkpt>
      <trkpt lat="43.25842" lon="6.1989">
        <ele>214</ele>
        <time>2024-09-25T14:27:25.000Z</time>
      </trkpt>
      <trkpt lat="43.2584" lon="6.19882">
        <ele>216</ele>
        <time>2024-09-25T14:27:31.000Z</time>
      </trkpt>
      <trkpt lat="43.25836" lon="6.19877">
        <ele>215</ele>
        <time>2024-09-25T14:27:35.000Z</time>
      </trkpt>
      <trkpt lat="43.25834" lon="6.19875">
        <ele>214</ele>
        <time>2024-09-25T14:27:37.000Z</time>
      </trkpt>
      <trkpt lat="43.25833" lon="6.19873">
        <ele>214</ele>
        <time>2024-09-25T14:27:39.000Z</time>
      </trkpt>
      <trkpt lat="43.25831" lon="6.19871">
        <ele>213</ele>
        <time>2024-09-25T14:27:41.000Z</time>
      </trkpt>
      <trkpt lat="43.25829" lon="6.19869">
        <ele>213</ele>
        <time>2024-09-25T14:27:43.000Z</time>
      </trkpt>
      <trkpt lat="43.25828" lon="6.19867">
        <ele>212</ele>
        <time>2024-09-25T14:27:45.000Z</time>
      </trkpt>
      <trkpt lat="43.25823" lon="6.19863">
        <ele>211</ele>
        <time>2024-09-25T14:27:51.000Z</time>
      </trkpt>
      <trkpt lat="43.25821" lon="6.19863">
        <ele>211</ele>
        <time>2024-09-25T14:27:53.000Z</time>
      </trkpt>
      <trkpt lat="43.25819" lon="6.19861">
        <ele>211</ele>
        <time>2024-09-25T14:27:55.000Z</time>
      </trkpt>
      <trkpt lat="43.25816" lon="6.1986">
        <ele>211</ele>
        <time>2024-09-25T14:27:57.000Z</time>
      </trkpt>
      <trkpt lat="43.25814" lon="6.19859">
        <ele>211</ele>
        <time>2024-09-25T14:27:59.000Z</time>
      </trkpt>
      <trkpt lat="43.25812" lon="6.19854">
        <ele>211</ele>
        <time>2024-09-25T14:28:03.000Z</time>
      </trkpt>
      <trkpt lat="43.25811" lon="6.19852">
        <ele>211</ele>
        <time>2024-09-25T14:28:05.000Z</time>
      </trkpt>
      <trkpt lat="43.25805" lon="6.19843">
        <ele>211</ele>
        <time>2024-09-25T14:28:13.000Z</time>
      </trkpt>
      <trkpt lat="43.25804" lon="6.19841">
        <ele>211</ele>
        <time>2024-09-25T14:28:15.000Z</time>
      </trkpt>
      <trkpt lat="43.25803" lon="6.19834">
        <ele>210</ele>
        <time>2024-09-25T14:28:21.000Z</time>
      </trkpt>
      <trkpt lat="43.25802" lon="6.19827">
        <ele>209</ele>
        <time>2024-09-25T14:28:25.000Z</time>
      </trkpt>
      <trkpt lat="43.25802" lon="6.1982">
        <ele>208</ele>
        <time>2024-09-25T14:28:31.000Z</time>
      </trkpt>
      <trkpt lat="43.25801" lon="6.19818">
        <ele>208</ele>
        <time>2024-09-25T14:28:33.000Z</time>
      </trkpt>
      <trkpt lat="43.25791" lon="6.19794">
        <ele>207</ele>
        <time>2024-09-25T14:28:49.000Z</time>
      </trkpt>
      <trkpt lat="43.2579" lon="6.19792">
        <ele>207</ele>
        <time>2024-09-25T14:28:51.000Z</time>
      </trkpt>
      <trkpt lat="43.25789" lon="6.19786">
        <ele>206</ele>
        <time>2024-09-25T14:28:57.000Z</time>
      </trkpt>
      <trkpt lat="43.25788" lon="6.19781">
        <ele>206</ele>
        <time>2024-09-25T14:29:01.000Z</time>
      </trkpt>
      <trkpt lat="43.25785" lon="6.19773">
        <ele>205</ele>
        <time>2024-09-25T14:29:07.000Z</time>
      </trkpt>
      <trkpt lat="43.25784" lon="6.1977">
        <ele>204</ele>
        <time>2024-09-25T14:29:09.000Z</time>
      </trkpt>
      <trkpt lat="43.25782" lon="6.19762">
        <ele>204</ele>
        <time>2024-09-25T14:29:15.000Z</time>
      </trkpt>
      <trkpt lat="43.25781" lon="6.19755">
        <ele>203</ele>
        <time>2024-09-25T14:29:21.000Z</time>
      </trkpt>
      <trkpt lat="43.2578" lon="6.19752">
        <ele>203</ele>
        <time>2024-09-25T14:29:23.000Z</time>
      </trkpt>
      <trkpt lat="43.25779" lon="6.19749">
        <ele>203</ele>
        <time>2024-09-25T14:29:25.000Z</time>
      </trkpt>
      <trkpt lat="43.25779" lon="6.19746">
        <ele>203</ele>
        <time>2024-09-25T14:29:27.000Z</time>
      </trkpt>
      <trkpt lat="43.2578" lon="6.19743">
        <ele>203</ele>
        <time>2024-09-25T14:29:29.000Z</time>
      </trkpt>
      <trkpt lat="43.25783" lon="6.19727">
        <ele>202</ele>
        <time>2024-09-25T14:29:41.000Z</time>
      </trkpt>
      <trkpt lat="43.25783" lon="6.19724">
        <ele>202</ele>
        <time>2024-09-25T14:29:43.000Z</time>
      </trkpt>
      <trkpt lat="43.25783" lon="6.19721">
        <ele>202</ele>
        <time>2024-09-25T14:29:45.000Z</time>
      </trkpt>
      <trkpt lat="43.25781" lon="6.19719">
        <ele>203</ele>
        <time>2024-09-25T14:29:47.000Z</time>
      </trkpt>
      <trkpt lat="43.25781" lon="6.19716">
        <ele>203</ele>
        <time>2024-09-25T14:29:49.000Z</time>
      </trkpt>
      <trkpt lat="43.2578" lon="6.19712">
        <ele>204</ele>
        <time>2024-09-25T14:29:51.000Z</time>
      </trkpt>
      <trkpt lat="43.25779" lon="6.1971">
        <ele>204</ele>
        <time>2024-09-25T14:29:53.000Z</time>
      </trkpt>
      <trkpt lat="43.2578" lon="6.19708">
        <ele>205</ele>
        <time>2024-09-25T14:29:55.000Z</time>
      </trkpt>
      <trkpt lat="43.2578" lon="6.19705">
        <ele>205</ele>
        <time>2024-09-25T14:29:57.000Z</time>
      </trkpt>
      <trkpt lat="43.2578" lon="6.19699">
        <ele>205</ele>
        <time>2024-09-25T14:30:01.000Z</time>
      </trkpt>
      <trkpt lat="43.2578" lon="6.19695">
        <ele>205</ele>
        <time>2024-09-25T14:30:03.000Z</time>
      </trkpt>
      <trkpt lat="43.25779" lon="6.19691">
        <ele>205</ele>
        <time>2024-09-25T14:30:05.000Z</time>
      </trkpt>
      <trkpt lat="43.25779" lon="6.19688">
        <ele>205</ele>
        <time>2024-09-25T14:30:07.000Z</time>
      </trkpt>
      <trkpt lat="43.25779" lon="6.19685">
        <ele>206</ele>
        <time>2024-09-25T14:30:09.000Z</time>
      </trkpt>
      <trkpt lat="43.2578" lon="6.19683">
        <ele>206</ele>
        <time>2024-09-25T14:30:11.000Z</time>
      </trkpt>
      <trkpt lat="43.2578" lon="6.19679">
        <ele>206</ele>
        <time>2024-09-25T14:30:13.000Z</time>
      </trkpt>
      <trkpt lat="43.25779" lon="6.19676">
        <ele>206</ele>
        <time>2024-09-25T14:30:15.000Z</time>
      </trkpt>
      <trkpt lat="43.25779" lon="6.19674">
        <ele>205</ele>
        <time>2024-09-25T14:30:17.000Z</time>
      </trkpt>
      <trkpt lat="43.25778" lon="6.19672">
        <ele>205</ele>
        <time>2024-09-25T14:30:19.000Z</time>
      </trkpt>
      <trkpt lat="43.25777" lon="6.19669">
        <ele>205</ele>
        <time>2024-09-25T14:30:21.000Z</time>
      </trkpt>
      <trkpt lat="43.25776" lon="6.19666">
        <ele>205</ele>
        <time>2024-09-25T14:30:23.000Z</time>
      </trkpt>
      <trkpt lat="43.25775" lon="6.19664">
        <ele>205</ele>
        <time>2024-09-25T14:30:25.000Z</time>
      </trkpt>
      <trkpt lat="43.25775" lon="6.19654">
        <ele>204</ele>
        <time>2024-09-25T14:30:31.000Z</time>
      </trkpt>
      <trkpt lat="43.25774" lon="6.19652">
        <ele>204</ele>
        <time>2024-09-25T14:30:33.000Z</time>
      </trkpt>
      <trkpt lat="43.25774" lon="6.19647">
        <ele>203</ele>
        <time>2024-09-25T14:30:37.000Z</time>
      </trkpt>
      <trkpt lat="43.25775" lon="6.19644">
        <ele>203</ele>
        <time>2024-09-25T14:30:39.000Z</time>
      </trkpt>
      <trkpt lat="43.25775" lon="6.19641">
        <ele>203</ele>
        <time>2024-09-25T14:30:41.000Z</time>
      </trkpt>
      <trkpt lat="43.25775" lon="6.19632">
        <ele>203</ele>
        <time>2024-09-25T14:30:47.000Z</time>
      </trkpt>
      <trkpt lat="43.25776" lon="6.1963">
        <ele>203</ele>
        <time>2024-09-25T14:30:49.000Z</time>
      </trkpt>
      <trkpt lat="43.25778" lon="6.19627">
        <ele>203</ele>
        <time>2024-09-25T14:30:51.000Z</time>
      </trkpt>
      <trkpt lat="43.25779" lon="6.19626">
        <ele>203</ele>
        <time>2024-09-25T14:30:53.000Z</time>
      </trkpt>
      <trkpt lat="43.25782" lon="6.19626">
        <ele>203</ele>
        <time>2024-09-25T14:30:55.000Z</time>
      </trkpt>
      <trkpt lat="43.25786" lon="6.19625">
        <ele>203</ele>
        <time>2024-09-25T14:30:59.000Z</time>
      </trkpt>
      <trkpt lat="43.25788" lon="6.19624">
        <ele>202</ele>
        <time>2024-09-25T14:31:01.000Z</time>
      </trkpt>
      <trkpt lat="43.2579" lon="6.19621">
        <ele>202</ele>
        <time>2024-09-25T14:31:05.000Z</time>
      </trkpt>
      <trkpt lat="43.258" lon="6.19614">
        <ele>201</ele>
        <time>2024-09-25T14:31:17.000Z</time>
      </trkpt>
      <trkpt lat="43.25802" lon="6.19609">
        <ele>200</ele>
        <time>2024-09-25T14:31:23.000Z</time>
      </trkpt>
      <trkpt lat="43.25803" lon="6.19606">
        <ele>200</ele>
        <time>2024-09-25T14:31:25.000Z</time>
      </trkpt>
      <trkpt lat="43.25803" lon="6.19602">
        <ele>199</ele>
        <time>2024-09-25T14:31:29.000Z</time>
      </trkpt>
      <trkpt lat="43.25804" lon="6.19599">
        <ele>199</ele>
        <time>2024-09-25T14:31:31.000Z</time>
      </trkpt>
      <trkpt lat="43.25805" lon="6.19597">
        <ele>198</ele>
        <time>2024-09-25T14:31:33.000Z</time>
      </trkpt>
      <trkpt lat="43.25808" lon="6.19588">
        <ele>196</ele>
        <time>2024-09-25T14:31:41.000Z</time>
      </trkpt>
      <trkpt lat="43.25809" lon="6.19586">
        <ele>195</ele>
        <time>2024-09-25T14:31:43.000Z</time>
      </trkpt>
      <trkpt lat="43.25811" lon="6.1958">
        <ele>194</ele>
        <time>2024-09-25T14:31:47.000Z</time>
      </trkpt>
      <trkpt lat="43.25813" lon="6.19578">
        <ele>194</ele>
        <time>2024-09-25T14:31:51.000Z</time>
      </trkpt>
      <trkpt lat="43.25814" lon="6.19573">
        <ele>193</ele>
        <time>2024-09-25T14:31:55.000Z</time>
      </trkpt>
      <trkpt lat="43.25815" lon="6.19568">
        <ele>192</ele>
        <time>2024-09-25T14:31:59.000Z</time>
      </trkpt>
      <trkpt lat="43.25816" lon="6.19565">
        <ele>191</ele>
        <time>2024-09-25T14:32:01.000Z</time>
      </trkpt>
      <trkpt lat="43.25816" lon="6.19562">
        <ele>191</ele>
        <time>2024-09-25T14:32:03.000Z</time>
      </trkpt>
      <trkpt lat="43.25817" lon="6.1956">
        <ele>191</ele>
        <time>2024-09-25T14:32:05.000Z</time>
      </trkpt>
      <trkpt lat="43.25819" lon="6.19555">
        <ele>191</ele>
        <time>2024-09-25T14:32:09.000Z</time>
      </trkpt>
      <trkpt lat="43.2582" lon="6.19552">
        <ele>191</ele>
        <time>2024-09-25T14:32:11.000Z</time>
      </trkpt>
      <trkpt lat="43.25821" lon="6.19547">
        <ele>191</ele>
        <time>2024-09-25T14:32:15.000Z</time>
      </trkpt>
      <trkpt lat="43.25824" lon="6.19541">
        <ele>190</ele>
        <time>2024-09-25T14:32:19.000Z</time>
      </trkpt>
      <trkpt lat="43.25825" lon="6.1954">
        <ele>190</ele>
        <time>2024-09-25T14:32:21.000Z</time>
      </trkpt>
      <trkpt lat="43.25825" lon="6.19538">
        <ele>190</ele>
        <time>2024-09-25T14:32:23.000Z</time>
      </trkpt>
      <trkpt lat="43.25827" lon="6.19533">
        <ele>189</ele>
        <time>2024-09-25T14:32:27.000Z</time>
      </trkpt>
      <trkpt lat="43.25834" lon="6.19516">
        <ele>186</ele>
        <time>2024-09-25T14:32:41.000Z</time>
      </trkpt>
      <trkpt lat="43.25836" lon="6.19513">
        <ele>186</ele>
        <time>2024-09-25T14:32:43.000Z</time>
      </trkpt>
      <trkpt lat="43.25837" lon="6.1951">
        <ele>186</ele>
        <time>2024-09-25T14:32:45.000Z</time>
      </trkpt>
      <trkpt lat="43.25838" lon="6.19498">
        <ele>187</ele>
        <time>2024-09-25T14:32:53.000Z</time>
      </trkpt>
      <trkpt lat="43.25839" lon="6.19495">
        <ele>187</ele>
        <time>2024-09-25T14:32:55.000Z</time>
      </trkpt>
      <trkpt lat="43.25839" lon="6.19492">
        <ele>187</ele>
        <time>2024-09-25T14:32:57.000Z</time>
      </trkpt>
      <trkpt lat="43.2584" lon="6.19489">
        <ele>187</ele>
        <time>2024-09-25T14:32:59.000Z</time>
      </trkpt>
      <trkpt lat="43.2584" lon="6.19486">
        <ele>187</ele>
        <time>2024-09-25T14:33:01.000Z</time>
      </trkpt>
      <trkpt lat="43.2584" lon="6.19484">
        <ele>187</ele>
        <time>2024-09-25T14:33:03.000Z</time>
      </trkpt>
      <trkpt lat="43.25842" lon="6.19479">
        <ele>186</ele>
        <time>2024-09-25T14:33:07.000Z</time>
      </trkpt>
      <trkpt lat="43.25842" lon="6.19476">
        <ele>186</ele>
        <time>2024-09-25T14:33:09.000Z</time>
      </trkpt>
      <trkpt lat="43.25844" lon="6.19472">
        <ele>185</ele>
        <time>2024-09-25T14:33:19.000Z</time>
      </trkpt>
      <trkpt lat="43.25847" lon="6.19451">
        <ele>182</ele>
        <time>2024-09-25T14:33:33.000Z</time>
      </trkpt>
      <trkpt lat="43.25848" lon="6.19448">
        <ele>181</ele>
        <time>2024-09-25T14:33:35.000Z</time>
      </trkpt>
      <trkpt lat="43.2585" lon="6.19444">
        <ele>180</ele>
        <time>2024-09-25T14:33:37.000Z</time>
      </trkpt>
      <trkpt lat="43.25855" lon="6.19431">
        <ele>177</ele>
        <time>2024-09-25T14:33:47.000Z</time>
      </trkpt>
      <trkpt lat="43.25856" lon="6.19428">
        <ele>177</ele>
        <time>2024-09-25T14:33:49.000Z</time>
      </trkpt>
      <trkpt lat="43.2586" lon="6.19421">
        <ele>177</ele>
        <time>2024-09-25T14:33:55.000Z</time>
      </trkpt>
      <trkpt lat="43.25861" lon="6.19418">
        <ele>177</ele>
        <time>2024-09-25T14:33:57.000Z</time>
      </trkpt>
      <trkpt lat="43.25863" lon="6.19414">
        <ele>176</ele>
        <time>2024-09-25T14:34:01.000Z</time>
      </trkpt>
      <trkpt lat="43.25864" lon="6.19411">
        <ele>176</ele>
        <time>2024-09-25T14:34:03.000Z</time>
      </trkpt>
      <trkpt lat="43.25865" lon="6.19409">
        <ele>176</ele>
        <time>2024-09-25T14:34:05.000Z</time>
      </trkpt>
      <trkpt lat="43.25866" lon="6.19407">
        <ele>175</ele>
        <time>2024-09-25T14:34:07.000Z</time>
      </trkpt>
      <trkpt lat="43.25868" lon="6.19402">
        <ele>173</ele>
        <time>2024-09-25T14:34:11.000Z</time>
      </trkpt>
      <trkpt lat="43.2587" lon="6.194">
        <ele>173</ele>
        <time>2024-09-25T14:34:13.000Z</time>
      </trkpt>
      <trkpt lat="43.2587" lon="6.19398">
        <ele>172</ele>
        <time>2024-09-25T14:34:15.000Z</time>
      </trkpt>
      <trkpt lat="43.25875" lon="6.19386">
        <ele>170</ele>
        <time>2024-09-25T14:34:25.000Z</time>
      </trkpt>
      <trkpt lat="43.25882" lon="6.19371">
        <ele>169</ele>
        <time>2024-09-25T14:34:37.000Z</time>
      </trkpt>
      <trkpt lat="43.25884" lon="6.19366">
        <ele>169</ele>
        <time>2024-09-25T14:34:41.000Z</time>
      </trkpt>
      <trkpt lat="43.25887" lon="6.19357">
        <ele>168</ele>
        <time>2024-09-25T14:34:47.000Z</time>
      </trkpt>
      <trkpt lat="43.25889" lon="6.19349">
        <ele>167</ele>
        <time>2024-09-25T14:34:53.000Z</time>
      </trkpt>
      <trkpt lat="43.25892" lon="6.19339">
        <ele>166</ele>
        <time>2024-09-25T14:34:59.000Z</time>
      </trkpt>
      <trkpt lat="43.25895" lon="6.1933">
        <ele>163</ele>
        <time>2024-09-25T14:35:07.000Z</time>
      </trkpt>
      <trkpt lat="43.259" lon="6.19316">
        <ele>162</ele>
        <time>2024-09-25T14:35:17.000Z</time>
      </trkpt>
      <trkpt lat="43.25902" lon="6.19312">
        <ele>161</ele>
        <time>2024-09-25T14:35:21.000Z</time>
      </trkpt>
      <trkpt lat="43.25904" lon="6.1931">
        <ele>160</ele>
        <time>2024-09-25T14:35:23.000Z</time>
      </trkpt>
      <trkpt lat="43.25907" lon="6.193">
        <ele>159</ele>
        <time>2024-09-25T14:35:29.000Z</time>
      </trkpt>
      <trkpt lat="43.25914" lon="6.1927">
        <ele>157</ele>
        <time>2024-09-25T14:35:49.000Z</time>
      </trkpt>
      <trkpt lat="43.25914" lon="6.19265">
        <ele>156</ele>
        <time>2024-09-25T14:35:53.000Z</time>
      </trkpt>
      <trkpt lat="43.25914" lon="6.19261">
        <ele>156</ele>
        <time>2024-09-25T14:35:55.000Z</time>
      </trkpt>
      <trkpt lat="43.25914" lon="6.19258">
        <ele>156</ele>
        <time>2024-09-25T14:35:57.000Z</time>
      </trkpt>
      <trkpt lat="43.25915" lon="6.19254">
        <ele>156</ele>
        <time>2024-09-25T14:35:59.000Z</time>
      </trkpt>
      <trkpt lat="43.25915" lon="6.19247">
        <ele>155</ele>
        <time>2024-09-25T14:36:03.000Z</time>
      </trkpt>
      <trkpt lat="43.25916" lon="6.19243">
        <ele>155</ele>
        <time>2024-09-25T14:36:05.000Z</time>
      </trkpt>
      <trkpt lat="43.25917" lon="6.19234">
        <ele>154</ele>
        <time>2024-09-25T14:36:11.000Z</time>
      </trkpt>
      <trkpt lat="43.25917" lon="6.19232">
        <ele>154</ele>
        <time>2024-09-25T14:36:13.000Z</time>
      </trkpt>
      <trkpt lat="43.25917" lon="6.19229">
        <ele>154</ele>
        <time>2024-09-25T14:36:15.000Z</time>
      </trkpt>
      <trkpt lat="43.25918" lon="6.19222">
        <ele>153</ele>
        <time>2024-09-25T14:36:19.000Z</time>
      </trkpt>
      <trkpt lat="43.25919" lon="6.19219">
        <ele>153</ele>
        <time>2024-09-25T14:36:21.000Z</time>
      </trkpt>
      <trkpt lat="43.2592" lon="6.19216">
        <ele>153</ele>
        <time>2024-09-25T14:36:23.000Z</time>
      </trkpt>
      <trkpt lat="43.25924" lon="6.19211">
        <ele>153</ele>
        <time>2024-09-25T14:36:27.000Z</time>
      </trkpt>
      <trkpt lat="43.25926" lon="6.19206">
        <ele>152</ele>
        <time>2024-09-25T14:36:31.000Z</time>
      </trkpt>
      <trkpt lat="43.25927" lon="6.19204">
        <ele>152</ele>
        <time>2024-09-25T14:36:33.000Z</time>
      </trkpt>
      <trkpt lat="43.25929" lon="6.19203">
        <ele>152</ele>
        <time>2024-09-25T14:36:35.000Z</time>
      </trkpt>
      <trkpt lat="43.2593" lon="6.19201">
        <ele>152</ele>
        <time>2024-09-25T14:36:37.000Z</time>
      </trkpt>
      <trkpt lat="43.25931" lon="6.19198">
        <ele>151</ele>
        <time>2024-09-25T14:36:39.000Z</time>
      </trkpt>
      <trkpt lat="43.25931" lon="6.19195">
        <ele>151</ele>
        <time>2024-09-25T14:36:41.000Z</time>
      </trkpt>
      <trkpt lat="43.25932" lon="6.1919">
        <ele>150</ele>
        <time>2024-09-25T14:36:45.000Z</time>
      </trkpt>
      <trkpt lat="43.25935" lon="6.19184">
        <ele>149</ele>
        <time>2024-09-25T14:36:49.000Z</time>
      </trkpt>
      <trkpt lat="43.25938" lon="6.19178">
        <ele>147</ele>
        <time>2024-09-25T14:36:55.000Z</time>
      </trkpt>
      <trkpt lat="43.2594" lon="6.19175">
        <ele>147</ele>
        <time>2024-09-25T14:36:57.000Z</time>
      </trkpt>
      <trkpt lat="43.25942" lon="6.19173">
        <ele>147</ele>
        <time>2024-09-25T14:36:59.000Z</time>
      </trkpt>
      <trkpt lat="43.25946" lon="6.19167">
        <ele>147</ele>
        <time>2024-09-25T14:37:05.000Z</time>
      </trkpt>
      <trkpt lat="43.25949" lon="6.19163">
        <ele>146</ele>
        <time>2024-09-25T14:37:09.000Z</time>
      </trkpt>
      <trkpt lat="43.25954" lon="6.19155">
        <ele>145</ele>
        <time>2024-09-25T14:37:17.000Z</time>
      </trkpt>
      <trkpt lat="43.25954" lon="6.19158">
        <ele>144</ele>
        <time>2024-09-25T14:37:21.000Z</time>
      </trkpt>
      <trkpt lat="43.25953" lon="6.1916">
        <ele>144</ele>
        <time>2024-09-25T14:37:27.000Z</time>
      </trkpt>
      <trkpt lat="43.25955" lon="6.19158">
        <ele>145</ele>
        <time>2024-09-25T14:38:07.000Z</time>
      </trkpt>
      <trkpt lat="43.25958" lon="6.1915">
        <ele>145</ele>
        <time>2024-09-25T14:38:11.000Z</time>
      </trkpt>
      <trkpt lat="43.25959" lon="6.19146">
        <ele>145</ele>
        <time>2024-09-25T14:38:13.000Z</time>
      </trkpt>
      <trkpt lat="43.25961" lon="6.1914">
        <ele>144</ele>
        <time>2024-09-25T14:38:17.000Z</time>
      </trkpt>
      <trkpt lat="43.25963" lon="6.19135">
        <ele>143</ele>
        <time>2024-09-25T14:38:21.000Z</time>
      </trkpt>
      <trkpt lat="43.25965" lon="6.19132">
        <ele>143</ele>
        <time>2024-09-25T14:38:23.000Z</time>
      </trkpt>
      <trkpt lat="43.25967" lon="6.19125">
        <ele>143</ele>
        <time>2024-09-25T14:38:27.000Z</time>
      </trkpt>
      <trkpt lat="43.25968" lon="6.19123">
        <ele>143</ele>
        <time>2024-09-25T14:38:29.000Z</time>
      </trkpt>
      <trkpt lat="43.25969" lon="6.19115">
        <ele>142</ele>
        <time>2024-09-25T14:38:35.000Z</time>
      </trkpt>
      <trkpt lat="43.2597" lon="6.19113">
        <ele>141</ele>
        <time>2024-09-25T14:38:37.000Z</time>
      </trkpt>
      <trkpt lat="43.25971" lon="6.19109">
        <ele>141</ele>
        <time>2024-09-25T14:38:39.000Z</time>
      </trkpt>
      <trkpt lat="43.25975" lon="6.19101">
        <ele>139</ele>
        <time>2024-09-25T14:38:45.000Z</time>
      </trkpt>
      <trkpt lat="43.25978" lon="6.19092">
        <ele>138</ele>
        <time>2024-09-25T14:38:53.000Z</time>
      </trkpt>
      <trkpt lat="43.2598" lon="6.19088">
        <ele>137</ele>
        <time>2024-09-25T14:38:55.000Z</time>
      </trkpt>
      <trkpt lat="43.25981" lon="6.19085">
        <ele>137</ele>
        <time>2024-09-25T14:38:57.000Z</time>
      </trkpt>
      <trkpt lat="43.25986" lon="6.19068">
        <ele>140</ele>
        <time>2024-09-25T14:39:07.000Z</time>
      </trkpt>
      <trkpt lat="43.25987" lon="6.19065">
        <ele>139</ele>
        <time>2024-09-25T14:39:09.000Z</time>
      </trkpt>
      <trkpt lat="43.25989" lon="6.19062">
        <ele>138</ele>
        <time>2024-09-25T14:39:11.000Z</time>
      </trkpt>
      <trkpt lat="43.2599" lon="6.19059">
        <ele>138</ele>
        <time>2024-09-25T14:39:13.000Z</time>
      </trkpt>
      <trkpt lat="43.25992" lon="6.19057">
        <ele>138</ele>
        <time>2024-09-25T14:39:15.000Z</time>
      </trkpt>
      <trkpt lat="43.25992" lon="6.19055">
        <ele>137</ele>
        <time>2024-09-25T14:39:17.000Z</time>
      </trkpt>
      <trkpt lat="43.25993" lon="6.19052">
        <ele>136</ele>
        <time>2024-09-25T14:39:19.000Z</time>
      </trkpt>
      <trkpt lat="43.25995" lon="6.19049">
        <ele>136</ele>
        <time>2024-09-25T14:39:21.000Z</time>
      </trkpt>
      <trkpt lat="43.25996" lon="6.19047">
        <ele>136</ele>
        <time>2024-09-25T14:39:23.000Z</time>
      </trkpt>
      <trkpt lat="43.25999" lon="6.1904">
        <ele>135</ele>
        <time>2024-09-25T14:39:29.000Z</time>
      </trkpt>
      <trkpt lat="43.26" lon="6.19038">
        <ele>135</ele>
        <time>2024-09-25T14:39:31.000Z</time>
      </trkpt>
      <trkpt lat="43.26016" lon="6.19004">
        <ele>129</ele>
        <time>2024-09-25T14:39:59.000Z</time>
      </trkpt>
      <trkpt lat="43.26017" lon="6.19001">
        <ele>128</ele>
        <time>2024-09-25T14:40:01.000Z</time>
      </trkpt>
      <trkpt lat="43.26018" lon="6.18999">
        <ele>128</ele>
        <time>2024-09-25T14:40:03.000Z</time>
      </trkpt>
      <trkpt lat="43.26019" lon="6.18995">
        <ele>128</ele>
        <time>2024-09-25T14:40:05.000Z</time>
      </trkpt>
      <trkpt lat="43.2602" lon="6.18992">
        <ele>127</ele>
        <time>2024-09-25T14:40:07.000Z</time>
      </trkpt>
      <trkpt lat="43.26022" lon="6.18985">
        <ele>126</ele>
        <time>2024-09-25T14:40:11.000Z</time>
      </trkpt>
      <trkpt lat="43.26026" lon="6.18975">
        <ele>125</ele>
        <time>2024-09-25T14:40:19.000Z</time>
      </trkpt>
      <trkpt lat="43.26026" lon="6.18972">
        <ele>124</ele>
        <time>2024-09-25T14:40:21.000Z</time>
      </trkpt>
      <trkpt lat="43.26031" lon="6.18956">
        <ele>122</ele>
        <time>2024-09-25T14:40:31.000Z</time>
      </trkpt>
      <trkpt lat="43.26032" lon="6.1895">
        <ele>121</ele>
        <time>2024-09-25T14:40:35.000Z</time>
      </trkpt>
      <trkpt lat="43.26032" lon="6.18948">
        <ele>121</ele>
        <time>2024-09-25T14:40:37.000Z</time>
      </trkpt>
      <trkpt lat="43.26033" lon="6.18945">
        <ele>121</ele>
        <time>2024-09-25T14:40:39.000Z</time>
      </trkpt>
      <trkpt lat="43.26034" lon="6.18921">
        <ele>119</ele>
        <time>2024-09-25T14:40:55.000Z</time>
      </trkpt>
      <trkpt lat="43.26034" lon="6.18918">
        <ele>119</ele>
        <time>2024-09-25T14:41:01.000Z</time>
      </trkpt>
      <trkpt lat="43.26035" lon="6.18915">
        <ele>119</ele>
        <time>2024-09-25T14:41:03.000Z</time>
      </trkpt>
      <trkpt lat="43.26035" lon="6.18911">
        <ele>119</ele>
        <time>2024-09-25T14:41:05.000Z</time>
      </trkpt>
      <trkpt lat="43.26034" lon="6.18909">
        <ele>118</ele>
        <time>2024-09-25T14:41:13.000Z</time>
      </trkpt>
      <trkpt lat="43.26035" lon="6.18907">
        <ele>118</ele>
        <time>2024-09-25T14:41:15.000Z</time>
      </trkpt>
      <trkpt lat="43.26036" lon="6.18905">
        <ele>118</ele>
        <time>2024-09-25T14:41:17.000Z</time>
      </trkpt>
      <trkpt lat="43.26038" lon="6.18903">
        <ele>118</ele>
        <time>2024-09-25T14:41:19.000Z</time>
      </trkpt>
      <trkpt lat="43.2604" lon="6.18902">
        <ele>118</ele>
        <time>2024-09-25T14:41:21.000Z</time>
      </trkpt>
      <trkpt lat="43.26043" lon="6.18899">
        <ele>119</ele>
        <time>2024-09-25T14:41:25.000Z</time>
      </trkpt>
      <trkpt lat="43.26045" lon="6.18897">
        <ele>119</ele>
        <time>2024-09-25T14:41:27.000Z</time>
      </trkpt>
      <trkpt lat="43.2605" lon="6.1889">
        <ele>119</ele>
        <time>2024-09-25T14:41:33.000Z</time>
      </trkpt>
      <trkpt lat="43.26054" lon="6.18883">
        <ele>118</ele>
        <time>2024-09-25T14:41:39.000Z</time>
      </trkpt>
      <trkpt lat="43.26062" lon="6.18872">
        <ele>117</ele>
        <time>2024-09-25T14:41:49.000Z</time>
      </trkpt>
      <trkpt lat="43.26063" lon="6.1887">
        <ele>117</ele>
        <time>2024-09-25T14:41:51.000Z</time>
      </trkpt>
      <trkpt lat="43.26064" lon="6.18867">
        <ele>116</ele>
        <time>2024-09-25T14:41:53.000Z</time>
      </trkpt>
      <trkpt lat="43.26067" lon="6.18862">
        <ele>116</ele>
        <time>2024-09-25T14:41:57.000Z</time>
      </trkpt>
      <trkpt lat="43.26069" lon="6.18856">
        <ele>115</ele>
        <time>2024-09-25T14:42:01.000Z</time>
      </trkpt>
      <trkpt lat="43.2607" lon="6.18853">
        <ele>115</ele>
        <time>2024-09-25T14:42:03.000Z</time>
      </trkpt>
      <trkpt lat="43.26074" lon="6.18842">
        <ele>114</ele>
        <time>2024-09-25T14:42:11.000Z</time>
      </trkpt>
      <trkpt lat="43.26078" lon="6.18834">
        <ele>114</ele>
        <time>2024-09-25T14:42:17.000Z</time>
      </trkpt>
      <trkpt lat="43.26082" lon="6.18826">
        <ele>115</ele>
        <time>2024-09-25T14:42:23.000Z</time>
      </trkpt>
      <trkpt lat="43.26084" lon="6.18825">
        <ele>115</ele>
        <time>2024-09-25T14:42:25.000Z</time>
      </trkpt>
      <trkpt lat="43.26088" lon="6.18816">
        <ele>114</ele>
        <time>2024-09-25T14:42:33.000Z</time>
      </trkpt>
      <trkpt lat="43.2609" lon="6.18814">
        <ele>113</ele>
        <time>2024-09-25T14:42:35.000Z</time>
      </trkpt>
      <trkpt lat="43.26096" lon="6.18809">
        <ele>112</ele>
        <time>2024-09-25T14:42:41.000Z</time>
      </trkpt>
      <trkpt lat="43.26104" lon="6.18798">
        <ele>110</ele>
        <time>2024-09-25T14:42:55.000Z</time>
      </trkpt>
      <trkpt lat="43.26105" lon="6.18795">
        <ele>109</ele>
        <time>2024-09-25T14:42:57.000Z</time>
      </trkpt>
      <trkpt lat="43.26111" lon="6.18778">
        <ele>108</ele>
        <time>2024-09-25T14:43:09.000Z</time>
      </trkpt>
      <trkpt lat="43.26113" lon="6.18775">
        <ele>108</ele>
        <time>2024-09-25T14:43:11.000Z</time>
      </trkpt>
      <trkpt lat="43.26114" lon="6.18773">
        <ele>108</ele>
        <time>2024-09-25T14:43:13.000Z</time>
      </trkpt>
      <trkpt lat="43.26115" lon="6.1877">
        <ele>107</ele>
        <time>2024-09-25T14:43:15.000Z</time>
      </trkpt>
      <trkpt lat="43.26117" lon="6.18768">
        <ele>107</ele>
        <time>2024-09-25T14:43:17.000Z</time>
      </trkpt>
      <trkpt lat="43.26118" lon="6.18764">
        <ele>107</ele>
        <time>2024-09-25T14:43:19.000Z</time>
      </trkpt>
      <trkpt lat="43.26118" lon="6.18761">
        <ele>107</ele>
        <time>2024-09-25T14:43:21.000Z</time>
      </trkpt>
      <trkpt lat="43.26121" lon="6.18749">
        <ele>108</ele>
        <time>2024-09-25T14:43:29.000Z</time>
      </trkpt>
      <trkpt lat="43.26121" lon="6.18747">
        <ele>108</ele>
        <time>2024-09-25T14:43:31.000Z</time>
      </trkpt>
      <trkpt lat="43.26122" lon="6.18744">
        <ele>108</ele>
        <time>2024-09-25T14:43:33.000Z</time>
      </trkpt>
      <trkpt lat="43.26124" lon="6.18739">
        <ele>108</ele>
        <time>2024-09-25T14:43:37.000Z</time>
      </trkpt>
      <trkpt lat="43.26125" lon="6.18737">
        <ele>107</ele>
        <time>2024-09-25T14:43:39.000Z</time>
      </trkpt>
      <trkpt lat="43.26131" lon="6.18727">
        <ele>108</ele>
        <time>2024-09-25T14:43:47.000Z</time>
      </trkpt>
      <trkpt lat="43.26136" lon="6.18718">
        <ele>108</ele>
        <time>2024-09-25T14:43:53.000Z</time>
      </trkpt>
      <trkpt lat="43.26136" lon="6.18716">
        <ele>108</ele>
        <time>2024-09-25T14:43:55.000Z</time>
      </trkpt>
      <trkpt lat="43.26138" lon="6.18714">
        <ele>107</ele>
        <time>2024-09-25T14:43:57.000Z</time>
      </trkpt>
      <trkpt lat="43.2614" lon="6.18712">
        <ele>107</ele>
        <time>2024-09-25T14:43:59.000Z</time>
      </trkpt>
      <trkpt lat="43.26148" lon="6.18696">
        <ele>108</ele>
        <time>2024-09-25T14:44:11.000Z</time>
      </trkpt>
      <trkpt lat="43.26151" lon="6.18691">
        <ele>108</ele>
        <time>2024-09-25T14:44:15.000Z</time>
      </trkpt>
      <trkpt lat="43.26153" lon="6.18689">
        <ele>108</ele>
        <time>2024-09-25T14:44:17.000Z</time>
      </trkpt>
      <trkpt lat="43.26154" lon="6.18687">
        <ele>108</ele>
        <time>2024-09-25T14:44:19.000Z</time>
      </trkpt>
      <trkpt lat="43.26159" lon="6.1868">
        <ele>108</ele>
        <time>2024-09-25T14:44:25.000Z</time>
      </trkpt>
      <trkpt lat="43.26161" lon="6.18677">
        <ele>109</ele>
        <time>2024-09-25T14:44:27.000Z</time>
      </trkpt>
      <trkpt lat="43.26165" lon="6.18673">
        <ele>109</ele>
        <time>2024-09-25T14:44:31.000Z</time>
      </trkpt>
      <trkpt lat="43.2617" lon="6.18666">
        <ele>110</ele>
        <time>2024-09-25T14:44:37.000Z</time>
      </trkpt>
      <trkpt lat="43.26173" lon="6.18664">
        <ele>110</ele>
        <time>2024-09-25T14:44:39.000Z</time>
      </trkpt>
      <trkpt lat="43.26175" lon="6.18663">
        <ele>110</ele>
        <time>2024-09-25T14:44:41.000Z</time>
      </trkpt>
      <trkpt lat="43.2618" lon="6.18659">
        <ele>111</ele>
        <time>2024-09-25T14:44:45.000Z</time>
      </trkpt>
      <trkpt lat="43.2619" lon="6.18655">
        <ele>110</ele>
        <time>2024-09-25T14:44:53.000Z</time>
      </trkpt>
      <trkpt lat="43.26193" lon="6.18654">
        <ele>109</ele>
        <time>2024-09-25T14:44:55.000Z</time>
      </trkpt>
      <trkpt lat="43.26198" lon="6.1865">
        <ele>108</ele>
        <time>2024-09-25T14:45:01.000Z</time>
      </trkpt>
      <trkpt lat="43.26203" lon="6.18648">
        <ele>107</ele>
        <time>2024-09-25T14:45:05.000Z</time>
      </trkpt>
      <trkpt lat="43.26206" lon="6.18647">
        <ele>107</ele>
        <time>2024-09-25T14:45:07.000Z</time>
      </trkpt>
      <trkpt lat="43.26208" lon="6.18645">
        <ele>106</ele>
        <time>2024-09-25T14:45:09.000Z</time>
      </trkpt>
      <trkpt lat="43.2621" lon="6.18643">
        <ele>106</ele>
        <time>2024-09-25T14:45:11.000Z</time>
      </trkpt>
      <trkpt lat="43.26221" lon="6.18631">
        <ele>103</ele>
        <time>2024-09-25T14:45:23.000Z</time>
      </trkpt>
      <trkpt lat="43.26228" lon="6.18618">
        <ele>103</ele>
        <time>2024-09-25T14:45:33.000Z</time>
      </trkpt>
      <trkpt lat="43.26229" lon="6.18616">
        <ele>103</ele>
        <time>2024-09-25T14:45:35.000Z</time>
      </trkpt>
      <trkpt lat="43.26233" lon="6.18604">
        <ele>103</ele>
        <time>2024-09-25T14:45:43.000Z</time>
      </trkpt>
      <trkpt lat="43.26234" lon="6.18602">
        <ele>103</ele>
        <time>2024-09-25T14:45:45.000Z</time>
      </trkpt>
      <trkpt lat="43.26237" lon="6.18595">
        <ele>104</ele>
        <time>2024-09-25T14:45:49.000Z</time>
      </trkpt>
      <trkpt lat="43.26237" lon="6.18593">
        <ele>104</ele>
        <time>2024-09-25T14:45:51.000Z</time>
      </trkpt>
      <trkpt lat="43.2624" lon="6.18584">
        <ele>106</ele>
        <time>2024-09-25T14:45:57.000Z</time>
      </trkpt>
      <trkpt lat="43.26241" lon="6.18581">
        <ele>106</ele>
        <time>2024-09-25T14:45:59.000Z</time>
      </trkpt>
      <trkpt lat="43.26242" lon="6.18578">
        <ele>107</ele>
        <time>2024-09-25T14:46:01.000Z</time>
      </trkpt>
      <trkpt lat="43.26243" lon="6.18575">
        <ele>107</ele>
        <time>2024-09-25T14:46:03.000Z</time>
      </trkpt>
      <trkpt lat="43.26245" lon="6.18571">
        <ele>108</ele>
        <time>2024-09-25T14:46:07.000Z</time>
      </trkpt>
      <trkpt lat="43.2625" lon="6.18556">
        <ele>107</ele>
        <time>2024-09-25T14:46:17.000Z</time>
      </trkpt>
      <trkpt lat="43.26251" lon="6.18554">
        <ele>106</ele>
        <time>2024-09-25T14:46:19.000Z</time>
      </trkpt>
      <trkpt lat="43.26253" lon="6.18549">
        <ele>106</ele>
        <time>2024-09-25T14:46:23.000Z</time>
      </trkpt>
      <trkpt lat="43.26253" lon="6.18546">
        <ele>106</ele>
        <time>2024-09-25T14:46:25.000Z</time>
      </trkpt>
      <trkpt lat="43.26254" lon="6.18543">
        <ele>106</ele>
        <time>2024-09-25T14:46:27.000Z</time>
      </trkpt>
      <trkpt lat="43.26255" lon="6.1854">
        <ele>106</ele>
        <time>2024-09-25T14:46:29.000Z</time>
      </trkpt>
      <trkpt lat="43.2626" lon="6.1853">
        <ele>107</ele>
        <time>2024-09-25T14:46:37.000Z</time>
      </trkpt>
      <trkpt lat="43.26262" lon="6.18524">
        <ele>107</ele>
        <time>2024-09-25T14:46:41.000Z</time>
      </trkpt>
      <trkpt lat="43.26263" lon="6.18521">
        <ele>107</ele>
        <time>2024-09-25T14:46:43.000Z</time>
      </trkpt>
      <trkpt lat="43.26264" lon="6.18516">
        <ele>107</ele>
        <time>2024-09-25T14:46:47.000Z</time>
      </trkpt>
      <trkpt lat="43.26264" lon="6.18513">
        <ele>107</ele>
        <time>2024-09-25T14:46:49.000Z</time>
      </trkpt>
      <trkpt lat="43.26263" lon="6.18511">
        <ele>107</ele>
        <time>2024-09-25T14:46:51.000Z</time>
      </trkpt>
      <trkpt lat="43.26261" lon="6.18509">
        <ele>107</ele>
        <time>2024-09-25T14:46:53.000Z</time>
      </trkpt>
      <trkpt lat="43.26258" lon="6.18502">
        <ele>107</ele>
        <time>2024-09-25T14:46:59.000Z</time>
      </trkpt>
      <trkpt lat="43.26257" lon="6.185">
        <ele>107</ele>
        <time>2024-09-25T14:47:01.000Z</time>
      </trkpt>
      <trkpt lat="43.26256" lon="6.18494">
        <ele>108</ele>
        <time>2024-09-25T14:47:05.000Z</time>
      </trkpt>
      <trkpt lat="43.26251" lon="6.18489">
        <ele>108</ele>
        <time>2024-09-25T14:47:11.000Z</time>
      </trkpt>
      <trkpt lat="43.26249" lon="6.18487">
        <ele>108</ele>
        <time>2024-09-25T14:47:13.000Z</time>
      </trkpt>
      <trkpt lat="43.26238" lon="6.18472">
        <ele>109</ele>
        <time>2024-09-25T14:47:27.000Z</time>
      </trkpt>
      <trkpt lat="43.26231" lon="6.18466">
        <ele>109</ele>
        <time>2024-09-25T14:47:35.000Z</time>
      </trkpt>
      <trkpt lat="43.2623" lon="6.18464">
        <ele>109</ele>
        <time>2024-09-25T14:47:37.000Z</time>
      </trkpt>
      <trkpt lat="43.26225" lon="6.18454">
        <ele>109</ele>
        <time>2024-09-25T14:47:45.000Z</time>
      </trkpt>
      <trkpt lat="43.26223" lon="6.18452">
        <ele>108</ele>
        <time>2024-09-25T14:47:47.000Z</time>
      </trkpt>
      <trkpt lat="43.26215" lon="6.18435">
        <ele>107</ele>
        <time>2024-09-25T14:48:03.000Z</time>
      </trkpt>
      <trkpt lat="43.26214" lon="6.18429">
        <ele>107</ele>
        <time>2024-09-25T14:48:07.000Z</time>
      </trkpt>
      <trkpt lat="43.26213" lon="6.18426">
        <ele>107</ele>
        <time>2024-09-25T14:48:09.000Z</time>
      </trkpt>
      <trkpt lat="43.26212" lon="6.18424">
        <ele>107</ele>
        <time>2024-09-25T14:48:11.000Z</time>
      </trkpt>
      <trkpt lat="43.26211" lon="6.18422">
        <ele>107</ele>
        <time>2024-09-25T14:48:13.000Z</time>
      </trkpt>
      <trkpt lat="43.26209" lon="6.18416">
        <ele>108</ele>
        <time>2024-09-25T14:48:17.000Z</time>
      </trkpt>
      <trkpt lat="43.26206" lon="6.1841">
        <ele>109</ele>
        <time>2024-09-25T14:48:21.000Z</time>
      </trkpt>
      <trkpt lat="43.26205" lon="6.18408">
        <ele>110</ele>
        <time>2024-09-25T14:48:23.000Z</time>
      </trkpt>
      <trkpt lat="43.26199" lon="6.18393">
        <ele>115</ele>
        <time>2024-09-25T14:48:35.000Z</time>
      </trkpt>
      <trkpt lat="43.26198" lon="6.18391">
        <ele>116</ele>
        <time>2024-09-25T14:48:37.000Z</time>
      </trkpt>
      <trkpt lat="43.26196" lon="6.18385">
        <ele>116</ele>
        <time>2024-09-25T14:48:41.000Z</time>
      </trkpt>
      <trkpt lat="43.26195" lon="6.18383">
        <ele>116</ele>
        <time>2024-09-25T14:48:43.000Z</time>
      </trkpt>
      <trkpt lat="43.26194" lon="6.18382">
        <ele>116</ele>
        <time>2024-09-25T14:48:45.000Z</time>
      </trkpt>
      <trkpt lat="43.26192" lon="6.1838">
        <ele>116</ele>
        <time>2024-09-25T14:48:47.000Z</time>
      </trkpt>
      <trkpt lat="43.26192" lon="6.18375">
        <ele>117</ele>
        <time>2024-09-25T14:48:51.000Z</time>
      </trkpt>
      <trkpt lat="43.26191" lon="6.18371">
        <ele>116</ele>
        <time>2024-09-25T14:48:53.000Z</time>
      </trkpt>
      <trkpt lat="43.2619" lon="6.18369">
        <ele>116</ele>
        <time>2024-09-25T14:48:55.000Z</time>
      </trkpt>
      <trkpt lat="43.26189" lon="6.1836">
        <ele>116</ele>
        <time>2024-09-25T14:49:01.000Z</time>
      </trkpt>
      <trkpt lat="43.26188" lon="6.18357">
        <ele>116</ele>
        <time>2024-09-25T14:49:03.000Z</time>
      </trkpt>
      <trkpt lat="43.26187" lon="6.18354">
        <ele>115</ele>
        <time>2024-09-25T14:49:05.000Z</time>
      </trkpt>
      <trkpt lat="43.26184" lon="6.18349">
        <ele>114</ele>
        <time>2024-09-25T14:49:09.000Z</time>
      </trkpt>
      <trkpt lat="43.2618" lon="6.1834">
        <ele>113</ele>
        <time>2024-09-25T14:49:15.000Z</time>
      </trkpt>
      <trkpt lat="43.26179" lon="6.18334">
        <ele>113</ele>
        <time>2024-09-25T14:49:19.000Z</time>
      </trkpt>
      <trkpt lat="43.26179" lon="6.18332">
        <ele>112</ele>
        <time>2024-09-25T14:49:21.000Z</time>
      </trkpt>
      <trkpt lat="43.26178" lon="6.18317">
        <ele>111</ele>
        <time>2024-09-25T14:49:31.000Z</time>
      </trkpt>
      <trkpt lat="43.26178" lon="6.18311">
        <ele>110</ele>
        <time>2024-09-25T14:49:35.000Z</time>
      </trkpt>
      <trkpt lat="43.26177" lon="6.18302">
        <ele>108</ele>
        <time>2024-09-25T14:49:41.000Z</time>
      </trkpt>
      <trkpt lat="43.26176" lon="6.18299">
        <ele>108</ele>
        <time>2024-09-25T14:49:43.000Z</time>
      </trkpt>
      <trkpt lat="43.26175" lon="6.18296">
        <ele>108</ele>
        <time>2024-09-25T14:49:45.000Z</time>
      </trkpt>
      <trkpt lat="43.26175" lon="6.18286">
        <ele>108</ele>
        <time>2024-09-25T14:49:51.000Z</time>
      </trkpt>
      <trkpt lat="43.26175" lon="6.18281">
        <ele>109</ele>
        <time>2024-09-25T14:49:55.000Z</time>
      </trkpt>
      <trkpt lat="43.26177" lon="6.18262">
        <ele>108</ele>
        <time>2024-09-25T14:50:07.000Z</time>
      </trkpt>
      <trkpt lat="43.26176" lon="6.18259">
        <ele>107</ele>
        <time>2024-09-25T14:50:09.000Z</time>
      </trkpt>
      <trkpt lat="43.26175" lon="6.18257">
        <ele>107</ele>
        <time>2024-09-25T14:50:11.000Z</time>
      </trkpt>
      <trkpt lat="43.26172" lon="6.18228">
        <ele>106</ele>
        <time>2024-09-25T14:50:31.000Z</time>
      </trkpt>
      <trkpt lat="43.26172" lon="6.18225">
        <ele>106</ele>
        <time>2024-09-25T14:50:33.000Z</time>
      </trkpt>
      <trkpt lat="43.26172" lon="6.18222">
        <ele>106</ele>
        <time>2024-09-25T14:50:35.000Z</time>
      </trkpt>
      <trkpt lat="43.26172" lon="6.18218">
        <ele>106</ele>
        <time>2024-09-25T14:50:37.000Z</time>
      </trkpt>
      <trkpt lat="43.26173" lon="6.18207">
        <ele>106</ele>
        <time>2024-09-25T14:50:43.000Z</time>
      </trkpt>
      <trkpt lat="43.26172" lon="6.182">
        <ele>106</ele>
        <time>2024-09-25T14:50:49.000Z</time>
      </trkpt>
      <trkpt lat="43.26173" lon="6.18173">
        <ele>107</ele>
        <time>2024-09-25T14:51:07.000Z</time>
      </trkpt>
      <trkpt lat="43.26174" lon="6.18166">
        <ele>106</ele>
        <time>2024-09-25T14:51:11.000Z</time>
      </trkpt>
      <trkpt lat="43.26174" lon="6.18161">
        <ele>106</ele>
        <time>2024-09-25T14:51:15.000Z</time>
      </trkpt>
      <trkpt lat="43.26175" lon="6.18151">
        <ele>105</ele>
        <time>2024-09-25T14:51:21.000Z</time>
      </trkpt>
      <trkpt lat="43.26175" lon="6.18148">
        <ele>105</ele>
        <time>2024-09-25T14:51:23.000Z</time>
      </trkpt>
      <trkpt lat="43.26174" lon="6.18146">
        <ele>105</ele>
        <time>2024-09-25T14:51:25.000Z</time>
      </trkpt>
      <trkpt lat="43.26173" lon="6.18143">
        <ele>105</ele>
        <time>2024-09-25T14:51:27.000Z</time>
      </trkpt>
      <trkpt lat="43.26171" lon="6.18137">
        <ele>105</ele>
        <time>2024-09-25T14:51:31.000Z</time>
      </trkpt>
      <trkpt lat="43.26169" lon="6.18134">
        <ele>105</ele>
        <time>2024-09-25T14:51:33.000Z</time>
      </trkpt>
      <trkpt lat="43.26169" lon="6.18131">
        <ele>105</ele>
        <time>2024-09-25T14:51:35.000Z</time>
      </trkpt>
      <trkpt lat="43.26169" lon="6.18128">
        <ele>105</ele>
        <time>2024-09-25T14:51:37.000Z</time>
      </trkpt>
      <trkpt lat="43.26168" lon="6.18126">
        <ele>105</ele>
        <time>2024-09-25T14:51:39.000Z</time>
      </trkpt>
      <trkpt lat="43.26167" lon="6.18124">
        <ele>104</ele>
        <time>2024-09-25T14:51:41.000Z</time>
      </trkpt>
      <trkpt lat="43.26166" lon="6.18117">
        <ele>104</ele>
        <time>2024-09-25T14:51:47.000Z</time>
      </trkpt>
      <trkpt lat="43.26159" lon="6.18108">
        <ele>103</ele>
        <time>2024-09-25T14:51:57.000Z</time>
      </trkpt>
      <trkpt lat="43.26141" lon="6.18099">
        <ele>100</ele>
        <time>2024-09-25T14:52:17.000Z</time>
      </trkpt>
      <trkpt lat="43.26139" lon="6.18097">
        <ele>99</ele>
        <time>2024-09-25T14:52:19.000Z</time>
      </trkpt>
      <trkpt lat="43.2613" lon="6.18092">
        <ele>98</ele>
        <time>2024-09-25T14:52:27.000Z</time>
      </trkpt>
      <trkpt lat="43.26129" lon="6.1809">
        <ele>97</ele>
        <time>2024-09-25T14:52:29.000Z</time>
      </trkpt>
      <trkpt lat="43.26127" lon="6.18088">
        <ele>97</ele>
        <time>2024-09-25T14:52:31.000Z</time>
      </trkpt>
      <trkpt lat="43.26126" lon="6.18086">
        <ele>97</ele>
        <time>2024-09-25T14:52:33.000Z</time>
      </trkpt>
      <trkpt lat="43.26124" lon="6.18087">
        <ele>97</ele>
        <time>2024-09-25T14:52:41.000Z</time>
      </trkpt>
      <trkpt lat="43.26123" lon="6.18088">
        <ele>97</ele>
        <time>2024-09-25T14:52:47.000Z</time>
      </trkpt>
      <trkpt lat="43.26115" lon="6.18076">
        <ele>96</ele>
        <time>2024-09-25T14:53:03.000Z</time>
      </trkpt>
      <trkpt lat="43.26103" lon="6.18061">
        <ele>92</ele>
        <time>2024-09-25T14:53:19.000Z</time>
      </trkpt>
      <trkpt lat="43.261" lon="6.1805">
        <ele>89</ele>
        <time>2024-09-25T14:53:25.000Z</time>
      </trkpt>
      <trkpt lat="43.26097" lon="6.18042">
        <ele>88</ele>
        <time>2024-09-25T14:53:29.000Z</time>
      </trkpt>
      <trkpt lat="43.26093" lon="6.18032">
        <ele>87</ele>
        <time>2024-09-25T14:53:37.000Z</time>
      </trkpt>
      <trkpt lat="43.26092" lon="6.1803">
        <ele>87</ele>
        <time>2024-09-25T14:53:39.000Z</time>
      </trkpt>
      <trkpt lat="43.26087" lon="6.18012">
        <ele>85</ele>
        <time>2024-09-25T14:53:55.000Z</time>
      </trkpt>
      <trkpt lat="43.26086" lon="6.18009">
        <ele>86</ele>
        <time>2024-09-25T14:53:59.000Z</time>
      </trkpt>
      <trkpt lat="43.26083" lon="6.18005">
        <ele>87</ele>
        <time>2024-09-25T14:54:03.000Z</time>
      </trkpt>
      <trkpt lat="43.2608" lon="6.17999">
        <ele>89</ele>
        <time>2024-09-25T14:54:09.000Z</time>
      </trkpt>
      <trkpt lat="43.26078" lon="6.17998">
        <ele>89</ele>
        <time>2024-09-25T14:54:11.000Z</time>
      </trkpt>
      <trkpt lat="43.26074" lon="6.17995">
        <ele>90</ele>
        <time>2024-09-25T14:54:15.000Z</time>
      </trkpt>
      <trkpt lat="43.26072" lon="6.17994">
        <ele>90</ele>
        <time>2024-09-25T14:54:17.000Z</time>
      </trkpt>
      <trkpt lat="43.26069" lon="6.17993">
        <ele>91</ele>
        <time>2024-09-25T14:54:21.000Z</time>
      </trkpt>
      <trkpt lat="43.26067" lon="6.17991">
        <ele>91</ele>
        <time>2024-09-25T14:54:23.000Z</time>
      </trkpt>
      <trkpt lat="43.26066" lon="6.17989">
        <ele>91</ele>
        <time>2024-09-25T14:54:25.000Z</time>
      </trkpt>
      <trkpt lat="43.26059" lon="6.1798">
        <ele>92</ele>
        <time>2024-09-25T14:54:33.000Z</time>
      </trkpt>
      <trkpt lat="43.26055" lon="6.17978">
        <ele>92</ele>
        <time>2024-09-25T14:54:37.000Z</time>
      </trkpt>
      <trkpt lat="43.26054" lon="6.17973">
        <ele>91</ele>
        <time>2024-09-25T14:54:59.000Z</time>
      </trkpt>
      <trkpt lat="43.26052" lon="6.17972">
        <ele>91</ele>
        <time>2024-09-25T14:55:01.000Z</time>
      </trkpt>
      <trkpt lat="43.26051" lon="6.1797">
        <ele>91</ele>
        <time>2024-09-25T14:55:03.000Z</time>
      </trkpt>
      <trkpt lat="43.26049" lon="6.17968">
        <ele>91</ele>
        <time>2024-09-25T14:55:13.000Z</time>
      </trkpt>
      <trkpt lat="43.26048" lon="6.17968">
        <ele>92</ele>
        <time>2024-09-25T14:55:17.000Z</time>
      </trkpt>
      <trkpt lat="43.26045" lon="6.17968">
        <ele>91</ele>
        <time>2024-09-25T14:55:21.000Z</time>
      </trkpt>
      <trkpt lat="43.26044" lon="6.17966">
        <ele>91</ele>
        <time>2024-09-25T14:55:23.000Z</time>
      </trkpt>
      <trkpt lat="43.26042" lon="6.17965">
        <ele>91</ele>
        <time>2024-09-25T14:55:25.000Z</time>
      </trkpt>
      <trkpt lat="43.2604" lon="6.17964">
        <ele>90</ele>
        <time>2024-09-25T14:55:27.000Z</time>
      </trkpt>
      <trkpt lat="43.26033" lon="6.17956">
        <ele>91</ele>
        <time>2024-09-25T14:55:35.000Z</time>
      </trkpt>
      <trkpt lat="43.26026" lon="6.17949">
        <ele>90</ele>
        <time>2024-09-25T14:55:45.000Z</time>
      </trkpt>
      <trkpt lat="43.26023" lon="6.17947">
        <ele>90</ele>
        <time>2024-09-25T14:55:47.000Z</time>
      </trkpt>
      <trkpt lat="43.26019" lon="6.17945">
        <ele>90</ele>
        <time>2024-09-25T14:55:51.000Z</time>
      </trkpt>
      <trkpt lat="43.26014" lon="6.17936">
        <ele>89</ele>
        <time>2024-09-25T14:55:57.000Z</time>
      </trkpt>
      <trkpt lat="43.26011" lon="6.17928">
        <ele>89</ele>
        <time>2024-09-25T14:56:03.000Z</time>
      </trkpt>
      <trkpt lat="43.26009" lon="6.17927">
        <ele>89</ele>
        <time>2024-09-25T14:56:05.000Z</time>
      </trkpt>
      <trkpt lat="43.26008" lon="6.17925">
        <ele>88</ele>
        <time>2024-09-25T14:56:07.000Z</time>
      </trkpt>
      <trkpt lat="43.26004" lon="6.17918">
        <ele>87</ele>
        <time>2024-09-25T14:56:13.000Z</time>
      </trkpt>
      <trkpt lat="43.26003" lon="6.17915">
        <ele>87</ele>
        <time>2024-09-25T14:56:15.000Z</time>
      </trkpt>
      <trkpt lat="43.26001" lon="6.17908">
        <ele>86</ele>
        <time>2024-09-25T14:56:19.000Z</time>
      </trkpt>
      <trkpt lat="43.25994" lon="6.17892">
        <ele>84</ele>
        <time>2024-09-25T14:56:31.000Z</time>
      </trkpt>
      <trkpt lat="43.25993" lon="6.17889">
        <ele>84</ele>
        <time>2024-09-25T14:56:33.000Z</time>
      </trkpt>
      <trkpt lat="43.25991" lon="6.17886">
        <ele>84</ele>
        <time>2024-09-25T14:56:35.000Z</time>
      </trkpt>
      <trkpt lat="43.25988" lon="6.17879">
        <ele>83</ele>
        <time>2024-09-25T14:56:41.000Z</time>
      </trkpt>
      <trkpt lat="43.25987" lon="6.17876">
        <ele>83</ele>
        <time>2024-09-25T14:56:43.000Z</time>
      </trkpt>
      <trkpt lat="43.25986" lon="6.17872">
        <ele>83</ele>
        <time>2024-09-25T14:56:45.000Z</time>
      </trkpt>
      <trkpt lat="43.25983" lon="6.17869">
        <ele>83</ele>
        <time>2024-09-25T14:56:49.000Z</time>
      </trkpt>
      <trkpt lat="43.25982" lon="6.17866">
        <ele>83</ele>
        <time>2024-09-25T14:56:51.000Z</time>
      </trkpt>
      <trkpt lat="43.25984" lon="6.17863">
        <ele>83</ele>
        <time>2024-09-25T14:56:53.000Z</time>
      </trkpt>
      <trkpt lat="43.25985" lon="6.17861">
        <ele>83</ele>
        <time>2024-09-25T14:56:57.000Z</time>
      </trkpt>
      <trkpt lat="43.25977" lon="6.17852">
        <ele>87</ele>
        <time>2024-09-25T14:57:21.000Z</time>
      </trkpt>
      <trkpt lat="43.25976" lon="6.17849">
        <ele>88</ele>
        <time>2024-09-25T14:57:23.000Z</time>
      </trkpt>
      <trkpt lat="43.25975" lon="6.17847">
        <ele>88</ele>
        <time>2024-09-25T14:57:25.000Z</time>
      </trkpt>
      <trkpt lat="43.25973" lon="6.17845">
        <ele>88</ele>
        <time>2024-09-25T14:57:27.000Z</time>
      </trkpt>
      <trkpt lat="43.25972" lon="6.17843">
        <ele>88</ele>
        <time>2024-09-25T14:57:29.000Z</time>
      </trkpt>
      <trkpt lat="43.25971" lon="6.17842">
        <ele>88</ele>
        <time>2024-09-25T14:57:31.000Z</time>
      </trkpt>
      <trkpt lat="43.25969" lon="6.1784">
        <ele>88</ele>
        <time>2024-09-25T14:57:33.000Z</time>
      </trkpt>
      <trkpt lat="43.25964" lon="6.17828">
        <ele>86</ele>
        <time>2024-09-25T14:57:43.000Z</time>
      </trkpt>
      <trkpt lat="43.2596" lon="6.17819">
        <ele>86</ele>
        <time>2024-09-25T14:57:49.000Z</time>
      </trkpt>
      <trkpt lat="43.25959" lon="6.17812">
        <ele>86</ele>
        <time>2024-09-25T14:57:53.000Z</time>
      </trkpt>
      <trkpt lat="43.25958" lon="6.17806">
        <ele>86</ele>
        <time>2024-09-25T14:57:59.000Z</time>
      </trkpt>
      <trkpt lat="43.25958" lon="6.17803">
        <ele>86</ele>
        <time>2024-09-25T14:58:01.000Z</time>
      </trkpt>
      <trkpt lat="43.25957" lon="6.178">
        <ele>86</ele>
        <time>2024-09-25T14:58:03.000Z</time>
      </trkpt>
      <trkpt lat="43.25954" lon="6.17795">
        <ele>86</ele>
        <time>2024-09-25T14:58:07.000Z</time>
      </trkpt>
      <trkpt lat="43.25953" lon="6.17793">
        <ele>86</ele>
        <time>2024-09-25T14:58:09.000Z</time>
      </trkpt>
      <trkpt lat="43.25953" lon="6.17789">
        <ele>86</ele>
        <time>2024-09-25T14:58:11.000Z</time>
      </trkpt>
      <trkpt lat="43.25952" lon="6.17785">
        <ele>86</ele>
        <time>2024-09-25T14:58:13.000Z</time>
      </trkpt>
      <trkpt lat="43.2595" lon="6.17774">
        <ele>86</ele>
        <time>2024-09-25T14:58:19.000Z</time>
      </trkpt>
      <trkpt lat="43.25948" lon="6.17771">
        <ele>86</ele>
        <time>2024-09-25T14:58:21.000Z</time>
      </trkpt>
      <trkpt lat="43.25948" lon="6.17769">
        <ele>85</ele>
        <time>2024-09-25T14:58:23.000Z</time>
      </trkpt>
      <trkpt lat="43.25943" lon="6.17761">
        <ele>85</ele>
        <time>2024-09-25T14:58:29.000Z</time>
      </trkpt>
      <trkpt lat="43.25942" lon="6.1776">
        <ele>85</ele>
        <time>2024-09-25T14:58:31.000Z</time>
      </trkpt>
      <trkpt lat="43.25938" lon="6.17747">
        <ele>86</ele>
        <time>2024-09-25T14:58:39.000Z</time>
      </trkpt>
      <trkpt lat="43.25939" lon="6.17744">
        <ele>86</ele>
        <time>2024-09-25T14:58:41.000Z</time>
      </trkpt>
      <trkpt lat="43.25939" lon="6.17734">
        <ele>86</ele>
        <time>2024-09-25T14:58:47.000Z</time>
      </trkpt>
      <trkpt lat="43.25942" lon="6.17722">
        <ele>86</ele>
        <time>2024-09-25T14:58:53.000Z</time>
      </trkpt>
      <trkpt lat="43.25942" lon="6.17718">
        <ele>86</ele>
        <time>2024-09-25T14:58:55.000Z</time>
      </trkpt>
      <trkpt lat="43.25941" lon="6.17716">
        <ele>86</ele>
        <time>2024-09-25T14:58:57.000Z</time>
      </trkpt>
      <trkpt lat="43.25941" lon="6.17713">
        <ele>86</ele>
        <time>2024-09-25T14:58:59.000Z</time>
      </trkpt>
      <trkpt lat="43.25941" lon="6.1771">
        <ele>85</ele>
        <time>2024-09-25T14:59:01.000Z</time>
      </trkpt>
      <trkpt lat="43.25941" lon="6.17707">
        <ele>84</ele>
        <time>2024-09-25T14:59:05.000Z</time>
      </trkpt>
      <trkpt lat="43.2594" lon="6.17704">
        <ele>84</ele>
        <time>2024-09-25T14:59:09.000Z</time>
      </trkpt>
      <trkpt lat="43.25939" lon="6.177">
        <ele>84</ele>
        <time>2024-09-25T14:59:13.000Z</time>
      </trkpt>
      <trkpt lat="43.25938" lon="6.17696">
        <ele>84</ele>
        <time>2024-09-25T14:59:17.000Z</time>
      </trkpt>
      <trkpt lat="43.25938" lon="6.17693">
        <ele>84</ele>
        <time>2024-09-25T14:59:19.000Z</time>
      </trkpt>
      <trkpt lat="43.25937" lon="6.17684">
        <ele>85</ele>
        <time>2024-09-25T14:59:23.000Z</time>
      </trkpt>
      <trkpt lat="43.25937" lon="6.17679">
        <ele>86</ele>
        <time>2024-09-25T14:59:25.000Z</time>
      </trkpt>
      <trkpt lat="43.25937" lon="6.17676">
        <ele>86</ele>
        <time>2024-09-25T14:59:27.000Z</time>
      </trkpt>
      <trkpt lat="43.25938" lon="6.17673">
        <ele>87</ele>
        <time>2024-09-25T14:59:31.000Z</time>
      </trkpt>
      <trkpt lat="43.2594" lon="6.17673">
        <ele>87</ele>
        <time>2024-09-25T14:59:35.000Z</time>
      </trkpt>
      <trkpt lat="43.25939" lon="6.17666">
        <ele>88</ele>
        <time>2024-09-25T15:00:09.000Z</time>
      </trkpt>
      <trkpt lat="43.25939" lon="6.17662">
        <ele>88</ele>
        <time>2024-09-25T15:00:13.000Z</time>
      </trkpt>
      <trkpt lat="43.25939" lon="6.1766">
        <ele>89</ele>
        <time>2024-09-25T15:00:17.000Z</time>
      </trkpt>
      <trkpt lat="43.25942" lon="6.17655">
        <ele>89</ele>
        <time>2024-09-25T15:00:23.000Z</time>
      </trkpt>
      <trkpt lat="43.25941" lon="6.17653">
        <ele>89</ele>
        <time>2024-09-25T15:00:29.000Z</time>
      </trkpt>
      <trkpt lat="43.25939" lon="6.17652">
        <ele>89</ele>
        <time>2024-09-25T15:00:35.000Z</time>
      </trkpt>
      <trkpt lat="43.25937" lon="6.17654">
        <ele>88</ele>
        <time>2024-09-25T15:00:37.000Z</time>
      </trkpt>
      <trkpt lat="43.25935" lon="6.17654">
        <ele>88</ele>
        <time>2024-09-25T15:00:39.000Z</time>
      </trkpt>
      <trkpt lat="43.25933" lon="6.17654">
        <ele>89</ele>
        <time>2024-09-25T15:00:41.000Z</time>
      </trkpt>
      <trkpt lat="43.25932" lon="6.17652">
        <ele>89</ele>
        <time>2024-09-25T15:00:43.000Z</time>
      </trkpt>
      <trkpt lat="43.2593" lon="6.1765">
        <ele>88</ele>
        <time>2024-09-25T15:00:47.000Z</time>
      </trkpt>
      <trkpt lat="43.25925" lon="6.17645">
        <ele>86</ele>
        <time>2024-09-25T15:00:57.000Z</time>
      </trkpt>
      <trkpt lat="43.25923" lon="6.17644">
        <ele>85</ele>
        <time>2024-09-25T15:00:59.000Z</time>
      </trkpt>
      <trkpt lat="43.25922" lon="6.17642">
        <ele>85</ele>
        <time>2024-09-25T15:01:01.000Z</time>
      </trkpt>
      <trkpt lat="43.2592" lon="6.1764">
        <ele>85</ele>
        <time>2024-09-25T15:01:03.000Z</time>
      </trkpt>
      <trkpt lat="43.25918" lon="6.17637">
        <ele>84</ele>
        <time>2024-09-25T15:01:07.000Z</time>
      </trkpt>
      <trkpt lat="43.25918" lon="6.17632">
        <ele>84</ele>
        <time>2024-09-25T15:01:11.000Z</time>
      </trkpt>
      <trkpt lat="43.25917" lon="6.17627">
        <ele>84</ele>
        <time>2024-09-25T15:01:15.000Z</time>
      </trkpt>
      <trkpt lat="43.25914" lon="6.17622">
        <ele>84</ele>
        <time>2024-09-25T15:01:21.000Z</time>
      </trkpt>
      <trkpt lat="43.25907" lon="6.1761">
        <ele>85</ele>
        <time>2024-09-25T15:01:33.000Z</time>
      </trkpt>
      <trkpt lat="43.25897" lon="6.17597">
        <ele>83</ele>
        <time>2024-09-25T15:01:49.000Z</time>
      </trkpt>
      <trkpt lat="43.25896" lon="6.17596">
        <ele>83</ele>
        <time>2024-09-25T15:01:51.000Z</time>
      </trkpt>
      <trkpt lat="43.25894" lon="6.17594">
        <ele>83</ele>
        <time>2024-09-25T15:01:55.000Z</time>
      </trkpt>
      <trkpt lat="43.25891" lon="6.17592">
        <ele>82</ele>
        <time>2024-09-25T15:01:59.000Z</time>
      </trkpt>
      <trkpt lat="43.25889" lon="6.17592">
        <ele>82</ele>
        <time>2024-09-25T15:02:03.000Z</time>
      </trkpt>
      <trkpt lat="43.25887" lon="6.1759">
        <ele>82</ele>
        <time>2024-09-25T15:02:09.000Z</time>
      </trkpt>
      <trkpt lat="43.25882" lon="6.17584">
        <ele>83</ele>
        <time>2024-09-25T15:02:17.000Z</time>
      </trkpt>
      <trkpt lat="43.25878" lon="6.17578">
        <ele>85</ele>
        <time>2024-09-25T15:02:25.000Z</time>
      </trkpt>
      <trkpt lat="43.25878" lon="6.17575">
        <ele>86</ele>
        <time>2024-09-25T15:02:27.000Z</time>
      </trkpt>
      <trkpt lat="43.25879" lon="6.17573">
        <ele>86</ele>
        <time>2024-09-25T15:02:31.000Z</time>
      </trkpt>
      <trkpt lat="43.25877" lon="6.1757">
        <ele>86</ele>
        <time>2024-09-25T15:02:35.000Z</time>
      </trkpt>
      <trkpt lat="43.25875" lon="6.1757">
        <ele>86</ele>
        <time>2024-09-25T15:02:37.000Z</time>
      </trkpt>
      <trkpt lat="43.25873" lon="6.17568">
        <ele>86</ele>
        <time>2024-09-25T15:02:39.000Z</time>
      </trkpt>
      <trkpt lat="43.25871" lon="6.17566">
        <ele>86</ele>
        <time>2024-09-25T15:02:41.000Z</time>
      </trkpt>
      <trkpt lat="43.25869" lon="6.17565">
        <ele>86</ele>
        <time>2024-09-25T15:02:43.000Z</time>
      </trkpt>
      <trkpt lat="43.25867" lon="6.17563">
        <ele>86</ele>
        <time>2024-09-25T15:02:45.000Z</time>
      </trkpt>
      <trkpt lat="43.25865" lon="6.17561">
        <ele>86</ele>
        <time>2024-09-25T15:02:47.000Z</time>
      </trkpt>
      <trkpt lat="43.25863" lon="6.17557">
        <ele>85</ele>
        <time>2024-09-25T15:02:49.000Z</time>
      </trkpt>
      <trkpt lat="43.25859" lon="6.17554">
        <ele>84</ele>
        <time>2024-09-25T15:02:53.000Z</time>
      </trkpt>
      <trkpt lat="43.25852" lon="6.17546">
        <ele>83</ele>
        <time>2024-09-25T15:03:01.000Z</time>
      </trkpt>
      <trkpt lat="43.2585" lon="6.17544">
        <ele>83</ele>
        <time>2024-09-25T15:03:03.000Z</time>
      </trkpt>
      <trkpt lat="43.25845" lon="6.1754">
        <ele>82</ele>
        <time>2024-09-25T15:03:07.000Z</time>
      </trkpt>
      <trkpt lat="43.2584" lon="6.17536">
        <ele>83</ele>
        <time>2024-09-25T15:03:11.000Z</time>
      </trkpt>
      <trkpt lat="43.25838" lon="6.17535">
        <ele>83</ele>
        <time>2024-09-25T15:03:13.000Z</time>
      </trkpt>
      <trkpt lat="43.25835" lon="6.17532">
        <ele>84</ele>
        <time>2024-09-25T15:03:15.000Z</time>
      </trkpt>
      <trkpt lat="43.25833" lon="6.17529">
        <ele>84</ele>
        <time>2024-09-25T15:03:17.000Z</time>
      </trkpt>
      <trkpt lat="43.25831" lon="6.17527">
        <ele>85</ele>
        <time>2024-09-25T15:03:19.000Z</time>
      </trkpt>
      <trkpt lat="43.25829" lon="6.17527">
        <ele>85</ele>
        <time>2024-09-25T15:03:21.000Z</time>
      </trkpt>
      <trkpt lat="43.25825" lon="6.17523">
        <ele>85</ele>
        <time>2024-09-25T15:03:25.000Z</time>
      </trkpt>
      <trkpt lat="43.25823" lon="6.1752">
        <ele>85</ele>
        <time>2024-09-25T15:03:27.000Z</time>
      </trkpt>
      <trkpt lat="43.25821" lon="6.17517">
        <ele>85</ele>
        <time>2024-09-25T15:03:29.000Z</time>
      </trkpt>
      <trkpt lat="43.25814" lon="6.17507">
        <ele>83</ele>
        <time>2024-09-25T15:03:37.000Z</time>
      </trkpt>
      <trkpt lat="43.25811" lon="6.17505">
        <ele>82</ele>
        <time>2024-09-25T15:03:39.000Z</time>
      </trkpt>
      <trkpt lat="43.2581" lon="6.17504">
        <ele>81</ele>
        <time>2024-09-25T15:03:41.000Z</time>
      </trkpt>
      <trkpt lat="43.25806" lon="6.17498">
        <ele>81</ele>
        <time>2024-09-25T15:03:45.000Z</time>
      </trkpt>
      <trkpt lat="43.25805" lon="6.17495">
        <ele>82</ele>
        <time>2024-09-25T15:03:47.000Z</time>
      </trkpt>
      <trkpt lat="43.25803" lon="6.17494">
        <ele>82</ele>
        <time>2024-09-25T15:03:49.000Z</time>
      </trkpt>
      <trkpt lat="43.25801" lon="6.17491">
        <ele>83</ele>
        <time>2024-09-25T15:03:51.000Z</time>
      </trkpt>
      <trkpt lat="43.258" lon="6.17489">
        <ele>83</ele>
        <time>2024-09-25T15:03:53.000Z</time>
      </trkpt>
      <trkpt lat="43.25795" lon="6.17483">
        <ele>84</ele>
        <time>2024-09-25T15:03:57.000Z</time>
      </trkpt>
      <trkpt lat="43.25794" lon="6.1748">
        <ele>84</ele>
        <time>2024-09-25T15:03:59.000Z</time>
      </trkpt>
      <trkpt lat="43.25792" lon="6.17478">
        <ele>84</ele>
        <time>2024-09-25T15:04:03.000Z</time>
      </trkpt>
      <trkpt lat="43.25781" lon="6.17463">
        <ele>83</ele>
        <time>2024-09-25T15:04:15.000Z</time>
      </trkpt>
      <trkpt lat="43.2578" lon="6.17461">
        <ele>83</ele>
        <time>2024-09-25T15:04:17.000Z</time>
      </trkpt>
      <trkpt lat="43.25776" lon="6.17457">
        <ele>84</ele>
        <time>2024-09-25T15:04:21.000Z</time>
      </trkpt>
      <trkpt lat="43.25774" lon="6.17457">
        <ele>84</ele>
        <time>2024-09-25T15:04:23.000Z</time>
      </trkpt>
      <trkpt lat="43.25773" lon="6.17453">
        <ele>84</ele>
        <time>2024-09-25T15:04:25.000Z</time>
      </trkpt>
      <trkpt lat="43.25766" lon="6.17447">
        <ele>84</ele>
        <time>2024-09-25T15:04:31.000Z</time>
      </trkpt>
      <trkpt lat="43.25763" lon="6.17444">
        <ele>84</ele>
        <time>2024-09-25T15:04:35.000Z</time>
      </trkpt>
      <trkpt lat="43.25759" lon="6.17441">
        <ele>84</ele>
        <time>2024-09-25T15:04:39.000Z</time>
      </trkpt>
      <trkpt lat="43.25756" lon="6.1744">
        <ele>84</ele>
        <time>2024-09-25T15:04:41.000Z</time>
      </trkpt>
      <trkpt lat="43.25754" lon="6.17435">
        <ele>83</ele>
        <time>2024-09-25T15:04:45.000Z</time>
      </trkpt>
      <trkpt lat="43.25749" lon="6.17433">
        <ele>83</ele>
        <time>2024-09-25T15:04:49.000Z</time>
      </trkpt>
      <trkpt lat="43.25747" lon="6.17431">
        <ele>83</ele>
        <time>2024-09-25T15:04:51.000Z</time>
      </trkpt>
      <trkpt lat="43.25744" lon="6.1743">
        <ele>83</ele>
        <time>2024-09-25T15:04:53.000Z</time>
      </trkpt>
      <trkpt lat="43.25742" lon="6.17429">
        <ele>83</ele>
        <time>2024-09-25T15:04:55.000Z</time>
      </trkpt>
      <trkpt lat="43.2574" lon="6.17427">
        <ele>83</ele>
        <time>2024-09-25T15:04:57.000Z</time>
      </trkpt>
      <trkpt lat="43.25734" lon="6.17424">
        <ele>85</ele>
        <time>2024-09-25T15:05:03.000Z</time>
      </trkpt>
      <trkpt lat="43.25729" lon="6.17422">
        <ele>85</ele>
        <time>2024-09-25T15:05:07.000Z</time>
      </trkpt>
      <trkpt lat="43.25727" lon="6.17422">
        <ele>85</ele>
        <time>2024-09-25T15:05:09.000Z</time>
      </trkpt>
      <trkpt lat="43.25725" lon="6.17421">
        <ele>85</ele>
        <time>2024-09-25T15:05:11.000Z</time>
      </trkpt>
      <trkpt lat="43.25724" lon="6.1742">
        <ele>85</ele>
        <time>2024-09-25T15:05:13.000Z</time>
      </trkpt>
      <trkpt lat="43.25721" lon="6.17419">
        <ele>85</ele>
        <time>2024-09-25T15:05:15.000Z</time>
      </trkpt>
      <trkpt lat="43.25713" lon="6.17417">
        <ele>85</ele>
        <time>2024-09-25T15:05:21.000Z</time>
      </trkpt>
      <trkpt lat="43.25707" lon="6.17414">
        <ele>85</ele>
        <time>2024-09-25T15:05:25.000Z</time>
      </trkpt>
      <trkpt lat="43.25701" lon="6.17407">
        <ele>84</ele>
        <time>2024-09-25T15:05:31.000Z</time>
      </trkpt>
      <trkpt lat="43.25699" lon="6.17406">
        <ele>83</ele>
        <time>2024-09-25T15:05:33.000Z</time>
      </trkpt>
      <trkpt lat="43.25697" lon="6.17404">
        <ele>83</ele>
        <time>2024-09-25T15:05:35.000Z</time>
      </trkpt>
      <trkpt lat="43.25697" lon="6.17401">
        <ele>82</ele>
        <time>2024-09-25T15:05:37.000Z</time>
      </trkpt>
      <trkpt lat="43.25696" lon="6.17398">
        <ele>82</ele>
        <time>2024-09-25T15:05:39.000Z</time>
      </trkpt>
      <trkpt lat="43.25695" lon="6.17394">
        <ele>82</ele>
        <time>2024-09-25T15:05:41.000Z</time>
      </trkpt>
      <trkpt lat="43.25694" lon="6.17391">
        <ele>81</ele>
        <time>2024-09-25T15:05:43.000Z</time>
      </trkpt>
      <trkpt lat="43.25692" lon="6.17389">
        <ele>81</ele>
        <time>2024-09-25T15:05:45.000Z</time>
      </trkpt>
      <trkpt lat="43.25682" lon="6.17381">
        <ele>82</ele>
        <time>2024-09-25T15:05:55.000Z</time>
      </trkpt>
      <trkpt lat="43.25678" lon="6.17378">
        <ele>81</ele>
        <time>2024-09-25T15:05:59.000Z</time>
      </trkpt>
      <trkpt lat="43.25676" lon="6.17377">
        <ele>81</ele>
        <time>2024-09-25T15:06:01.000Z</time>
      </trkpt>
      <trkpt lat="43.25675" lon="6.17375">
        <ele>81</ele>
        <time>2024-09-25T15:06:03.000Z</time>
      </trkpt>
      <trkpt lat="43.25673" lon="6.17374">
        <ele>81</ele>
        <time>2024-09-25T15:06:05.000Z</time>
      </trkpt>
      <trkpt lat="43.2567" lon="6.17373">
        <ele>81</ele>
        <time>2024-09-25T15:06:07.000Z</time>
      </trkpt>
      <trkpt lat="43.25669" lon="6.17372">
        <ele>81</ele>
        <time>2024-09-25T15:06:09.000Z</time>
      </trkpt>
      <trkpt lat="43.25662" lon="6.17368">
        <ele>82</ele>
        <time>2024-09-25T15:06:15.000Z</time>
      </trkpt>
      <trkpt lat="43.25646" lon="6.17359">
        <ele>83</ele>
        <time>2024-09-25T15:06:29.000Z</time>
      </trkpt>
      <trkpt lat="43.25644" lon="6.17359">
        <ele>83</ele>
        <time>2024-09-25T15:06:31.000Z</time>
      </trkpt>
      <trkpt lat="43.25635" lon="6.17361">
        <ele>82</ele>
        <time>2024-09-25T15:06:39.000Z</time>
      </trkpt>
      <trkpt lat="43.25632" lon="6.17359">
        <ele>82</ele>
        <time>2024-09-25T15:06:43.000Z</time>
      </trkpt>
      <trkpt lat="43.25629" lon="6.17358">
        <ele>82</ele>
        <time>2024-09-25T15:06:45.000Z</time>
      </trkpt>
      <trkpt lat="43.25627" lon="6.17356">
        <ele>82</ele>
        <time>2024-09-25T15:06:47.000Z</time>
      </trkpt>
      <trkpt lat="43.25623" lon="6.17355">
        <ele>82</ele>
        <time>2024-09-25T15:06:51.000Z</time>
      </trkpt>
      <trkpt lat="43.25621" lon="6.17354">
        <ele>82</ele>
        <time>2024-09-25T15:06:53.000Z</time>
      </trkpt>
      <trkpt lat="43.25618" lon="6.17353">
        <ele>83</ele>
        <time>2024-09-25T15:06:55.000Z</time>
      </trkpt>
      <trkpt lat="43.25616" lon="6.17352">
        <ele>83</ele>
        <time>2024-09-25T15:06:57.000Z</time>
      </trkpt>
      <trkpt lat="43.25614" lon="6.1735">
        <ele>83</ele>
        <time>2024-09-25T15:06:59.000Z</time>
      </trkpt>
      <trkpt lat="43.25612" lon="6.17348">
        <ele>83</ele>
        <time>2024-09-25T15:07:01.000Z</time>
      </trkpt>
      <trkpt lat="43.2561" lon="6.17347">
        <ele>84</ele>
        <time>2024-09-25T15:07:03.000Z</time>
      </trkpt>
      <trkpt lat="43.25609" lon="6.17344">
        <ele>85</ele>
        <time>2024-09-25T15:07:05.000Z</time>
      </trkpt>
      <trkpt lat="43.25607" lon="6.17343">
        <ele>85</ele>
        <time>2024-09-25T15:07:07.000Z</time>
      </trkpt>
      <trkpt lat="43.25606" lon="6.17341">
        <ele>85</ele>
        <time>2024-09-25T15:07:09.000Z</time>
      </trkpt>
      <trkpt lat="43.25604" lon="6.17339">
        <ele>85</ele>
        <time>2024-09-25T15:07:11.000Z</time>
      </trkpt>
      <trkpt lat="43.25601" lon="6.17336">
        <ele>85</ele>
        <time>2024-09-25T15:07:13.000Z</time>
      </trkpt>
      <trkpt lat="43.25599" lon="6.17335">
        <ele>85</ele>
        <time>2024-09-25T15:07:15.000Z</time>
      </trkpt>
      <trkpt lat="43.25596" lon="6.17333">
        <ele>85</ele>
        <time>2024-09-25T15:07:17.000Z</time>
      </trkpt>
      <trkpt lat="43.25593" lon="6.17334">
        <ele>86</ele>
        <time>2024-09-25T15:07:21.000Z</time>
      </trkpt>
      <trkpt lat="43.25591" lon="6.17333">
        <ele>87</ele>
        <time>2024-09-25T15:07:25.000Z</time>
      </trkpt>
      <trkpt lat="43.25586" lon="6.17328">
        <ele>88</ele>
        <time>2024-09-25T15:07:31.000Z</time>
      </trkpt>
      <trkpt lat="43.25585" lon="6.17327">
        <ele>88</ele>
        <time>2024-09-25T15:07:33.000Z</time>
      </trkpt>
      <trkpt lat="43.25583" lon="6.17327">
        <ele>88</ele>
        <time>2024-09-25T15:07:35.000Z</time>
      </trkpt>
      <trkpt lat="43.25582" lon="6.17325">
        <ele>88</ele>
        <time>2024-09-25T15:07:37.000Z</time>
      </trkpt>
      <trkpt lat="43.25577" lon="6.17322">
        <ele>87</ele>
        <time>2024-09-25T15:07:41.000Z</time>
      </trkpt>
      <trkpt lat="43.25575" lon="6.17321">
        <ele>86</ele>
        <time>2024-09-25T15:07:43.000Z</time>
      </trkpt>
      <trkpt lat="43.25573" lon="6.17319">
        <ele>86</ele>
        <time>2024-09-25T15:07:45.000Z</time>
      </trkpt>
      <trkpt lat="43.25571" lon="6.17318">
        <ele>86</ele>
        <time>2024-09-25T15:07:47.000Z</time>
      </trkpt>
      <trkpt lat="43.25566" lon="6.17316">
        <ele>86</ele>
        <time>2024-09-25T15:07:51.000Z</time>
      </trkpt>
      <trkpt lat="43.25563" lon="6.17313">
        <ele>85</ele>
        <time>2024-09-25T15:07:55.000Z</time>
      </trkpt>
      <trkpt lat="43.25561" lon="6.17311">
        <ele>84</ele>
        <time>2024-09-25T15:07:59.000Z</time>
      </trkpt>
      <trkpt lat="43.2556" lon="6.17308">
        <ele>83</ele>
        <time>2024-09-25T15:08:03.000Z</time>
      </trkpt>
      <trkpt lat="43.2556" lon="6.17304">
        <ele>82</ele>
        <time>2024-09-25T15:08:07.000Z</time>
      </trkpt>
      <trkpt lat="43.2556" lon="6.17301">
        <ele>82</ele>
        <time>2024-09-25T15:08:09.000Z</time>
      </trkpt>
      <trkpt lat="43.25561" lon="6.17299">
        <ele>82</ele>
        <time>2024-09-25T15:08:11.000Z</time>
      </trkpt>
      <trkpt lat="43.25562" lon="6.17293">
        <ele>83</ele>
        <time>2024-09-25T15:08:25.000Z</time>
      </trkpt>
      <trkpt lat="43.25563" lon="6.1729">
        <ele>85</ele>
        <time>2024-09-25T15:09:31.000Z</time>
      </trkpt>
      <trkpt lat="43.25562" lon="6.17286">
        <ele>86</ele>
        <time>2024-09-25T15:09:35.000Z</time>
      </trkpt>
      <trkpt lat="43.25564" lon="6.17295">
        <ele>86</ele>
        <time>2024-09-25T15:09:49.000Z</time>
      </trkpt>
      <trkpt lat="43.25562" lon="6.173">
        <ele>86</ele>
        <time>2024-09-25T15:09:51.000Z</time>
      </trkpt>
      <trkpt lat="43.25562" lon="6.17304">
        <ele>86</ele>
        <time>2024-09-25T15:09:53.000Z</time>
      </trkpt>
      <trkpt lat="43.25561" lon="6.17304">
        <ele>86</ele>
        <time>2024-09-25T15:09:55.000Z</time>
      </trkpt>
      <trkpt lat="43.2556" lon="6.17297">
        <ele>86</ele>
        <time>2024-09-25T15:10:05.000Z</time>
      </trkpt>
      <trkpt lat="43.25562" lon="6.17294">
        <ele>86</ele>
        <time>2024-09-25T15:10:09.000Z</time>
      </trkpt>
      <trkpt lat="43.25571" lon="6.17299">
        <ele>86</ele>
        <time>2024-09-25T15:10:31.000Z</time>
      </trkpt>
      <trkpt lat="43.25569" lon="6.17308">
        <ele>85</ele>
        <time>2024-09-25T15:10:41.000Z</time>
      </trkpt>
      <trkpt lat="43.25566" lon="6.17311">
        <ele>85</ele>
        <time>2024-09-25T15:10:45.000Z</time>
      </trkpt>
      <trkpt lat="43.25564" lon="6.1731">
        <ele>84</ele>
        <time>2024-09-25T15:10:49.000Z</time>
      </trkpt>
      <trkpt lat="43.25557" lon="6.17309">
        <ele>83</ele>
        <time>2024-09-25T15:10:57.000Z</time>
      </trkpt>
      <trkpt lat="43.25553" lon="6.17309">
        <ele>82</ele>
        <time>2024-09-25T15:11:01.000Z</time>
      </trkpt>
      <trkpt lat="43.25547" lon="6.17305">
        <ele>82</ele>
        <time>2024-09-25T15:11:11.000Z</time>
      </trkpt>
      <trkpt lat="43.25545" lon="6.17306">
        <ele>83</ele>
        <time>2024-09-25T15:11:13.000Z</time>
      </trkpt>
      <trkpt lat="43.25542" lon="6.17305">
        <ele>83</ele>
        <time>2024-09-25T15:11:17.000Z</time>
      </trkpt>
      <trkpt lat="43.25539" lon="6.17303">
        <ele>85</ele>
        <time>2024-09-25T15:11:21.000Z</time>
      </trkpt>
      <trkpt lat="43.25538" lon="6.17301">
        <ele>85</ele>
        <time>2024-09-25T15:11:23.000Z</time>
      </trkpt>
      <trkpt lat="43.25535" lon="6.17293">
        <ele>86</ele>
        <time>2024-09-25T15:11:31.000Z</time>
      </trkpt>
      <trkpt lat="43.25532" lon="6.17289">
        <ele>86</ele>
        <time>2024-09-25T15:11:37.000Z</time>
      </trkpt>
      <trkpt lat="43.2553" lon="6.17288">
        <ele>86</ele>
        <time>2024-09-25T15:11:39.000Z</time>
      </trkpt>
      <trkpt lat="43.25528" lon="6.17284">
        <ele>86</ele>
        <time>2024-09-25T15:11:43.000Z</time>
      </trkpt>
      <trkpt lat="43.25527" lon="6.1728">
        <ele>86</ele>
        <time>2024-09-25T15:11:47.000Z</time>
      </trkpt>
      <trkpt lat="43.25526" lon="6.17277">
        <ele>86</ele>
        <time>2024-09-25T15:11:49.000Z</time>
      </trkpt>
      <trkpt lat="43.25525" lon="6.17274">
        <ele>86</ele>
        <time>2024-09-25T15:11:51.000Z</time>
      </trkpt>
      <trkpt lat="43.25523" lon="6.17272">
        <ele>85</ele>
        <time>2024-09-25T15:11:55.000Z</time>
      </trkpt>
      <trkpt lat="43.25515" lon="6.17266">
        <ele>85</ele>
        <time>2024-09-25T15:12:03.000Z</time>
      </trkpt>
      <trkpt lat="43.25514" lon="6.17263">
        <ele>84</ele>
        <time>2024-09-25T15:12:05.000Z</time>
      </trkpt>
      <trkpt lat="43.25512" lon="6.17261">
        <ele>84</ele>
        <time>2024-09-25T15:12:07.000Z</time>
      </trkpt>
      <trkpt lat="43.25509" lon="6.17259">
        <ele>83</ele>
        <time>2024-09-25T15:12:11.000Z</time>
      </trkpt>
      <trkpt lat="43.25504" lon="6.17255">
        <ele>83</ele>
        <time>2024-09-25T15:12:15.000Z</time>
      </trkpt>
      <trkpt lat="43.255" lon="6.1725">
        <ele>83</ele>
        <time>2024-09-25T15:12:19.000Z</time>
      </trkpt>
      <trkpt lat="43.25495" lon="6.17245">
        <ele>83</ele>
        <time>2024-09-25T15:12:25.000Z</time>
      </trkpt>
      <trkpt lat="43.25491" lon="6.1724">
        <ele>83</ele>
        <time>2024-09-25T15:12:31.000Z</time>
      </trkpt>
      <trkpt lat="43.25488" lon="6.17238">
        <ele>82</ele>
        <time>2024-09-25T15:12:33.000Z</time>
      </trkpt>
      <trkpt lat="43.25484" lon="6.17235">
        <ele>82</ele>
        <time>2024-09-25T15:12:37.000Z</time>
      </trkpt>
      <trkpt lat="43.25482" lon="6.17234">
        <ele>82</ele>
        <time>2024-09-25T15:12:39.000Z</time>
      </trkpt>
      <trkpt lat="43.25475" lon="6.17228">
        <ele>81</ele>
        <time>2024-09-25T15:12:45.000Z</time>
      </trkpt>
      <trkpt lat="43.25473" lon="6.17228">
        <ele>81</ele>
        <time>2024-09-25T15:12:47.000Z</time>
      </trkpt>
      <trkpt lat="43.25472" lon="6.17226">
        <ele>81</ele>
        <time>2024-09-25T15:12:49.000Z</time>
      </trkpt>
      <trkpt lat="43.2547" lon="6.17224">
        <ele>81</ele>
        <time>2024-09-25T15:12:51.000Z</time>
      </trkpt>
      <trkpt lat="43.25468" lon="6.17223">
        <ele>81</ele>
        <time>2024-09-25T15:12:53.000Z</time>
      </trkpt>
      <trkpt lat="43.25466" lon="6.17222">
        <ele>81</ele>
        <time>2024-09-25T15:12:55.000Z</time>
      </trkpt>
      <trkpt lat="43.25459" lon="6.17218">
        <ele>81</ele>
        <time>2024-09-25T15:13:03.000Z</time>
      </trkpt>
      <trkpt lat="43.25451" lon="6.17218">
        <ele>80</ele>
        <time>2024-09-25T15:13:09.000Z</time>
      </trkpt>
      <trkpt lat="43.25449" lon="6.17218">
        <ele>80</ele>
        <time>2024-09-25T15:13:11.000Z</time>
      </trkpt>
      <trkpt lat="43.25442" lon="6.17214">
        <ele>78</ele>
        <time>2024-09-25T15:13:17.000Z</time>
      </trkpt>
      <trkpt lat="43.25439" lon="6.17213">
        <ele>78</ele>
        <time>2024-09-25T15:13:19.000Z</time>
      </trkpt>
      <trkpt lat="43.25437" lon="6.17212">
        <ele>78</ele>
        <time>2024-09-25T15:13:21.000Z</time>
      </trkpt>
      <trkpt lat="43.25436" lon="6.17211">
        <ele>78</ele>
        <time>2024-09-25T15:13:23.000Z</time>
      </trkpt>
      <trkpt lat="43.2543" lon="6.17207">
        <ele>77</ele>
        <time>2024-09-25T15:13:27.000Z</time>
      </trkpt>
      <trkpt lat="43.25421" lon="6.17204">
        <ele>76</ele>
        <time>2024-09-25T15:13:35.000Z</time>
      </trkpt>
      <trkpt lat="43.25418" lon="6.17203">
        <ele>76</ele>
        <time>2024-09-25T15:13:37.000Z</time>
      </trkpt>
      <trkpt lat="43.25415" lon="6.17202">
        <ele>77</ele>
        <time>2024-09-25T15:13:39.000Z</time>
      </trkpt>
      <trkpt lat="43.25414" lon="6.172">
        <ele>77</ele>
        <time>2024-09-25T15:13:41.000Z</time>
      </trkpt>
      <trkpt lat="43.2541" lon="6.17198">
        <ele>77</ele>
        <time>2024-09-25T15:13:45.000Z</time>
      </trkpt>
      <trkpt lat="43.25407" lon="6.17197">
        <ele>77</ele>
        <time>2024-09-25T15:13:47.000Z</time>
      </trkpt>
      <trkpt lat="43.25404" lon="6.17196">
        <ele>78</ele>
        <time>2024-09-25T15:13:49.000Z</time>
      </trkpt>
      <trkpt lat="43.25402" lon="6.17194">
        <ele>78</ele>
        <time>2024-09-25T15:13:51.000Z</time>
      </trkpt>
      <trkpt lat="43.25397" lon="6.17191">
        <ele>78</ele>
        <time>2024-09-25T15:13:55.000Z</time>
      </trkpt>
      <trkpt lat="43.25395" lon="6.1719">
        <ele>78</ele>
        <time>2024-09-25T15:13:57.000Z</time>
      </trkpt>
      <trkpt lat="43.25387" lon="6.17187">
        <ele>77</ele>
        <time>2024-09-25T15:14:05.000Z</time>
      </trkpt>
      <trkpt lat="43.25386" lon="6.17186">
        <ele>76</ele>
        <time>2024-09-25T15:14:07.000Z</time>
      </trkpt>
      <trkpt lat="43.25383" lon="6.17184">
        <ele>76</ele>
        <time>2024-09-25T15:14:09.000Z</time>
      </trkpt>
      <trkpt lat="43.25378" lon="6.17181">
        <ele>76</ele>
        <time>2024-09-25T15:14:13.000Z</time>
      </trkpt>
      <trkpt lat="43.25376" lon="6.17179">
        <ele>77</ele>
        <time>2024-09-25T15:14:15.000Z</time>
      </trkpt>
      <trkpt lat="43.25375" lon="6.17178">
        <ele>77</ele>
        <time>2024-09-25T15:14:17.000Z</time>
      </trkpt>
      <trkpt lat="43.2537" lon="6.17178">
        <ele>77</ele>
        <time>2024-09-25T15:14:21.000Z</time>
      </trkpt>
      <trkpt lat="43.25368" lon="6.17176">
        <ele>78</ele>
        <time>2024-09-25T15:14:23.000Z</time>
      </trkpt>
      <trkpt lat="43.25367" lon="6.17173">
        <ele>78</ele>
        <time>2024-09-25T15:14:25.000Z</time>
      </trkpt>
      <trkpt lat="43.25366" lon="6.17172">
        <ele>80</ele>
        <time>2024-09-25T15:14:29.000Z</time>
      </trkpt>
      <trkpt lat="43.2536" lon="6.17176">
        <ele>83</ele>
        <time>2024-09-25T15:14:43.000Z</time>
      </trkpt>
      <trkpt lat="43.25358" lon="6.17179">
        <ele>84</ele>
        <time>2024-09-25T15:14:47.000Z</time>
      </trkpt>
      <trkpt lat="43.25356" lon="6.17182">
        <ele>84</ele>
        <time>2024-09-25T15:14:51.000Z</time>
      </trkpt>
      <trkpt lat="43.25353" lon="6.17184">
        <ele>83</ele>
        <time>2024-09-25T15:14:55.000Z</time>
      </trkpt>
      <trkpt lat="43.25351" lon="6.17184">
        <ele>82</ele>
        <time>2024-09-25T15:14:57.000Z</time>
      </trkpt>
      <trkpt lat="43.25348" lon="6.17184">
        <ele>82</ele>
        <time>2024-09-25T15:14:59.000Z</time>
      </trkpt>
      <trkpt lat="43.25339" lon="6.17182">
        <ele>79</ele>
        <time>2024-09-25T15:15:07.000Z</time>
      </trkpt>
      <trkpt lat="43.25337" lon="6.17183">
        <ele>79</ele>
        <time>2024-09-25T15:15:09.000Z</time>
      </trkpt>
      <trkpt lat="43.25335" lon="6.17184">
        <ele>79</ele>
        <time>2024-09-25T15:15:11.000Z</time>
      </trkpt>
      <trkpt lat="43.25332" lon="6.17184">
        <ele>79</ele>
        <time>2024-09-25T15:15:13.000Z</time>
      </trkpt>
      <trkpt lat="43.25325" lon="6.17183">
        <ele>79</ele>
        <time>2024-09-25T15:15:19.000Z</time>
      </trkpt>
      <trkpt lat="43.25322" lon="6.17185">
        <ele>79</ele>
        <time>2024-09-25T15:15:23.000Z</time>
      </trkpt>
      <trkpt lat="43.25319" lon="6.17187">
        <ele>79</ele>
        <time>2024-09-25T15:15:25.000Z</time>
      </trkpt>
      <trkpt lat="43.25317" lon="6.17191">
        <ele>79</ele>
        <time>2024-09-25T15:15:29.000Z</time>
      </trkpt>
      <trkpt lat="43.25316" lon="6.17191">
        <ele>80</ele>
        <time>2024-09-25T15:15:31.000Z</time>
      </trkpt>
      <trkpt lat="43.2531" lon="6.17191">
        <ele>80</ele>
        <time>2024-09-25T15:15:35.000Z</time>
      </trkpt>
      <trkpt lat="43.25305" lon="6.17192">
        <ele>81</ele>
        <time>2024-09-25T15:15:39.000Z</time>
      </trkpt>
      <trkpt lat="43.25303" lon="6.17191">
        <ele>81</ele>
        <time>2024-09-25T15:15:41.000Z</time>
      </trkpt>
      <trkpt lat="43.25301" lon="6.17191">
        <ele>82</ele>
        <time>2024-09-25T15:15:43.000Z</time>
      </trkpt>
      <trkpt lat="43.25292" lon="6.17194">
        <ele>81</ele>
        <time>2024-09-25T15:15:49.000Z</time>
      </trkpt>
      <trkpt lat="43.2529" lon="6.17193">
        <ele>81</ele>
        <time>2024-09-25T15:15:51.000Z</time>
      </trkpt>
      <trkpt lat="43.25284" lon="6.17192">
        <ele>81</ele>
        <time>2024-09-25T15:15:55.000Z</time>
      </trkpt>
      <trkpt lat="43.25281" lon="6.17193">
        <ele>81</ele>
        <time>2024-09-25T15:15:57.000Z</time>
      </trkpt>
      <trkpt lat="43.25279" lon="6.17194">
        <ele>81</ele>
        <time>2024-09-25T15:15:59.000Z</time>
      </trkpt>
      <trkpt lat="43.2527" lon="6.17196">
        <ele>82</ele>
        <time>2024-09-25T15:16:07.000Z</time>
      </trkpt>
      <trkpt lat="43.25267" lon="6.17197">
        <ele>84</ele>
        <time>2024-09-25T15:16:11.000Z</time>
      </trkpt>
      <trkpt lat="43.25264" lon="6.17198">
        <ele>85</ele>
        <time>2024-09-25T15:16:13.000Z</time>
      </trkpt>
      <trkpt lat="43.25262" lon="6.17199">
        <ele>85</ele>
        <time>2024-09-25T15:16:15.000Z</time>
      </trkpt>
      <trkpt lat="43.25259" lon="6.17199">
        <ele>86</ele>
        <time>2024-09-25T15:16:17.000Z</time>
      </trkpt>
      <trkpt lat="43.25243" lon="6.17205">
        <ele>85</ele>
        <time>2024-09-25T15:16:31.000Z</time>
      </trkpt>
      <trkpt lat="43.25236" lon="6.17209">
        <ele>83</ele>
        <time>2024-09-25T15:16:37.000Z</time>
      </trkpt>
      <trkpt lat="43.25231" lon="6.17213">
        <ele>82</ele>
        <time>2024-09-25T15:16:41.000Z</time>
      </trkpt>
      <trkpt lat="43.25205" lon="6.17227">
        <ele>79</ele>
        <time>2024-09-25T15:17:03.000Z</time>
      </trkpt>
      <trkpt lat="43.25202" lon="6.1723">
        <ele>79</ele>
        <time>2024-09-25T15:17:05.000Z</time>
      </trkpt>
      <trkpt lat="43.252" lon="6.17231">
        <ele>79</ele>
        <time>2024-09-25T15:17:07.000Z</time>
      </trkpt>
      <trkpt lat="43.25198" lon="6.17231">
        <ele>79</ele>
        <time>2024-09-25T15:17:09.000Z</time>
      </trkpt>
      <trkpt lat="43.25195" lon="6.17232">
        <ele>79</ele>
        <time>2024-09-25T15:17:11.000Z</time>
      </trkpt>
      <trkpt lat="43.25185" lon="6.17236">
        <ele>79</ele>
        <time>2024-09-25T15:17:19.000Z</time>
      </trkpt>
      <trkpt lat="43.25181" lon="6.17241">
        <ele>80</ele>
        <time>2024-09-25T15:17:25.000Z</time>
      </trkpt>
      <trkpt lat="43.25178" lon="6.17242">
        <ele>80</ele>
        <time>2024-09-25T15:17:27.000Z</time>
      </trkpt>
      <trkpt lat="43.25175" lon="6.17242">
        <ele>80</ele>
        <time>2024-09-25T15:17:29.000Z</time>
      </trkpt>
      <trkpt lat="43.25174" lon="6.17244">
        <ele>81</ele>
        <time>2024-09-25T15:17:31.000Z</time>
      </trkpt>
      <trkpt lat="43.25165" lon="6.17249">
        <ele>81</ele>
        <time>2024-09-25T15:17:39.000Z</time>
      </trkpt>
      <trkpt lat="43.25163" lon="6.17249">
        <ele>81</ele>
        <time>2024-09-25T15:17:41.000Z</time>
      </trkpt>
      <trkpt lat="43.25161" lon="6.1725">
        <ele>81</ele>
        <time>2024-09-25T15:17:43.000Z</time>
      </trkpt>
      <trkpt lat="43.25156" lon="6.17251">
        <ele>82</ele>
        <time>2024-09-25T15:17:47.000Z</time>
      </trkpt>
      <trkpt lat="43.25154" lon="6.17251">
        <ele>82</ele>
        <time>2024-09-25T15:17:49.000Z</time>
      </trkpt>
      <trkpt lat="43.25152" lon="6.17252">
        <ele>82</ele>
        <time>2024-09-25T15:17:51.000Z</time>
      </trkpt>
      <trkpt lat="43.25149" lon="6.17253">
        <ele>82</ele>
        <time>2024-09-25T15:17:53.000Z</time>
      </trkpt>
      <trkpt lat="43.25139" lon="6.17254">
        <ele>83</ele>
        <time>2024-09-25T15:18:01.000Z</time>
      </trkpt>
      <trkpt lat="43.25136" lon="6.17256">
        <ele>83</ele>
        <time>2024-09-25T15:18:03.000Z</time>
      </trkpt>
      <trkpt lat="43.25133" lon="6.17259">
        <ele>84</ele>
        <time>2024-09-25T15:18:07.000Z</time>
      </trkpt>
      <trkpt lat="43.25131" lon="6.17258">
        <ele>84</ele>
        <time>2024-09-25T15:18:09.000Z</time>
      </trkpt>
      <trkpt lat="43.25128" lon="6.17259">
        <ele>84</ele>
        <time>2024-09-25T15:18:11.000Z</time>
      </trkpt>
      <trkpt lat="43.25125" lon="6.17261">
        <ele>84</ele>
        <time>2024-09-25T15:18:13.000Z</time>
      </trkpt>
      <trkpt lat="43.25123" lon="6.17261">
        <ele>84</ele>
        <time>2024-09-25T15:18:15.000Z</time>
      </trkpt>
      <trkpt lat="43.25114" lon="6.17263">
        <ele>85</ele>
        <time>2024-09-25T15:18:23.000Z</time>
      </trkpt>
      <trkpt lat="43.25112" lon="6.17264">
        <ele>86</ele>
        <time>2024-09-25T15:18:25.000Z</time>
      </trkpt>
      <trkpt lat="43.25109" lon="6.17266">
        <ele>85</ele>
        <time>2024-09-25T15:18:27.000Z</time>
      </trkpt>
      <trkpt lat="43.25106" lon="6.17267">
        <ele>85</ele>
        <time>2024-09-25T15:18:31.000Z</time>
      </trkpt>
      <trkpt lat="43.25104" lon="6.17268">
        <ele>85</ele>
        <time>2024-09-25T15:18:33.000Z</time>
      </trkpt>
      <trkpt lat="43.25093" lon="6.17274">
        <ele>81</ele>
        <time>2024-09-25T15:18:45.000Z</time>
      </trkpt>
      <trkpt lat="43.2509" lon="6.17275">
        <ele>82</ele>
        <time>2024-09-25T15:18:47.000Z</time>
      </trkpt>
      <trkpt lat="43.25088" lon="6.17275">
        <ele>82</ele>
        <time>2024-09-25T15:18:49.000Z</time>
      </trkpt>
      <trkpt lat="43.25083" lon="6.17275">
        <ele>83</ele>
        <time>2024-09-25T15:18:53.000Z</time>
      </trkpt>
      <trkpt lat="43.2508" lon="6.17276">
        <ele>83</ele>
        <time>2024-09-25T15:18:55.000Z</time>
      </trkpt>
      <trkpt lat="43.25078" lon="6.17277">
        <ele>84</ele>
        <time>2024-09-25T15:18:57.000Z</time>
      </trkpt>
      <trkpt lat="43.25075" lon="6.17278">
        <ele>84</ele>
        <time>2024-09-25T15:18:59.000Z</time>
      </trkpt>
      <trkpt lat="43.25073" lon="6.17279">
        <ele>84</ele>
        <time>2024-09-25T15:19:01.000Z</time>
      </trkpt>
      <trkpt lat="43.25063" lon="6.1728">
        <ele>85</ele>
        <time>2024-09-25T15:19:09.000Z</time>
      </trkpt>
      <trkpt lat="43.25054" lon="6.17284">
        <ele>86</ele>
        <time>2024-09-25T15:19:17.000Z</time>
      </trkpt>
      <trkpt lat="43.25052" lon="6.17287">
        <ele>87</ele>
        <time>2024-09-25T15:19:19.000Z</time>
      </trkpt>
      <trkpt lat="43.2505" lon="6.17288">
        <ele>87</ele>
        <time>2024-09-25T15:19:21.000Z</time>
      </trkpt>
      <trkpt lat="43.25048" lon="6.17289">
        <ele>88</ele>
        <time>2024-09-25T15:19:23.000Z</time>
      </trkpt>
      <trkpt lat="43.25045" lon="6.17291">
        <ele>88</ele>
        <time>2024-09-25T15:19:25.000Z</time>
      </trkpt>
      <trkpt lat="43.25041" lon="6.17296">
        <ele>87</ele>
        <time>2024-09-25T15:19:29.000Z</time>
      </trkpt>
      <trkpt lat="43.2504" lon="6.17299">
        <ele>87</ele>
        <time>2024-09-25T15:19:31.000Z</time>
      </trkpt>
      <trkpt lat="43.2504" lon="6.17301">
        <ele>87</ele>
        <time>2024-09-25T15:19:33.000Z</time>
      </trkpt>
      <trkpt lat="43.25038" lon="6.17314">
        <ele>88</ele>
        <time>2024-09-25T15:19:41.000Z</time>
      </trkpt>
      <trkpt lat="43.25037" lon="6.17318">
        <ele>88</ele>
        <time>2024-09-25T15:19:43.000Z</time>
      </trkpt>
      <trkpt lat="43.25036" lon="6.17328">
        <ele>88</ele>
        <time>2024-09-25T15:19:49.000Z</time>
      </trkpt>
      <trkpt lat="43.25034" lon="6.17337">
        <ele>87</ele>
        <time>2024-09-25T15:19:55.000Z</time>
      </trkpt>
      <trkpt lat="43.25033" lon="6.17341">
        <ele>87</ele>
        <time>2024-09-25T15:19:57.000Z</time>
      </trkpt>
      <trkpt lat="43.25031" lon="6.17345">
        <ele>88</ele>
        <time>2024-09-25T15:20:01.000Z</time>
      </trkpt>
      <trkpt lat="43.25027" lon="6.17359">
        <ele>88</ele>
        <time>2024-09-25T15:20:09.000Z</time>
      </trkpt>
      <trkpt lat="43.25024" lon="6.17369">
        <ele>88</ele>
        <time>2024-09-25T15:20:15.000Z</time>
      </trkpt>
      <trkpt lat="43.25024" lon="6.17376">
        <ele>87</ele>
        <time>2024-09-25T15:20:19.000Z</time>
      </trkpt>
      <trkpt lat="43.25024" lon="6.17381">
        <ele>84</ele>
        <time>2024-09-25T15:20:23.000Z</time>
      </trkpt>
      <trkpt lat="43.25025" lon="6.17385">
        <ele>84</ele>
        <time>2024-09-25T15:20:25.000Z</time>
      </trkpt>
      <trkpt lat="43.25024" lon="6.17387">
        <ele>84</ele>
        <time>2024-09-25T15:20:27.000Z</time>
      </trkpt>
      <trkpt lat="43.25024" lon="6.1739">
        <ele>84</ele>
        <time>2024-09-25T15:20:29.000Z</time>
      </trkpt>
      <trkpt lat="43.25023" lon="6.17392">
        <ele>84</ele>
        <time>2024-09-25T15:20:31.000Z</time>
      </trkpt>
      <trkpt lat="43.25023" lon="6.174">
        <ele>83</ele>
        <time>2024-09-25T15:20:35.000Z</time>
      </trkpt>
      <trkpt lat="43.25022" lon="6.17403">
        <ele>83</ele>
        <time>2024-09-25T15:20:37.000Z</time>
      </trkpt>
      <trkpt lat="43.25018" lon="6.17404">
        <ele>83</ele>
        <time>2024-09-25T15:20:41.000Z</time>
      </trkpt>
      <trkpt lat="43.25012" lon="6.17408">
        <ele>83</ele>
        <time>2024-09-25T15:20:45.000Z</time>
      </trkpt>
      <trkpt lat="43.2501" lon="6.17409">
        <ele>83</ele>
        <time>2024-09-25T15:20:47.000Z</time>
      </trkpt>
      <trkpt lat="43.25004" lon="6.17411">
        <ele>83</ele>
        <time>2024-09-25T15:20:51.000Z</time>
      </trkpt>
      <trkpt lat="43.24999" lon="6.17413">
        <ele>83</ele>
        <time>2024-09-25T15:20:55.000Z</time>
      </trkpt>
      <trkpt lat="43.24997" lon="6.17415">
        <ele>83</ele>
        <time>2024-09-25T15:20:57.000Z</time>
      </trkpt>
      <trkpt lat="43.24996" lon="6.17416">
        <ele>83</ele>
        <time>2024-09-25T15:20:59.000Z</time>
      </trkpt>
      <trkpt lat="43.24993" lon="6.17417">
        <ele>83</ele>
        <time>2024-09-25T15:21:01.000Z</time>
      </trkpt>
      <trkpt lat="43.24983" lon="6.17424">
        <ele>82</ele>
        <time>2024-09-25T15:21:09.000Z</time>
      </trkpt>
      <trkpt lat="43.24981" lon="6.17425">
        <ele>82</ele>
        <time>2024-09-25T15:21:11.000Z</time>
      </trkpt>
      <trkpt lat="43.24976" lon="6.17429">
        <ele>81</ele>
        <time>2024-09-25T15:21:15.000Z</time>
      </trkpt>
      <trkpt lat="43.24973" lon="6.17427">
        <ele>82</ele>
        <time>2024-09-25T15:21:19.000Z</time>
      </trkpt>
      <trkpt lat="43.24972" lon="6.17429">
        <ele>82</ele>
        <time>2024-09-25T15:21:21.000Z</time>
      </trkpt>
      <trkpt lat="43.2497" lon="6.17434">
        <ele>81</ele>
        <time>2024-09-25T15:21:27.000Z</time>
      </trkpt>
      <trkpt lat="43.24968" lon="6.17435">
        <ele>81</ele>
        <time>2024-09-25T15:21:31.000Z</time>
      </trkpt>
      <trkpt lat="43.24966" lon="6.17433">
        <ele>81</ele>
        <time>2024-09-25T15:21:33.000Z</time>
      </trkpt>
      <trkpt lat="43.24962" lon="6.17427">
        <ele>83</ele>
        <time>2024-09-25T15:21:37.000Z</time>
      </trkpt>
      <trkpt lat="43.2496" lon="6.17424">
        <ele>84</ele>
        <time>2024-09-25T15:21:39.000Z</time>
      </trkpt>
      <trkpt lat="43.24959" lon="6.17421">
        <ele>85</ele>
        <time>2024-09-25T15:21:43.000Z</time>
      </trkpt>
      <trkpt lat="43.24957" lon="6.17415">
        <ele>86</ele>
        <time>2024-09-25T15:21:47.000Z</time>
      </trkpt>
      <trkpt lat="43.24955" lon="6.17406">
        <ele>86</ele>
        <time>2024-09-25T15:21:53.000Z</time>
      </trkpt>
      <trkpt lat="43.24952" lon="6.17405">
        <ele>86</ele>
        <time>2024-09-25T15:21:55.000Z</time>
      </trkpt>
      <trkpt lat="43.24951" lon="6.17403">
        <ele>86</ele>
        <time>2024-09-25T15:21:57.000Z</time>
      </trkpt>
      <trkpt lat="43.24949" lon="6.17398">
        <ele>86</ele>
        <time>2024-09-25T15:22:01.000Z</time>
      </trkpt>
      <trkpt lat="43.24946" lon="6.1739">
        <ele>86</ele>
        <time>2024-09-25T15:22:05.000Z</time>
      </trkpt>
      <trkpt lat="43.24945" lon="6.17387">
        <ele>86</ele>
        <time>2024-09-25T15:22:07.000Z</time>
      </trkpt>
      <trkpt lat="43.24937" lon="6.17367">
        <ele>84</ele>
        <time>2024-09-25T15:22:19.000Z</time>
      </trkpt>
      <trkpt lat="43.24936" lon="6.17364">
        <ele>83</ele>
        <time>2024-09-25T15:22:21.000Z</time>
      </trkpt>
      <trkpt lat="43.24936" lon="6.1736">
        <ele>82</ele>
        <time>2024-09-25T15:22:25.000Z</time>
      </trkpt>
      <trkpt lat="43.24929" lon="6.17354">
        <ele>80</ele>
        <time>2024-09-25T15:22:31.000Z</time>
      </trkpt>
      <trkpt lat="43.24928" lon="6.17353">
        <ele>80</ele>
        <time>2024-09-25T15:22:33.000Z</time>
      </trkpt>
      <trkpt lat="43.24922" lon="6.17341">
        <ele>79</ele>
        <time>2024-09-25T15:22:41.000Z</time>
      </trkpt>
      <trkpt lat="43.2492" lon="6.17337">
        <ele>80</ele>
        <time>2024-09-25T15:22:45.000Z</time>
      </trkpt>
      <trkpt lat="43.24918" lon="6.17335">
        <ele>80</ele>
        <time>2024-09-25T15:22:47.000Z</time>
      </trkpt>
      <trkpt lat="43.24916" lon="6.17332">
        <ele>80</ele>
        <time>2024-09-25T15:22:49.000Z</time>
      </trkpt>
      <trkpt lat="43.24912" lon="6.17327">
        <ele>80</ele>
        <time>2024-09-25T15:22:53.000Z</time>
      </trkpt>
      <trkpt lat="43.24907" lon="6.17321">
        <ele>80</ele>
        <time>2024-09-25T15:22:57.000Z</time>
      </trkpt>
      <trkpt lat="43.24904" lon="6.17316">
        <ele>80</ele>
        <time>2024-09-25T15:23:01.000Z</time>
      </trkpt>
      <trkpt lat="43.24902" lon="6.17313">
        <ele>80</ele>
        <time>2024-09-25T15:23:03.000Z</time>
      </trkpt>
      <trkpt lat="43.24902" lon="6.17311">
        <ele>80</ele>
        <time>2024-09-25T15:23:05.000Z</time>
      </trkpt>
      <trkpt lat="43.24901" lon="6.17308">
        <ele>81</ele>
        <time>2024-09-25T15:23:07.000Z</time>
      </trkpt>
      <trkpt lat="43.24901" lon="6.17305">
        <ele>81</ele>
        <time>2024-09-25T15:23:11.000Z</time>
      </trkpt>
      <trkpt lat="43.249" lon="6.17303">
        <ele>81</ele>
        <time>2024-09-25T15:23:13.000Z</time>
      </trkpt>
      <trkpt lat="43.24898" lon="6.17301">
        <ele>81</ele>
        <time>2024-09-25T15:23:15.000Z</time>
      </trkpt>
      <trkpt lat="43.24896" lon="6.17299">
        <ele>81</ele>
        <time>2024-09-25T15:23:17.000Z</time>
      </trkpt>
      <trkpt lat="43.24894" lon="6.17296">
        <ele>81</ele>
        <time>2024-09-25T15:23:19.000Z</time>
      </trkpt>
      <trkpt lat="43.24889" lon="6.17291">
        <ele>81</ele>
        <time>2024-09-25T15:23:23.000Z</time>
      </trkpt>
      <trkpt lat="43.24886" lon="6.17289">
        <ele>80</ele>
        <time>2024-09-25T15:23:27.000Z</time>
      </trkpt>
      <trkpt lat="43.24883" lon="6.17283">
        <ele>78</ele>
        <time>2024-09-25T15:23:31.000Z</time>
      </trkpt>
      <trkpt lat="43.24882" lon="6.17274">
        <ele>77</ele>
        <time>2024-09-25T15:23:35.000Z</time>
      </trkpt>
      <trkpt lat="43.2488" lon="6.17268">
        <ele>76</ele>
        <time>2024-09-25T15:23:39.000Z</time>
      </trkpt>
      <trkpt lat="43.24877" lon="6.17265">
        <ele>76</ele>
        <time>2024-09-25T15:23:41.000Z</time>
      </trkpt>
      <trkpt lat="43.24876" lon="6.17262">
        <ele>76</ele>
        <time>2024-09-25T15:23:45.000Z</time>
      </trkpt>
      <trkpt lat="43.24873" lon="6.17259">
        <ele>77</ele>
        <time>2024-09-25T15:23:53.000Z</time>
      </trkpt>
      <trkpt lat="43.24866" lon="6.17259">
        <ele>80</ele>
        <time>2024-09-25T15:23:59.000Z</time>
      </trkpt>
      <trkpt lat="43.24865" lon="6.17256">
        <ele>81</ele>
        <time>2024-09-25T15:24:01.000Z</time>
      </trkpt>
      <trkpt lat="43.24865" lon="6.17253">
        <ele>82</ele>
        <time>2024-09-25T15:24:03.000Z</time>
      </trkpt>
      <trkpt lat="43.24866" lon="6.17249">
        <ele>82</ele>
        <time>2024-09-25T15:24:05.000Z</time>
      </trkpt>
      <trkpt lat="43.24868" lon="6.17243">
        <ele>82</ele>
        <time>2024-09-25T15:24:09.000Z</time>
      </trkpt>
      <trkpt lat="43.2487" lon="6.17237">
        <ele>83</ele>
        <time>2024-09-25T15:24:15.000Z</time>
      </trkpt>
      <trkpt lat="43.24871" lon="6.1724">
        <ele>85</ele>
        <time>2024-09-25T15:25:13.000Z</time>
      </trkpt>
      <trkpt lat="43.24871" lon="6.17244">
        <ele>83</ele>
        <time>2024-09-25T15:25:17.000Z</time>
      </trkpt>
      <trkpt lat="43.24863" lon="6.17255">
        <ele>83</ele>
        <time>2024-09-25T15:25:27.000Z</time>
      </trkpt>
      <trkpt lat="43.24862" lon="6.1726">
        <ele>84</ele>
        <time>2024-09-25T15:25:31.000Z</time>
      </trkpt>
      <trkpt lat="43.24855" lon="6.17263">
        <ele>84</ele>
        <time>2024-09-25T15:25:39.000Z</time>
      </trkpt>
      <trkpt lat="43.24853" lon="6.17262">
        <ele>84</ele>
        <time>2024-09-25T15:25:41.000Z</time>
      </trkpt>
      <trkpt lat="43.24851" lon="6.17263">
        <ele>83</ele>
        <time>2024-09-25T15:25:43.000Z</time>
      </trkpt>
      <trkpt lat="43.24849" lon="6.17262">
        <ele>83</ele>
        <time>2024-09-25T15:25:45.000Z</time>
      </trkpt>
      <trkpt lat="43.24845" lon="6.17262">
        <ele>82</ele>
        <time>2024-09-25T15:25:49.000Z</time>
      </trkpt>
      <trkpt lat="43.24843" lon="6.17269">
        <ele>81</ele>
        <time>2024-09-25T15:25:53.000Z</time>
      </trkpt>
      <trkpt lat="43.24837" lon="6.17276">
        <ele>81</ele>
        <time>2024-09-25T15:26:01.000Z</time>
      </trkpt>
      <trkpt lat="43.24834" lon="6.17278">
        <ele>81</ele>
        <time>2024-09-25T15:26:03.000Z</time>
      </trkpt>
      <trkpt lat="43.24825" lon="6.1728">
        <ele>80</ele>
        <time>2024-09-25T15:26:09.000Z</time>
      </trkpt>
      <trkpt lat="43.24822" lon="6.17283">
        <ele>81</ele>
        <time>2024-09-25T15:26:11.000Z</time>
      </trkpt>
      <trkpt lat="43.24816" lon="6.17287">
        <ele>80</ele>
        <time>2024-09-25T15:26:17.000Z</time>
      </trkpt>
      <trkpt lat="43.24813" lon="6.17288">
        <ele>81</ele>
        <time>2024-09-25T15:26:19.000Z</time>
      </trkpt>
      <trkpt lat="43.24812" lon="6.1729">
        <ele>81</ele>
        <time>2024-09-25T15:26:21.000Z</time>
      </trkpt>
      <trkpt lat="43.24805" lon="6.17295">
        <ele>82</ele>
        <time>2024-09-25T15:26:29.000Z</time>
      </trkpt>
      <trkpt lat="43.24804" lon="6.17297">
        <ele>83</ele>
        <time>2024-09-25T15:26:33.000Z</time>
      </trkpt>
      <trkpt lat="43.24804" lon="6.173">
        <ele>83</ele>
        <time>2024-09-25T15:26:39.000Z</time>
      </trkpt>
      <trkpt lat="43.24802" lon="6.17301">
        <ele>84</ele>
        <time>2024-09-25T15:26:45.000Z</time>
      </trkpt>
      <trkpt lat="43.24793" lon="6.17303">
        <ele>83</ele>
        <time>2024-09-25T15:26:53.000Z</time>
      </trkpt>
      <trkpt lat="43.24791" lon="6.17305">
        <ele>83</ele>
        <time>2024-09-25T15:26:55.000Z</time>
      </trkpt>
      <trkpt lat="43.24788" lon="6.17305">
        <ele>82</ele>
        <time>2024-09-25T15:26:57.000Z</time>
      </trkpt>
      <trkpt lat="43.24779" lon="6.17304">
        <ele>82</ele>
        <time>2024-09-25T15:27:09.000Z</time>
      </trkpt>
      <trkpt lat="43.24778" lon="6.17306">
        <ele>82</ele>
        <time>2024-09-25T15:27:13.000Z</time>
      </trkpt>
      <trkpt lat="43.24778" lon="6.1731">
        <ele>82</ele>
        <time>2024-09-25T15:27:17.000Z</time>
      </trkpt>
      <trkpt lat="43.24776" lon="6.17308">
        <ele>81</ele>
        <time>2024-09-25T15:27:29.000Z</time>
      </trkpt>
      <trkpt lat="43.24776" lon="6.17303">
        <ele>81</ele>
        <time>2024-09-25T15:27:33.000Z</time>
      </trkpt>
      <trkpt lat="43.24772" lon="6.17297">
        <ele>82</ele>
        <time>2024-09-25T15:27:37.000Z</time>
      </trkpt>
      <trkpt lat="43.24771" lon="6.17296">
        <ele>82</ele>
        <time>2024-09-25T15:27:39.000Z</time>
      </trkpt>
      <trkpt lat="43.24769" lon="6.17295">
        <ele>83</ele>
        <time>2024-09-25T15:27:41.000Z</time>
      </trkpt>
      <trkpt lat="43.24764" lon="6.17291">
        <ele>83</ele>
        <time>2024-09-25T15:27:45.000Z</time>
      </trkpt>
      <trkpt lat="43.24758" lon="6.1729">
        <ele>83</ele>
        <time>2024-09-25T15:27:49.000Z</time>
      </trkpt>
      <trkpt lat="43.24743" lon="6.17283">
        <ele>80</ele>
        <time>2024-09-25T15:28:05.000Z</time>
      </trkpt>
      <trkpt lat="43.24741" lon="6.17282">
        <ele>80</ele>
        <time>2024-09-25T15:28:07.000Z</time>
      </trkpt>
      <trkpt lat="43.24739" lon="6.17279">
        <ele>80</ele>
        <time>2024-09-25T15:28:09.000Z</time>
      </trkpt>
      <trkpt lat="43.24737" lon="6.17275">
        <ele>80</ele>
        <time>2024-09-25T15:28:11.000Z</time>
      </trkpt>
      <trkpt lat="43.24736" lon="6.17273">
        <ele>79</ele>
        <time>2024-09-25T15:28:13.000Z</time>
      </trkpt>
      <trkpt lat="43.24735" lon="6.1727">
        <ele>79</ele>
        <time>2024-09-25T15:28:15.000Z</time>
      </trkpt>
      <trkpt lat="43.24734" lon="6.17265">
        <ele>79</ele>
        <time>2024-09-25T15:28:17.000Z</time>
      </trkpt>
      <trkpt lat="43.24734" lon="6.17258">
        <ele>79</ele>
        <time>2024-09-25T15:28:21.000Z</time>
      </trkpt>
      <trkpt lat="43.24734" lon="6.17252">
        <ele>78</ele>
        <time>2024-09-25T15:28:25.000Z</time>
      </trkpt>
      <trkpt lat="43.24735" lon="6.17247">
        <ele>78</ele>
        <time>2024-09-25T15:28:29.000Z</time>
      </trkpt>
      <trkpt lat="43.24736" lon="6.17243">
        <ele>78</ele>
        <time>2024-09-25T15:28:31.000Z</time>
      </trkpt>
      <trkpt lat="43.24736" lon="6.1724">
        <ele>79</ele>
        <time>2024-09-25T15:28:33.000Z</time>
      </trkpt>
      <trkpt lat="43.24736" lon="6.17236">
        <ele>79</ele>
        <time>2024-09-25T15:28:37.000Z</time>
      </trkpt>
      <trkpt lat="43.24737" lon="6.17226">
        <ele>79</ele>
        <time>2024-09-25T15:28:43.000Z</time>
      </trkpt>
      <trkpt lat="43.24737" lon="6.17223">
        <ele>80</ele>
        <time>2024-09-25T15:28:45.000Z</time>
      </trkpt>
      <trkpt lat="43.24736" lon="6.1722">
        <ele>79</ele>
        <time>2024-09-25T15:28:47.000Z</time>
      </trkpt>
      <trkpt lat="43.24736" lon="6.17218">
        <ele>79</ele>
        <time>2024-09-25T15:28:49.000Z</time>
      </trkpt>
      <trkpt lat="43.24736" lon="6.17215">
        <ele>78</ele>
        <time>2024-09-25T15:28:51.000Z</time>
      </trkpt>
      <trkpt lat="43.24734" lon="6.1721">
        <ele>78</ele>
        <time>2024-09-25T15:28:55.000Z</time>
      </trkpt>
      <trkpt lat="43.24735" lon="6.17194">
        <ele>77</ele>
        <time>2024-09-25T15:29:05.000Z</time>
      </trkpt>
      <trkpt lat="43.24735" lon="6.17191">
        <ele>77</ele>
        <time>2024-09-25T15:29:07.000Z</time>
      </trkpt>
      <trkpt lat="43.24735" lon="6.17189">
        <ele>76</ele>
        <time>2024-09-25T15:29:09.000Z</time>
      </trkpt>
      <trkpt lat="43.24737" lon="6.17183">
        <ele>77</ele>
        <time>2024-09-25T15:29:13.000Z</time>
      </trkpt>
      <trkpt lat="43.24738" lon="6.1718">
        <ele>77</ele>
        <time>2024-09-25T15:29:15.000Z</time>
      </trkpt>
      <trkpt lat="43.24737" lon="6.17177">
        <ele>77</ele>
        <time>2024-09-25T15:29:17.000Z</time>
      </trkpt>
      <trkpt lat="43.24739" lon="6.17167">
        <ele>76</ele>
        <time>2024-09-25T15:29:23.000Z</time>
      </trkpt>
      <trkpt lat="43.24738" lon="6.17165">
        <ele>76</ele>
        <time>2024-09-25T15:29:25.000Z</time>
      </trkpt>
      <trkpt lat="43.24738" lon="6.17161">
        <ele>76</ele>
        <time>2024-09-25T15:29:27.000Z</time>
      </trkpt>
      <trkpt lat="43.24739" lon="6.17158">
        <ele>76</ele>
        <time>2024-09-25T15:29:29.000Z</time>
      </trkpt>
      <trkpt lat="43.24739" lon="6.17146">
        <ele>76</ele>
        <time>2024-09-25T15:29:37.000Z</time>
      </trkpt>
      <trkpt lat="43.24741" lon="6.17132">
        <ele>77</ele>
        <time>2024-09-25T15:29:47.000Z</time>
      </trkpt>
      <trkpt lat="43.24741" lon="6.17128">
        <ele>76</ele>
        <time>2024-09-25T15:29:49.000Z</time>
      </trkpt>
      <trkpt lat="43.24742" lon="6.17119">
        <ele>76</ele>
        <time>2024-09-25T15:29:55.000Z</time>
      </trkpt>
      <trkpt lat="43.24742" lon="6.17116">
        <ele>77</ele>
        <time>2024-09-25T15:29:57.000Z</time>
      </trkpt>
      <trkpt lat="43.24743" lon="6.17111">
        <ele>77</ele>
        <time>2024-09-25T15:29:59.000Z</time>
      </trkpt>
      <trkpt lat="43.24742" lon="6.17108">
        <ele>77</ele>
        <time>2024-09-25T15:30:01.000Z</time>
      </trkpt>
      <trkpt lat="43.24742" lon="6.17106">
        <ele>77</ele>
        <time>2024-09-25T15:30:03.000Z</time>
      </trkpt>
      <trkpt lat="43.24742" lon="6.17098">
        <ele>76</ele>
        <time>2024-09-25T15:30:07.000Z</time>
      </trkpt>
      <trkpt lat="43.24742" lon="6.17094">
        <ele>76</ele>
        <time>2024-09-25T15:30:09.000Z</time>
      </trkpt>
      <trkpt lat="43.24742" lon="6.17085">
        <ele>76</ele>
        <time>2024-09-25T15:30:15.000Z</time>
      </trkpt>
      <trkpt lat="43.24742" lon="6.17082">
        <ele>77</ele>
        <time>2024-09-25T15:30:17.000Z</time>
      </trkpt>
      <trkpt lat="43.24741" lon="6.17079">
        <ele>77</ele>
        <time>2024-09-25T15:30:19.000Z</time>
      </trkpt>
      <trkpt lat="43.24739" lon="6.17078">
        <ele>77</ele>
        <time>2024-09-25T15:30:21.000Z</time>
      </trkpt>
      <trkpt lat="43.24732" lon="6.17074">
        <ele>78</ele>
        <time>2024-09-25T15:30:27.000Z</time>
      </trkpt>
      <trkpt lat="43.2473" lon="6.17073">
        <ele>78</ele>
        <time>2024-09-25T15:30:29.000Z</time>
      </trkpt>
      <trkpt lat="43.24728" lon="6.17071">
        <ele>78</ele>
        <time>2024-09-25T15:30:31.000Z</time>
      </trkpt>
      <trkpt lat="43.24723" lon="6.17067">
        <ele>77</ele>
        <time>2024-09-25T15:30:35.000Z</time>
      </trkpt>
      <trkpt lat="43.24722" lon="6.17066">
        <ele>77</ele>
        <time>2024-09-25T15:30:37.000Z</time>
      </trkpt>
      <trkpt lat="43.24721" lon="6.17064">
        <ele>77</ele>
        <time>2024-09-25T15:30:39.000Z</time>
      </trkpt>
      <trkpt lat="43.24719" lon="6.17062">
        <ele>77</ele>
        <time>2024-09-25T15:30:41.000Z</time>
      </trkpt>
      <trkpt lat="43.24717" lon="6.1706">
        <ele>77</ele>
        <time>2024-09-25T15:30:43.000Z</time>
      </trkpt>
      <trkpt lat="43.24715" lon="6.17059">
        <ele>77</ele>
        <time>2024-09-25T15:30:45.000Z</time>
      </trkpt>
      <trkpt lat="43.24714" lon="6.17058">
        <ele>77</ele>
        <time>2024-09-25T15:30:47.000Z</time>
      </trkpt>
      <trkpt lat="43.24712" lon="6.17056">
        <ele>77</ele>
        <time>2024-09-25T15:30:49.000Z</time>
      </trkpt>
      <trkpt lat="43.24712" lon="6.17054">
        <ele>79</ele>
        <time>2024-09-25T15:31:09.000Z</time>
      </trkpt>
      <trkpt lat="43.24711" lon="6.17052">
        <ele>79</ele>
        <time>2024-09-25T15:31:11.000Z</time>
      </trkpt>
      <trkpt lat="43.24713" lon="6.1705">
        <ele>79</ele>
        <time>2024-09-25T15:31:13.000Z</time>
      </trkpt>
      <trkpt lat="43.24713" lon="6.17048">
        <ele>78</ele>
        <time>2024-09-25T15:31:15.000Z</time>
      </trkpt>
    </trkseg>
  </trk>
</gpx>